Provisional Data: Kishacoquillas Creek near Belleville, PA


Please select a monitoring station.
Please select start date.
Please select start date.

Toggle Unit: C/F Toggle Unit: C/F
Sample Time Temperature (C) Temperature (F) Specific Conductivity (mS/cm) pH   Turbidity (NTU+) DO (mg/L)
1/12/2021 12:00:00 AM 6.43 43.574 0.489 7.81 14.56 11.3
1/12/2021 12:15:00 AM 6.39 43.502 0.49 7.81 15.52 11.29
1/12/2021 12:30:00 AM 6.34 43.412 0.491 7.81 16.05 11.28
1/12/2021 12:45:00 AM 6.29 43.322 0.491 7.81 17.58 11.3
1/12/2021 1:00:00 AM 6.24 43.232 0.491 7.81 16.89 11.3
1/12/2021 1:15:00 AM 6.2 43.16 0.491 7.81 14.9 11.32
1/12/2021 1:30:00 AM 6.15 43.07 0.491 7.81 16.97 11.34
1/12/2021 1:45:00 AM 6.1 42.98 0.491 7.8 21.63 11.37
1/12/2021 2:00:00 AM 6.05 42.89 0.491 7.81 17.03 11.41
1/12/2021 2:15:00 AM 6 42.8 0.491 7.8 14.65 11.4
1/12/2021 2:30:00 AM 5.95 42.71 0.491 7.81 18.35 11.43
1/12/2021 2:45:00 AM 5.89 42.602 0.49 7.81 16 11.43
1/12/2021 3:00:00 AM 5.84 42.512 0.49 7.81 14.71 11.47
1/12/2021 3:15:00 AM 5.78 42.404 0.491 7.81 16.26 11.49
1/12/2021 3:30:00 AM 5.74 42.332 0.49 7.81 14.86 11.51
1/12/2021 3:45:00 AM 5.68 42.224 0.491 7.81 17.89 11.53
1/12/2021 4:00:00 AM 5.62 42.116 0.491 7.81 13.99 11.55
1/12/2021 4:15:00 AM 5.57 42.026 0.491 7.8 14.82 11.59
1/12/2021 4:30:00 AM 5.53 41.954 0.491 7.8 14.15 11.6
1/12/2021 4:45:00 AM 5.48 41.864 0.491 7.81 14.48 11.6
1/12/2021 5:00:00 AM 5.45 41.81 0.491 7.81 16.47 11.64
1/12/2021 5:15:00 AM 5.43 41.774 0.491 7.81 14.64 11.66
1/12/2021 5:30:00 AM 5.4 41.72 0.491 7.81 15.88 11.65
1/12/2021 5:45:00 AM 5.37 41.666 0.491 7.8 13.57 11.68
1/12/2021 6:00:00 AM 5.34 41.612 0.491 7.81 13.64 11.68
1/12/2021 6:15:00 AM 5.31 41.558 0.491 7.81 16.28 11.7
1/12/2021 6:30:00 AM 5.28 41.504 0.491 7.8 12.73 11.72
1/12/2021 6:45:00 AM 5.25 41.45 0.492 7.81 14.32 11.74
1/12/2021 7:00:00 AM 5.22 41.396 0.492 7.81 18.39 11.75
1/12/2021 7:15:00 AM 5.2 41.36 0.492 7.8 13.62 11.75
1/12/2021 7:30:00 AM 5.18 41.324 0.492 7.8 14.94 11.76
1/12/2021 7:45:00 AM 5.15 41.27 0.492 7.8 18 11.79
1/12/2021 8:00:00 AM 5.14 41.252 0.492 7.8 17.74 11.84
1/12/2021 8:15:00 AM 5.13 41.234 0.492 7.81 13.76 11.88
1/12/2021 8:30:00 AM 5.13 41.234 0.492 7.81 14.55 11.99
1/12/2021 8:45:00 AM 5.15 41.27 0.492 7.82 12.17 12.11
1/12/2021 9:00:00 AM 5.18 41.324 0.492 7.83 13.09 12.25
1/12/2021 9:15:00 AM 5.21 41.378 0.492 7.84 14.1 12.38
1/12/2021 9:30:00 AM 5.23 41.414 0.492 7.85 12.15 12.52
1/12/2021 9:45:00 AM 5.25 41.45 0.492 7.85 12.26 12.63
1/12/2021 10:00:00 AM 5.3 41.54 0.492 7.82 11.36 12.73
1/12/2021 10:15:00 AM 5.39 41.702 0.492 7.87 13.75 12.84
1/12/2021 10:30:00 AM 5.46 41.828 0.491 7.87 12.42 12.94
1/12/2021 10:45:00 AM 5.52 41.936 0.491 7.89 13.05 13.01
1/12/2021 11:00:00 AM 5.55 41.99 0.491 7.9 11.5 13.07
1/12/2021 11:15:00 AM 5.6 42.08 0.49 7.89 9.71 13.12
1/12/2021 11:30:00 AM 5.66 42.188 0.49 7.91 10.31 13.18
1/12/2021 11:45:00 AM 5.74 42.332 0.49 7.91 11.28 13.26
1/12/2021 12:00:00 PM 5.84 42.512 0.49 7.93 9.91 13.34
1/12/2021 12:15:00 PM 5.92 42.656 0.49 7.94 11.11 13.41
1/12/2021 12:30:00 PM 6 42.8 0.49 7.94 9.3 13.46
1/12/2021 12:45:00 PM 6.09 42.962 0.49 7.95 10.34 13.5
1/12/2021 1:00:00 PM 6.17 43.106 0.489 7.94 8.15 13.54
1/12/2021 1:15:00 PM 6.27 43.286 0.49 7.96 8.57 13.56
1/12/2021 1:30:00 PM 6.43 43.574 0.489 7.97 9.53 13.64
1/12/2021 1:45:00 PM 6.57 43.826 0.489 7.99 10.05 13.67
1/12/2021 2:00:00 PM 6.73 44.114 0.488 7.98 10.45 13.71
1/12/2021 2:15:00 PM 6.84 44.312 0.488 7.98 8.88 13.71
1/12/2021 2:30:00 PM 6.9 44.42 0.488 7.99 10.58 13.62
1/12/2021 2:45:00 PM 6.93 44.474 0.488 7.99 10.22 13.57
1/12/2021 3:00:00 PM 6.97 44.546 0.488 7.99 10.63 13.51
1/12/2021 3:15:00 PM 7.02 44.636 0.488 8.01 11.27 13.45
1/12/2021 3:30:00 PM 7.06 44.708 0.488 8.01 10.07 13.38
1/12/2021 3:45:00 PM 7.09 44.762 0.488 8.01 9.24 13.31
1/12/2021 4:00:00 PM 7.12 44.816 0.488 8.01 8.68 13.21
1/12/2021 4:15:00 PM 7.13 44.834 0.488 8.01 10.11 13.11
1/12/2021 4:30:00 PM 7.15 44.87 0.488 8.01 10.25 13.02
1/12/2021 4:45:00 PM 7.15 44.87 0.488 8.01 9.99 12.86
1/12/2021 5:00:00 PM 7.14 44.852 0.488 8 8.73 12.71
1/12/2021 5:15:00 PM 7.15 44.87 0.488 7.99 10.59 12.56
1/12/2021 5:30:00 PM 7.16 44.888 0.489 7.98 8.97 12.41
1/12/2021 5:45:00 PM 7.18 44.924 0.489 7.97 10.57 12.27
1/12/2021 6:00:00 PM 7.19 44.942 0.489 7.96 8.55 12.14
1/12/2021 6:15:00 PM 7.2 44.96 0.491 7.94 9 12.05
1/12/2021 6:30:00 PM 7.21 44.978 0.494 7.94 9.81 11.94
1/12/2021 6:45:00 PM 7.22 44.996 0.497 7.93 15.68 11.89
1/12/2021 7:00:00 PM 7.24 45.032 0.497 7.92 10.79 11.78
1/12/2021 7:15:00 PM 7.26 45.068 0.494 7.92 15.26 11.7
1/12/2021 7:30:00 PM 7.27 45.086 0.492 7.91 10.67 11.6
1/12/2021 7:45:00 PM 7.28 45.104 0.491 7.91 10.63 11.57
1/12/2021 8:00:00 PM 7.28 45.104 0.49 7.9 12.49 11.5
1/12/2021 8:15:00 PM 7.28 45.104 0.49 7.89 16.76 11.46
1/12/2021 8:30:00 PM 7.28 45.104 0.49 7.89 10.36 11.4
1/12/2021 8:45:00 PM 7.27 45.086 0.489 7.88 12.27 11.36
1/12/2021 9:00:00 PM 7.26 45.068 0.489 7.88 9.78 11.33
1/12/2021 9:15:00 PM 7.24 45.032 0.49 7.86 12.48 11.27
1/12/2021 9:30:00 PM 7.23 45.014 0.49 7.86 13.59 11.25
1/12/2021 9:45:00 PM 7.22 44.996 0.49 7.86 11.11 11.22
1/12/2021 10:00:00 PM 7.21 44.978 0.49 7.86 12.17 11.19
1/12/2021 10:15:00 PM 7.2 44.96 0.49 7.85 12.72 11.16
1/12/2021 10:30:00 PM 7.18 44.924 0.49 7.85 10.48 11.14
1/12/2021 10:45:00 PM 7.17 44.906 0.49 7.85 14.29 11.11
1/12/2021 11:00:00 PM 7.15 44.87 0.49 7.84 11.8 11.11
1/12/2021 11:15:00 PM 7.14 44.852 0.491 7.84 13.68 11.1
1/12/2021 11:30:00 PM 7.12 44.816 0.491 7.84 12.19 11.09
1/12/2021 11:45:00 PM 7.09 44.762 0.491 7.83 13.63 11.07
1/13/2021 12:00:00 AM 7.06 44.708 0.491 7.83 14.44 11.09
1/13/2021 12:15:00 AM 7.01 44.618 0.491 7.83 19.82 11.08
1/13/2021 12:30:00 AM 6.96 44.528 0.491 7.82 13.51 11.08
1/13/2021 12:45:00 AM 6.91 44.438 0.492 7.82 13.09 11.07
1/13/2021 1:00:00 AM 6.86 44.348 0.492 7.82 11.28 11.1
1/13/2021 1:15:00 AM 6.81 44.258 0.492 7.82 12.63 11.12
1/13/2021 1:30:00 AM 6.76 44.168 0.492 7.82 11.22 11.1
1/13/2021 1:45:00 AM 6.72 44.096 0.492 7.82 11.15 11.14
1/13/2021 2:00:00 AM 6.67 44.006 0.492 7.82 12.83 11.13
1/13/2021 2:15:00 AM 6.62 43.916 0.493 7.82 11.02 11.15
1/13/2021 2:30:00 AM 6.57 43.826 0.493 7.82 10.05 11.16
1/13/2021 2:45:00 AM 6.52 43.736 0.493 7.82 11.17 11.18
1/13/2021 3:00:00 AM 6.48 43.664 0.494 7.81 12.98 11.19
1/13/2021 3:15:00 AM 6.44 43.592 0.494 7.82 10.69 11.2
1/13/2021 3:30:00 AM 6.4 43.52 0.495 7.81 12.03 11.22
1/13/2021 3:45:00 AM 6.36 43.448 0.496 7.81 16.03 11.24
1/13/2021 4:00:00 AM 6.32 43.376 0.496 7.81 12.21 11.24
1/13/2021 4:15:00 AM 6.28 43.304 0.497 7.81 11.59 11.26
1/13/2021 4:30:00 AM 6.25 43.25 0.496 7.81 11.78 11.28
1/13/2021 4:45:00 AM 6.22 43.196 0.496 7.81 14.36 11.28
1/13/2021 5:00:00 AM 6.18 43.124 0.495 7.81 14.17 11.33
1/13/2021 5:15:00 AM 6.14 43.052 0.495 7.81 13.16 11.33
1/13/2021 5:30:00 AM 6.11 42.998 0.495 7.81 13.22 11.35
1/13/2021 5:45:00 AM 6.09 42.962 0.495 7.82 12.39 11.35
1/13/2021 6:00:00 AM 6.07 42.926 0.494 7.81 11.87 11.38
1/13/2021 6:15:00 AM 6.05 42.89 0.494 7.81 11.23 11.38
1/13/2021 6:30:00 AM 6.02 42.836 0.494 7.81 13.93 11.39
1/13/2021 6:45:00 AM 6 42.8 0.494 7.81 11.7 11.4
1/13/2021 7:00:00 AM 5.99 42.782 0.494 7.81 11.33 11.41
1/13/2021 7:15:00 AM 5.96 42.728 0.494 7.81 12.64 11.41
1/13/2021 7:30:00 AM 5.95 42.71 0.494 7.81 19.16 11.43
1/13/2021 7:45:00 AM 5.94 42.692 0.494 7.81 14.11 11.45
1/13/2021 8:00:00 AM 5.93 42.674 0.494 7.81 11.48 11.47
1/13/2021 8:15:00 AM 5.93 42.674 0.494 7.81 11.01 11.51
1/13/2021 8:30:00 AM 5.92 42.656 0.494 7.81 12.53 11.56
1/13/2021 8:45:00 AM 5.92 42.656 0.494 7.82 11.73 11.59
1/13/2021 9:00:00 AM 5.91 42.638 0.494 7.82 12.56 11.66
1/13/2021 9:15:00 AM 5.92 42.656 0.494 7.83 10.01 11.74
1/13/2021 9:30:00 AM 5.92 42.656 0.494 7.83 12.56 11.85
1/13/2021 9:45:00 AM 5.92 42.656 0.494 7.83 10.29 11.88
1/13/2021 10:00:00 AM 5.93 42.674 0.494 7.73 9.43 11.98
1/13/2021 10:15:00 AM 5.95 42.71 0.494 7.85 11.79 12.07
1/13/2021 10:30:00 AM 5.97 42.746 0.494 7.86 10.83 12.18
1/13/2021 10:45:00 AM 6.01 42.818 0.494 7.8 11.22 12.32
1/13/2021 11:00:00 AM 6.04 42.872 0.494 7.86 9.33 12.49
1/13/2021 11:15:00 AM 6.09 42.962 0.493 7.88 10.9 12.63
1/13/2021 11:30:00 AM 6.14 43.052 0.493 7.89 9.77 12.74
1/13/2021 11:45:00 AM 6.2 43.16 0.493 7.91 9.55 12.87
1/13/2021 12:00:00 PM 6.27 43.286 0.493 7.92 9.33 13
1/13/2021 12:15:00 PM 6.37 43.466 0.492 7.92 9.2 13.12
1/13/2021 12:30:00 PM 6.5 43.7 0.492 7.92 10.1 13.24
1/13/2021 12:45:00 PM 6.59 43.862 0.492 7.93 10.83 13.33
1/13/2021 1:00:00 PM 6.7 44.06 0.491 7.94 9.52 13.38
1/13/2021 1:15:00 PM 6.78 44.204 0.492 7.97 9.37 13.44
1/13/2021 1:30:00 PM 6.81 44.258 0.492 7.96 14.28 13.42
1/13/2021 1:45:00 PM 6.85 44.33 0.492 7.97 8.22 13.42
1/13/2021 2:00:00 PM 6.89 44.402 0.492 7.98 7.79 13.41
1/13/2021 2:15:00 PM 6.94 44.492 0.492 7.96 9.26 13.42
1/13/2021 2:30:00 PM 6.99 44.582 0.491 7.99 8.99 13.42
1/13/2021 2:45:00 PM 7.03 44.654 0.491 8 9.95 13.36
1/13/2021 3:00:00 PM 7.05 44.69 0.491 8 11.02 13.29
1/13/2021 3:15:00 PM 7.07 44.726 0.491 8 11.66 13.19
1/13/2021 3:30:00 PM 7.08 44.744 0.491 8 12.93 13.13
1/13/2021 3:45:00 PM 7.09 44.762 0.491 8 11.5 13.03
1/13/2021 4:00:00 PM 7.1 44.78 0.491 8 10.82 12.98
1/13/2021 4:15:00 PM 7.13 44.834 0.491 8 15.18 12.89
1/13/2021 4:30:00 PM 7.15 44.87 0.491 8 9.65 12.78
1/13/2021 4:45:00 PM 7.18 44.924 0.491 7.99 10.47 12.61
1/13/2021 5:00:00 PM 7.2 44.96 0.491 7.99 10.54 12.48
1/13/2021 5:15:00 PM 7.21 44.978 0.491 7.98 14.09 12.34
1/13/2021 5:30:00 PM 7.22 44.996 0.492 7.97 14.51 12.2
1/13/2021 5:45:00 PM 7.23 45.014 0.492 7.95 11.48 12.09
1/13/2021 6:00:00 PM 7.23 45.014 0.492 7.95 10.23 11.98
1/13/2021 6:15:00 PM 7.23 45.014 0.492 7.94 12 11.9
1/13/2021 6:30:00 PM 7.23 45.014 0.492 7.93 11 11.81
1/13/2021 6:45:00 PM 7.22 44.996 0.492 7.89 10.19 11.73
1/13/2021 7:00:00 PM 7.21 44.978 0.492 7.92 9.77 11.65
1/13/2021 7:15:00 PM 7.2 44.96 0.492 7.91 10.41 11.59
1/13/2021 7:30:00 PM 7.18 44.924 0.492 7.9 10.26 11.53
1/13/2021 7:45:00 PM 7.16 44.888 0.492 7.9 11.38 11.48
1/13/2021 8:00:00 PM 7.15 44.87 0.492 7.89 10.86 11.44
1/13/2021 8:15:00 PM 7.12 44.816 0.492 7.89 9.68 11.38
1/13/2021 8:30:00 PM 7.1 44.78 0.493 7.88 14.06 11.33
1/13/2021 8:45:00 PM 7.08 44.744 0.493 7.88 10.22 11.28
1/13/2021 9:00:00 PM 7.05 44.69 0.493 7.87 11.95 11.24
1/13/2021 9:15:00 PM 7.03 44.654 0.493 7.87 10.07 11.21
1/13/2021 9:30:00 PM 7.01 44.618 0.493 7.86 9.89 11.17
1/13/2021 9:45:00 PM 6.99 44.582 0.493 7.86 11.39 11.15
1/13/2021 10:00:00 PM 6.97 44.546 0.493 7.85 11.87 11.14
1/13/2021 10:15:00 PM 6.95 44.51 0.493 7.85 13.06 11.12
1/13/2021 10:30:00 PM 6.92 44.456 0.493 7.84 10.54 11.08
1/13/2021 10:45:00 PM 6.9 44.42 0.494 7.84 16.12 11.07
1/13/2021 11:00:00 PM 6.88 44.384 0.494 7.83 9.63 11.06
1/13/2021 11:15:00 PM 6.86 44.348 0.495 7.83 10.33 11.05
1/13/2021 11:30:00 PM 6.85 44.33 0.496 7.83 13.91 11.05
1/13/2021 11:45:00 PM 6.83 44.294 0.496 7.82 11.47 11.05
1/14/2021 12:00:00 AM 6.81 44.258 0.497 7.82 12.91 11.04
1/14/2021 12:15:00 AM 6.79 44.222 0.497 7.82 12.58 11.02
1/14/2021 12:30:00 AM 6.78 44.204 0.497 7.82 11.1 11.03
1/14/2021 12:45:00 AM 6.76 44.168 0.497 7.82 10.73 11.05
1/14/2021 1:00:00 AM 6.74 44.132 0.496 7.82 10.93 11.05
1/14/2021 1:15:00 AM 6.72 44.096 0.496 7.81 10.62 11.03
1/14/2021 1:30:00 AM 6.69 44.042 0.496 7.81 11.4 11.06
1/14/2021 1:45:00 AM 6.67 44.006 0.495 7.81 11.6 11.06
1/14/2021 2:00:00 AM 6.64 43.952 0.495 7.81 10.76 11.04
1/14/2021 2:15:00 AM 6.62 43.916 0.495 7.81 19.21 11.04
1/14/2021 2:30:00 AM 6.59 43.862 0.495 7.8 11.61 11.06
1/14/2021 2:45:00 AM 6.57 43.826 0.496 7.8 13.06 11.07
1/14/2021 3:00:00 AM 6.54 43.772 0.495 7.8 10.72 11.07
1/14/2021 3:15:00 AM 6.52 43.736 0.496 7.8 10.78 11.09
1/14/2021 3:30:00 AM 6.5 43.7 0.496 7.8 11.93 11.12
1/14/2021 3:45:00 AM 6.48 43.664 0.496 7.8 11.89 11.13
1/14/2021 4:00:00 AM 6.46 43.628 0.496 7.8 10.41 11.13
1/14/2021 4:15:00 AM 6.43 43.574 0.496 7.8 16.27 11.13
1/14/2021 4:30:00 AM 6.4 43.52 0.496 7.8 12.07 11.14
1/14/2021 4:45:00 AM 6.38 43.484 0.496 7.8 14.79 11.16
1/14/2021 5:00:00 AM 6.36 43.448 0.496 7.8 12.35 11.18
1/14/2021 5:15:00 AM 6.33 43.394 0.496 7.8 11.5 11.18
1/14/2021 5:30:00 AM 6.3 43.34 0.496 7.8 11.74 11.17
1/14/2021 5:45:00 AM 6.27 43.286 0.496 7.8 11.45 11.19
1/14/2021 6:00:00 AM 6.25 43.25 0.496 7.8 12.01 11.19
1/14/2021 6:15:00 AM 6.23 43.214 0.496 7.8 14.89 11.21
1/14/2021 6:30:00 AM 6.22 43.196 0.496 7.8 11.54 11.22
1/14/2021 6:45:00 AM 6.21 43.178 0.496 7.8 11.2 11.23
1/14/2021 7:00:00 AM 6.19 43.142 0.496 7.8 13.17 11.22
1/14/2021 7:15:00 AM 6.18 43.124 0.496 7.8 11.92 11.24
1/14/2021 7:30:00 AM 6.18 43.124 0.496 7.8 11.29 11.25
1/14/2021 7:45:00 AM 6.17 43.106 0.496 7.8 15.6 11.24
1/14/2021 8:00:00 AM 6.17 43.106 0.496 7.8 12.12 11.26
1/14/2021 8:15:00 AM 6.17 43.106 0.496 7.8 12.22 11.33
1/14/2021 8:30:00 AM 6.18 43.124 0.496 7.8 11.3 11.41
1/14/2021 8:45:00 AM 6.19 43.142 0.496 7.81 10.29 11.49
1/14/2021 9:00:00 AM 6.22 43.196 0.496 7.81 11.22 11.64
1/14/2021 9:15:00 AM 6.25 43.25 0.496 7.82 10.76 11.82
1/14/2021 9:30:00 AM 6.29 43.322 0.496 7.84 9.37 11.99
1/14/2021 9:45:00 AM 6.34 43.412 0.495 7.85 11.68 12.16
1/14/2021 10:00:00 AM 6.39 43.502 0.495 7.86 9.13 12.34
1/14/2021 10:15:00 AM 6.46 43.628 0.495 7.87 9.3 12.5
1/14/2021 10:30:00 AM 6.52 43.736 0.494 7.89 11 12.64
1/14/2021 10:45:00 AM 6.58 43.844 0.494 7.9 8.98 12.76
1/14/2021 11:00:00 AM 6.65 43.97 0.494 7.91 9.16 12.9
1/14/2021 11:15:00 AM 6.76 44.168 0.493 7.92 8.82 13.04
1/14/2021 11:30:00 AM 6.85 44.33 0.493 7.93 11.94 13.13
1/14/2021 11:45:00 AM 6.98 44.564 0.493 7.95 16.66 13.28
1/14/2021 12:00:00 PM 7.08 44.744 0.492 7.96 8.48 13.34
1/14/2021 12:15:00 PM 7.19 44.942 0.492 7.96 8.18 13.43
1/14/2021 12:30:00 PM 7.3 45.14 0.492 7.95 10.91 13.47
1/14/2021 12:45:00 PM 7.41 45.338 0.492 7.96 10.1 13.51
1/14/2021 1:00:00 PM 7.55 45.59 0.491 7.97 9.78 13.59
1/14/2021 1:15:00 PM 7.73 45.914 0.491 7.99 11.32 13.66
1/14/2021 1:30:00 PM 7.85 46.13 0.491 8 8.22 13.69
1/14/2021 1:45:00 PM 7.97 46.346 0.491 8.01 7.69 13.71
1/14/2021 2:00:00 PM 8.08 46.544 0.49 8.02 8.4 13.76
1/14/2021 2:15:00 PM 8.14 46.652 0.49 8.03 7.18 13.72
1/14/2021 2:30:00 PM 8.22 46.796 0.49 8.04 7.41 13.71
1/14/2021 2:45:00 PM 8.3 46.94 0.49 8.05 7.78 13.68
1/14/2021 3:00:00 PM 8.33 46.994 0.489 8.05 8.17 13.62
1/14/2021 3:15:00 PM 8.37 47.066 0.489 8.05 8.22 13.56
1/14/2021 3:30:00 PM 8.41 47.138 0.489 8.06 8.41 13.5
1/14/2021 3:45:00 PM 8.42 47.156 0.489 8.08 8.52 13.35
1/14/2021 4:00:00 PM 8.43 47.174 0.489 8.07 8.26 13.25
1/14/2021 4:15:00 PM 8.43 47.174 0.489 8.05 10.26 13.08
1/14/2021 4:30:00 PM 8.44 47.192 0.489 8.06 8.53 12.94
1/14/2021 4:45:00 PM 8.43 47.174 0.49 8.06 9.32 12.71
1/14/2021 5:00:00 PM 8.43 47.174 0.49 8.05 12.17 12.5
1/14/2021 5:15:00 PM 8.41 47.138 0.49 8.04 10.51 12.31
1/14/2021 5:30:00 PM 8.4 47.12 0.49 8.03 10.29 12.14
1/14/2021 5:45:00 PM 8.4 47.12 0.49 8.02 8.76 12
1/14/2021 6:00:00 PM 8.39 47.102 0.49 8.01 9.93 11.85
1/14/2021 6:15:00 PM 8.39 47.102 0.49 8 8.36 11.74
1/14/2021 6:30:00 PM 8.38 47.084 0.49 7.99 10.03 11.62
1/14/2021 6:45:00 PM 8.36 47.048 0.49 7.98 11.24 11.51
1/14/2021 7:00:00 PM 8.34 47.012 0.491 7.97 10.32 11.39
1/14/2021 7:15:00 PM 8.32 46.976 0.491 7.96 9.17 11.34
1/14/2021 7:30:00 PM 8.29 46.922 0.491 7.95 11.9 11.26
1/14/2021 7:45:00 PM 8.25 46.85 0.491 7.94 9.46 11.18
1/14/2021 8:00:00 PM 8.21 46.778 0.491 7.93 11.96 11.13
1/14/2021 8:15:00 PM 8.17 46.706 0.491 7.92 11.34 11.06
1/14/2021 8:30:00 PM 8.14 46.652 0.491 7.91 9.49 10.98
1/14/2021 8:45:00 PM 8.1 46.58 0.491 7.9 12.54 10.94
1/14/2021 9:00:00 PM 8.05 46.49 0.491 7.9 9.04 10.89
1/14/2021 9:15:00 PM 8.01 46.418 0.492 7.89 11.38 10.86
1/14/2021 9:30:00 PM 7.97 46.346 0.492 7.88 13.45 10.82
1/14/2021 9:45:00 PM 7.93 46.274 0.492 7.87 13.8 10.76
1/14/2021 10:00:00 PM 7.89 46.202 0.492 7.87 9.9 10.75
1/14/2021 10:15:00 PM 7.86 46.148 0.492 7.86 11.16 10.73
1/14/2021 10:30:00 PM 7.83 46.094 0.493 7.86 10.33 10.73
1/14/2021 10:45:00 PM 7.8 46.04 0.493 7.85 10.11 10.71
1/14/2021 11:00:00 PM 7.76 45.968 0.494 7.84 11.9 10.69
1/14/2021 11:15:00 PM 7.73 45.914 0.494 7.84 13.08 10.68
1/14/2021 11:30:00 PM 7.7 45.86 0.495 7.83 9.6 10.66
1/14/2021 11:45:00 PM 7.66 45.788 0.496 7.83 14.58 10.67
1/15/2021 12:00:00 AM 7.61 45.698 0.497 7.83 11.17 10.66
1/15/2021 12:15:00 AM 7.55 45.59 0.497 7.82 11.85 10.67
1/15/2021 12:30:00 AM 7.47 45.446 0.497 7.82 10.39 10.67
1/15/2021 12:45:00 AM 7.41 45.338 0.497 7.82 14.39 10.7
1/15/2021 1:00:00 AM 7.35 45.23 0.497 7.82 9.24 10.71
1/15/2021 1:15:00 AM 7.3 45.14 0.496 7.82 17.83 10.74
1/15/2021 1:30:00 AM 7.26 45.068 0.496 7.81 10.54 10.74
1/15/2021 1:45:00 AM 7.22 44.996 0.496 7.81 10.29 10.76
1/15/2021 2:00:00 AM 7.18 44.924 0.496 7.81 10.6 10.8
1/15/2021 2:15:00 AM 7.14 44.852 0.497 7.81 9.57 10.8
1/15/2021 2:30:00 AM 7.1 44.78 0.496 7.81 13.3 10.81
1/15/2021 2:45:00 AM 7.06 44.708 0.497 7.81 11.08 10.82
1/15/2021 3:00:00 AM 7.02 44.636 0.497 7.81 10.43 10.85
1/15/2021 3:15:00 AM 6.98 44.564 0.497 7.81 10.94 10.87
1/15/2021 3:30:00 AM 6.93 44.474 0.497 7.81 9.41 10.88
1/15/2021 3:45:00 AM 6.89 44.402 0.497 7.81 10.3 10.91
1/15/2021 4:00:00 AM 6.84 44.312 0.497 7.8 9.91 10.93
1/15/2021 4:15:00 AM 6.79 44.222 0.497 7.81 12.11 10.94
1/15/2021 4:30:00 AM 6.74 44.132 0.497 7.81 10.9 10.98
1/15/2021 4:45:00 AM 6.69 44.042 0.497 7.8 19.94 10.98
1/15/2021 5:00:00 AM 6.64 43.952 0.498 7.8 12.77 10.98
1/15/2021 5:15:00 AM 6.6 43.88 0.498 7.81 10.91 11.03
1/15/2021 5:30:00 AM 6.55 43.79 0.498 7.81 10.32 11.05
1/15/2021 5:45:00 AM 6.5 43.7 0.498 7.81 11.19 11.07
1/15/2021 6:00:00 AM 6.46 43.628 0.498 7.81 12.24 11.09
1/15/2021 6:15:00 AM 6.42 43.556 0.498 7.81 11.76 11.12
1/15/2021 6:30:00 AM 6.38 43.484 0.498 7.81 10.88 11.12
1/15/2021 6:45:00 AM 6.34 43.412 0.498 7.81 12.06 11.15
1/15/2021 7:00:00 AM 6.31 43.358 0.498 7.8 10.63 11.15
1/15/2021 7:15:00 AM 6.29 43.322 0.498 7.81 12.13 11.17
1/15/2021 7:30:00 AM 6.28 43.304 0.498 7.8 12.98 11.17
1/15/2021 7:45:00 AM 6.25 43.25 0.498 7.81 12.61 11.19
1/15/2021 8:00:00 AM 6.23 43.214 0.498 7.81 13.88 11.24
1/15/2021 8:15:00 AM 6.2 43.16 0.498 7.81 11.62 11.27
1/15/2021 8:30:00 AM 6.18 43.124 0.498 7.82 10.72 11.39
1/15/2021 8:45:00 AM 6.17 43.106 0.498 7.82 11.41 11.51
1/15/2021 9:00:00 AM 6.18 43.124 0.498 7.83 11.94 11.59
1/15/2021 9:15:00 AM 6.18 43.124 0.497 7.84 9.93 11.68
1/15/2021 9:30:00 AM 6.19 43.142 0.497 7.84 10.81 11.76
1/15/2021 9:45:00 AM 6.21 43.178 0.497 7.85 9.39 11.93
1/15/2021 10:00:00 AM 6.26 43.268 0.497 7.87 12.5 12.16
1/15/2021 10:15:00 AM 6.3 43.34 0.497 7.88 9.61 12.34
1/15/2021 10:30:00 AM 6.34 43.412 0.496 7.89 8.45 12.52
1/15/2021 10:45:00 AM 6.37 43.466 0.496 7.9 8.27 12.64
1/15/2021 11:00:00 AM 6.41 43.538 0.496 7.91 10.04 12.78
1/15/2021 11:15:00 AM 6.46 43.628 0.495 7.93 9.09 12.89
1/15/2021 11:30:00 AM 6.53 43.754 0.495 7.94 7.97 13.02
1/15/2021 11:45:00 AM 6.6 43.88 0.494 7.95 9.96 13.14
1/15/2021 12:00:00 PM 6.65 43.97 0.494 7.96 7.7 13.25
1/15/2021 12:15:00 PM 6.7 44.06 0.494 7.97 8.54 13.36
1/15/2021 12:30:00 PM 6.75 44.15 0.494 7.98 7.75 13.42
1/15/2021 12:45:00 PM 6.8 44.24 0.494 8 9.39 13.49
1/15/2021 1:00:00 PM 6.86 44.348 0.493 8.01 8.22 13.59
1/15/2021 1:15:00 PM 6.9 44.42 0.493 8.02 9.48 13.62
1/15/2021 1:30:00 PM 6.94 44.492 0.492 8.03 8.28 13.6
1/15/2021 1:45:00 PM 6.96 44.528 0.493 8.03 7.63 13.58
1/15/2021 2:00:00 PM 6.96 44.528 0.492 8.04 10.05 13.5
1/15/2021 2:15:00 PM 6.98 44.564 0.493 8.03 7.57 13.36
1/15/2021 2:30:00 PM 7 44.6 0.493 8.04 10.02 13.3
1/15/2021 2:45:00 PM 7.03 44.654 0.493 8.04 9.03 13.24
1/15/2021 3:00:00 PM 7.05 44.69 0.493 8.04 8.78 13.18
1/15/2021 3:15:00 PM 7.07 44.726 0.493 8.04 12.4 13.07
1/15/2021 3:30:00 PM 7.09 44.762 0.493 8.03 7.8 12.96
1/15/2021 3:45:00 PM 7.09 44.762 0.493 8.02 8.11 12.8
1/15/2021 4:00:00 PM 7.11 44.798 0.493 8.02 8.53 12.67
1/15/2021 4:15:00 PM 7.13 44.834 0.493 8.01 7.31 12.55
1/15/2021 4:30:00 PM 7.14 44.852 0.493 8 8.4 12.45
1/15/2021 4:45:00 PM 7.16 44.888 0.493 8 8.1 12.37
1/15/2021 5:00:00 PM 7.17 44.906 0.492 7.99 9.08 12.26
1/15/2021 5:15:00 PM 7.18 44.924 0.492 7.98 9.51 12.15
1/15/2021 5:30:00 PM 7.2 44.96 0.493 7.98 8 12.05
1/15/2021 5:45:00 PM 7.22 44.996 0.493 7.97 8.88 11.95
1/15/2021 6:00:00 PM 7.24 45.032 0.493 7.96 9.42 11.85
1/15/2021 6:15:00 PM 7.25 45.05 0.493 7.96 8.08 11.77
1/15/2021 6:30:00 PM 7.26 45.068 0.494 7.94 9.18 11.69
1/15/2021 6:45:00 PM 7.26 45.068 0.498 7.93 12.05 11.62
1/15/2021 7:00:00 PM 7.28 45.104 0.495 7.92 11.64 11.53
1/15/2021 7:15:00 PM 7.3 45.14 0.494 7.91 12.35 11.47
1/15/2021 7:30:00 PM 7.31 45.158 0.493 7.91 9.7 11.4
1/15/2021 7:45:00 PM 7.33 45.194 0.493 7.89 11.04 11.34
1/15/2021 8:00:00 PM 7.34 45.212 0.492 7.89 13.17 11.29
1/15/2021 8:15:00 PM 7.35 45.23 0.492 7.88 10.99 11.22
1/15/2021 8:30:00 PM 7.36 45.248 0.492 7.87 11.57 11.17
1/15/2021 8:45:00 PM 7.37 45.266 0.492 7.87 8.75 11.11
1/15/2021 9:00:00 PM 7.37 45.266 0.492 7.86 14.55 11.07
1/15/2021 9:15:00 PM 7.39 45.302 0.492 7.85 9.68 11.02
1/15/2021 9:30:00 PM 7.39 45.302 0.492 7.85 9.45 10.96
1/15/2021 9:45:00 PM 7.4 45.32 0.49 7.84 11.58 10.94
1/15/2021 10:00:00 PM 7.4 45.32 0.49 7.83 9.9 10.89
1/15/2021 10:15:00 PM 7.41 45.338 0.489 7.82 16.34 10.83
1/15/2021 10:30:00 PM 7.41 45.338 0.49 7.81 14.8 10.82
1/15/2021 10:45:00 PM 7.4 45.32 0.49 7.81 16.02 10.77
1/15/2021 11:00:00 PM 7.31 45.158 0.489 7.8 24.98 10.76
1/15/2021 11:15:00 PM 7.31 45.158 0.49 7.79 27.4 10.77
1/15/2021 11:30:00 PM 7.32 45.176 0.488 7.78 20.57 10.75
1/15/2021 11:45:00 PM 7.32 45.176 0.488 7.78 16.67 10.72
1/16/2021 12:00:00 AM 7.33 45.194 0.488 7.78 14.56 10.72
1/16/2021 12:15:00 AM 7.33 45.194 0.488 7.78 14.25 10.73
1/16/2021 12:30:00 AM 7.32 45.176 0.489 7.78 13.78 10.72
1/16/2021 12:45:00 AM 7.31 45.158 0.49 7.78 13.41 10.72
1/16/2021 1:00:00 AM 7.31 45.158 0.491 7.78 16.87 10.7
1/16/2021 1:15:00 AM 7.3 45.14 0.491 7.78 12.39 10.71
1/16/2021 1:30:00 AM 7.29 45.122 0.491 7.78 14.62 10.71
1/16/2021 1:45:00 AM 7.27 45.086 0.489 7.78 15.55 10.71
1/16/2021 2:00:00 AM 7.25 45.05 0.485 7.78 16.77 10.71
1/16/2021 2:15:00 AM 7.2 44.96 0.482 7.77 17.41 10.69
1/16/2021 2:30:00 AM 7.16 44.888 0.479 7.77 16.47 10.72
1/16/2021 2:45:00 AM 7.12 44.816 0.478 7.76 16.85 10.73
1/16/2021 3:00:00 AM 7.08 44.744 0.477 7.76 19.55 10.7
1/16/2021 3:15:00 AM 7.03 44.654 0.477 7.76 16.88 10.71
1/16/2021 3:30:00 AM 6.98 44.564 0.478 7.75 17.17 10.73
1/16/2021 3:45:00 AM 6.93 44.474 0.478 7.75 16.64 10.73
1/16/2021 4:00:00 AM 6.89 44.402 0.479 7.76 21.68 10.76
1/16/2021 4:15:00 AM 6.84 44.312 0.479 7.76 16.27 10.79
1/16/2021 4:30:00 AM 6.79 44.222 0.48 7.76 21.74 10.82
1/16/2021 4:45:00 AM 6.74 44.132 0.48 7.77 14.69 10.83
1/16/2021 5:00:00 AM 6.69 44.042 0.479 7.77 17.84 10.85
1/16/2021 5:15:00 AM 6.64 43.952 0.479 7.77 14.88 10.85
1/16/2021 5:30:00 AM 6.59 43.862 0.478 7.77 18.11 10.86
1/16/2021 5:45:00 AM 6.54 43.772 0.477 7.77 14.5 10.89
1/16/2021 6:00:00 AM 6.48 43.664 0.475 7.77 17.49 10.92
1/16/2021 6:15:00 AM 6.42 43.556 0.474 7.77 14.8 10.95
1/16/2021 6:30:00 AM 6.36 43.448 0.472 7.77 14.15 10.97
1/16/2021 6:45:00 AM 6.29 43.322 0.471 7.77 18.4 10.98
1/16/2021 7:00:00 AM 6.22 43.196 0.469 7.77 17.77 11.01
1/16/2021 7:15:00 AM 6.16 43.088 0.468 7.76 27.57 11.01
1/16/2021 7:30:00 AM 6.09 42.962 0.467 7.76 17.22 11.05
1/16/2021 7:45:00 AM 6.04 42.872 0.466 7.76 19.21 11.08
1/16/2021 8:00:00 AM 5.99 42.782 0.466 7.77 19.53 11.14
1/16/2021 8:15:00 AM 5.95 42.71 0.466 7.77 18.95 11.23
1/16/2021 8:30:00 AM 5.93 42.674 0.466 7.78 16.49 11.36
1/16/2021 8:45:00 AM 5.92 42.656 0.466 7.78 16.31 11.5
1/16/2021 9:00:00 AM 5.92 42.656 0.466 7.79 14.96 11.62
1/16/2021 9:15:00 AM 5.92 42.656 0.467 7.8 16.11 11.76
1/16/2021 9:30:00 AM 5.94 42.692 0.468 7.81 16.32 11.94
1/16/2021 9:45:00 AM 5.95 42.71 0.468 7.82 17.85 12.13
1/16/2021 10:00:00 AM 5.96 42.728 0.469 7.84 16.42 12.27
1/16/2021 10:15:00 AM 6.01 42.818 0.469 7.85 16.64 12.48
1/16/2021 10:30:00 AM 6.07 42.926 0.47 7.86 16.28 12.65
1/16/2021 10:45:00 AM 6.14 43.052 0.47 7.87 17.91 12.82
1/16/2021 11:00:00 AM 6.2 43.16 0.47 7.89 16.17 12.98
1/16/2021 11:15:00 AM 6.27 43.286 0.471 7.9 15.66 13.12
1/16/2021 11:30:00 AM 6.35 43.43 0.471 7.88 15.28 13.22
1/16/2021 11:45:00 AM 6.44 43.592 0.471 7.93 17.71 13.36
1/16/2021 12:00:00 PM 6.54 43.772 0.472 7.94 14.99 13.48
1/16/2021 12:15:00 PM 6.61 43.898 0.472 7.96 14.45 13.56
1/16/2021 12:30:00 PM 6.65 43.97 0.472 7.93 13.45 13.59
1/16/2021 12:45:00 PM 6.75 44.15 0.472 7.95 14.86 13.73
1/16/2021 1:00:00 PM 6.84 44.312 0.472 7.99 13.42 13.83
1/16/2021 1:15:00 PM 6.93 44.474 0.473 8.01 13.09 13.89
1/16/2021 1:30:00 PM 7.06 44.708 0.472 8.03 12.58 14.01
1/16/2021 1:45:00 PM 7.1 44.78 0.473 8 13.12 14.03
1/16/2021 2:00:00 PM 7.13 44.834 0.472 8.04 11.31 14.07
1/16/2021 2:15:00 PM 7.15 44.87 0.473 8.07 11.14 14.07
1/16/2021 2:30:00 PM 7.16 44.888 0.472 8.07 13.48 14.05
1/16/2021 2:45:00 PM 7.18 44.924 0.472 8.08 11.48 14.01
1/16/2021 3:00:00 PM 7.2 44.96 0.472 8.09 11.54 13.96
1/16/2021 3:15:00 PM 7.22 44.996 0.473 8.09 11.18 13.9
1/16/2021 3:30:00 PM 7.24 45.032 0.473 8.1 11.8 13.84
1/16/2021 3:45:00 PM 7.26 45.068 0.474 8.1 10.61 13.78
1/16/2021 4:00:00 PM 7.28 45.104 0.476 8.1 10.31 13.66
1/16/2021 4:15:00 PM 7.28 45.104 0.476 8.1 13.38 13.48
1/16/2021 4:30:00 PM 7.27 45.086 0.477 8.1 9.75 13.29
1/16/2021 4:45:00 PM 7.28 45.104 0.478 8.09 10.16 13.08
1/16/2021 5:00:00 PM 7.28 45.104 0.478 8.08 10.7 12.89
1/16/2021 5:15:00 PM 7.29 45.122 0.477 8.07 11.49 12.71
1/16/2021 5:30:00 PM 7.29 45.122 0.477 8.06 9.65 12.56
1/16/2021 5:45:00 PM 7.29 45.122 0.477 8.05 10.57 12.4
1/16/2021 6:00:00 PM 7.26 45.068 0.476 8.04 9.18 12.24
1/16/2021 6:15:00 PM 7.25 45.05 0.476 8.03 10.98 12.11
1/16/2021 6:30:00 PM 7.22 44.996 0.476 8.02 10.07 12
1/16/2021 6:45:00 PM 7.22 44.996 0.476 8 12.53 11.86
1/16/2021 7:00:00 PM 7.2 44.96 0.476 7.99 13.2 11.76
1/16/2021 7:15:00 PM 7.18 44.924 0.476 7.98 11.99 11.69
1/16/2021 7:30:00 PM 7.15 44.87 0.476 7.97 10.69 11.63
1/16/2021 7:45:00 PM 7.12 44.816 0.476 7.96 9.81 11.55
1/16/2021 8:00:00 PM 7.08 44.744 0.476 7.95 10.71 11.47
1/16/2021 8:15:00 PM 7.05 44.69 0.477 7.94 10.25 11.41
1/16/2021 8:30:00 PM 7.04 44.672 0.477 7.94 11.03 11.33
1/16/2021 8:45:00 PM 7.02 44.636 0.477 7.93 12.61 11.26
1/16/2021 9:00:00 PM 7 44.6 0.478 7.92 11.3 11.2
1/16/2021 9:15:00 PM 6.97 44.546 0.478 7.91 9.47 11.14
1/16/2021 9:30:00 PM 6.94 44.492 0.478 7.9 9.88 11.11
1/16/2021 9:45:00 PM 6.92 44.456 0.478 7.89 11.71 11.05
1/16/2021 10:00:00 PM 6.9 44.42 0.479 7.88 9.53 11.02
1/16/2021 10:15:00 PM 6.86 44.348 0.479 7.88 8.99 10.99
1/16/2021 10:30:00 PM 6.83 44.294 0.48 7.87 9.36 10.95
1/16/2021 10:45:00 PM 6.79 44.222 0.48 7.86 10.28 10.95
1/16/2021 11:00:00 PM 6.76 44.168 0.48 7.86 11.94 10.95
1/16/2021 11:15:00 PM 6.73 44.114 0.481 7.86 10.51 10.92
1/16/2021 11:30:00 PM 6.68 44.024 0.481 7.85 13.48 10.9
1/16/2021 11:45:00 PM 6.65 43.97 0.482 7.84 11.91 10.91
1/17/2021 12:00:00 AM 6.6 43.88 0.482 7.84 9.78 10.93
1/17/2021 12:15:00 AM 6.55 43.79 0.482 7.84 10.18 10.91
1/17/2021 12:30:00 AM 6.5 43.7 0.482 7.83 10.75 10.92
1/17/2021 12:45:00 AM 6.45 43.61 0.483 7.83 12.01 10.93
1/17/2021 1:00:00 AM 6.41 43.538 0.483 7.83 10.78 10.94
1/17/2021 1:15:00 AM 6.37 43.466 0.483 7.83 11.08 10.97
1/17/2021 1:30:00 AM 6.33 43.394 0.484 7.82 10.64 10.95
1/17/2021 1:45:00 AM 6.29 43.322 0.484 7.82 12.15 10.97
1/17/2021 2:00:00 AM 6.24 43.232 0.484 7.82 14.39 10.98
1/17/2021 2:15:00 AM 6.2 43.16 0.485 7.82 13.84 11
1/17/2021 2:30:00 AM 6.15 43.07 0.485 7.82 10.11 11.01
1/17/2021 2:45:00 AM 6.11 42.998 0.485 7.82 10.93 11.03
1/17/2021 3:00:00 AM 6.07 42.926 0.485 7.82 11.54 11.06
1/17/2021 3:15:00 AM 6.03 42.854 0.485 7.82 11.86 11.07
1/17/2021 3:30:00 AM 5.99 42.782 0.486 7.81 10.69 11.07
1/17/2021 3:45:00 AM 5.95 42.71 0.486 7.81 11.63 11.1
1/17/2021 4:00:00 AM 5.92 42.656 0.486 7.81 10.66 11.13
1/17/2021 4:15:00 AM 5.88 42.584 0.486 7.81 10.01 11.14
1/17/2021 4:30:00 AM 5.84 42.512 0.486 7.81 10.25 11.15
1/17/2021 4:45:00 AM 5.81 42.458 0.486 7.81 10.32 11.16
1/17/2021 5:00:00 AM 5.77 42.386 0.486 7.81 11.5 11.2
1/17/2021 5:15:00 AM 5.74 42.332 0.487 7.81 10.09 11.2
1/17/2021 5:30:00 AM 5.71 42.278 0.487 7.81 10.89 11.22
1/17/2021 5:45:00 AM 5.67 42.206 0.487 7.81 10.06 11.23
1/17/2021 6:00:00 AM 5.63 42.134 0.487 7.81 10.9 11.25
1/17/2021 6:15:00 AM 5.6 42.08 0.487 7.81 11.26 11.28
1/17/2021 6:30:00 AM 5.57 42.026 0.487 7.81 10.97 11.28
1/17/2021 6:45:00 AM 5.53 41.954 0.487 7.81 13.11 11.32
1/17/2021 7:00:00 AM 5.49 41.882 0.487 7.81 10.33 11.32
1/17/2021 7:15:00 AM 5.47 41.846 0.487 7.81 10.84 11.34
1/17/2021 7:30:00 AM 5.44 41.792 0.487 7.81 13.05 11.34
1/17/2021 7:45:00 AM 5.42 41.756 0.487 7.81 9.97 11.37
1/17/2021 8:00:00 AM 5.4 41.72 0.487 7.81 11.77 11.38
1/17/2021 8:15:00 AM 5.39 41.702 0.488 7.82 10.33 11.41
1/17/2021 8:30:00 AM 5.38 41.684 0.488 7.82 11.73 11.45
1/17/2021 8:45:00 AM 5.38 41.684 0.488 7.82 9.87 11.51
1/17/2021 9:00:00 AM 5.37 41.666 0.488 7.83 9.61 11.55
1/17/2021 9:15:00 AM 5.36 41.648 0.487 7.83 10.96 11.63
1/17/2021 9:30:00 AM 5.37 41.666 0.487 7.84 9.7 11.71
1/17/2021 9:45:00 AM 5.39 41.702 0.487 7.84 10.34 11.84
1/17/2021 10:00:00 AM 5.42 41.756 0.487 7.85 10.91 12.01
1/17/2021 10:15:00 AM 5.44 41.792 0.487 7.86 10.08 12.11
1/17/2021 10:30:00 AM 5.45 41.81 0.487 7.87 8.2 12.22
1/17/2021 10:45:00 AM 5.48 41.864 0.487 7.88 9.08 12.43
1/17/2021 11:00:00 AM 5.5 41.9 0.487 7.89 9.18 12.47
1/17/2021 11:15:00 AM 5.52 41.936 0.487 7.89 8.71 12.56
1/17/2021 11:30:00 AM 5.55 41.99 0.486 7.91 8.88 12.73
1/17/2021 11:45:00 AM 5.57 42.026 0.486 7.92 8.98 12.83
1/17/2021 12:00:00 PM 5.58 42.044 0.486 7.93 8.26 12.81
1/17/2021 12:15:00 PM 5.62 42.116 0.486 7.93 8.05 12.98
1/17/2021 12:30:00 PM 5.65 42.17 0.486 7.95 10.97 13.06
1/17/2021 12:45:00 PM 5.67 42.206 0.486 7.95 9.59 13.12
1/17/2021 1:00:00 PM 5.72 42.296 0.486 7.96 10.46 13.28
1/17/2021 1:15:00 PM 5.74 42.332 0.486 7.97 8.62 13.29
1/17/2021 1:30:00 PM 5.76 42.368 0.486 7.98 8.71 13.29
1/17/2021 1:45:00 PM 5.78 42.404 0.486 7.98 7.87 13.27
1/17/2021 2:00:00 PM 5.79 42.422 0.486 7.99 8.55 13.23
1/17/2021 2:15:00 PM 5.81 42.458 0.485 7.99 8.24 13.25
1/17/2021 2:30:00 PM 5.84 42.512 0.485 8 10.62 13.31
1/17/2021 2:45:00 PM 5.9 42.62 0.485 8.01 7.69 13.47
1/17/2021 3:00:00 PM 5.97 42.746 0.484 8.03 7.42 13.63
1/17/2021 3:15:00 PM 6.03 42.854 0.484 8.04 8.5 13.73
1/17/2021 3:30:00 PM 6.07 42.926 0.484 8.05 8.23 13.64
1/17/2021 3:45:00 PM 6.11 42.998 0.484 8.05 13.23 13.65
1/17/2021 4:00:00 PM 6.11 42.998 0.484 8.05 9.37 13.54
1/17/2021 4:15:00 PM 6.1 42.98 0.484 8.05 9.21 13.36
1/17/2021 4:30:00 PM 6.11 42.998 0.485 8.04 8.42 13.2
1/17/2021 4:45:00 PM 6.11 42.998 0.485 8.04 8.37 13.07
1/17/2021 5:00:00 PM 6.11 42.998 0.485 8.03 8.03 12.91
1/17/2021 5:15:00 PM 6.11 42.998 0.485 8.02 8.79 12.77
1/17/2021 5:30:00 PM 6.12 43.016 0.485 8.01 9.48 12.62
1/17/2021 5:45:00 PM 6.12 43.016 0.485 8 8.69 12.48
1/17/2021 6:00:00 PM 6.13 43.034 0.485 7.99 7.99 12.36
1/17/2021 6:15:00 PM 6.13 43.034 0.485 7.98 9.15 12.26
1/17/2021 6:30:00 PM 6.14 43.052 0.485 7.97 8.17 12.16
1/17/2021 6:45:00 PM 6.14 43.052 0.486 7.96 9.1 12.09
1/17/2021 7:00:00 PM 6.15 43.07 0.486 7.96 8.8 12.01
1/17/2021 7:15:00 PM 6.16 43.088 0.486 7.95 8.86 11.96
1/17/2021 7:30:00 PM 6.16 43.088 0.486 7.94 8.32 11.89
1/17/2021 7:45:00 PM 6.17 43.106 0.486 7.93 10.69 11.86
1/17/2021 8:00:00 PM 6.18 43.124 0.486 7.93 9.16 11.8
1/17/2021 8:15:00 PM 6.18 43.124 0.486 7.93 9.32 11.75
1/17/2021 8:30:00 PM 6.19 43.142 0.486 7.92 9.83 11.69
1/17/2021 8:45:00 PM 6.2 43.16 0.486 7.91 8.55 11.64
1/17/2021 9:00:00 PM 6.2 43.16 0.486 7.91 9.19 11.58
1/17/2021 9:15:00 PM 6.21 43.178 0.486 7.9 9.06 11.52
1/17/2021 9:30:00 PM 6.22 43.196 0.486 7.9 7.94 11.47
1/17/2021 9:45:00 PM 6.22 43.196 0.486 7.89 8.65 11.43
1/17/2021 10:00:00 PM 6.22 43.196 0.487 7.88 8.26 11.39
1/17/2021 10:15:00 PM 6.22 43.196 0.486 7.88 8.98 11.37
1/17/2021 10:30:00 PM 6.23 43.214 0.487 7.87 9.54 11.35
1/17/2021 10:45:00 PM 6.22 43.196 0.487 7.87 8.38 11.31
1/17/2021 11:00:00 PM 6.22 43.196 0.487 7.87 10 11.29
1/17/2021 11:15:00 PM 6.22 43.196 0.487 7.86 8.94 11.28
1/17/2021 11:30:00 PM 6.21 43.178 0.488 7.86 10.21 11.26
1/17/2021 11:45:00 PM 6.2 43.16 0.488 7.86 8.64 11.24
1/18/2021 12:00:00 AM 6.18 43.124 0.489 7.85 8.4 11.22
1/18/2021 12:15:00 AM 6.18 43.124 0.489 7.85 9.59 11.22
1/18/2021 12:30:00 AM 6.18 43.124 0.489 7.85 8.36 11.2
1/18/2021 12:45:00 AM 6.17 43.106 0.489 7.84 8.21 11.19
1/18/2021 1:00:00 AM 6.17 43.106 0.489 7.85 8.42 11.19
1/18/2021 1:15:00 AM 6.15 43.07 0.489 7.84 8.99 11.17
1/18/2021 1:30:00 AM 6.14 43.052 0.489 7.84 8.53 11.18
1/18/2021 1:45:00 AM 6.12 43.016 0.489 7.84 9.67 11.17
1/18/2021 2:00:00 AM 6.11 42.998 0.489 7.84 8.73 11.18
1/18/2021 2:15:00 AM 6.1 42.98 0.49 7.83 8.14 11.19
1/18/2021 2:30:00 AM 6.1 42.98 0.49 7.83 8.62 11.17
1/18/2021 2:45:00 AM 6.09 42.962 0.49 7.84 8.86 11.2
1/18/2021 3:00:00 AM 6.09 42.962 0.49 7.83 8.8 11.2
1/18/2021 3:15:00 AM 6.08 42.944 0.491 7.83 9.3 11.18
1/18/2021 3:30:00 AM 6.06 42.908 0.491 7.83 8.71 11.18
1/18/2021 3:45:00 AM 6.04 42.872 0.491 7.83 10.12 11.18
1/18/2021 4:00:00 AM 6.02 42.836 0.492 7.83 8.69 11.18
1/18/2021 4:15:00 AM 5.98 42.764 0.493 7.83 9.37 11.19
1/18/2021 4:30:00 AM 5.97 42.746 0.494 7.83 8.55 11.2
1/18/2021 4:45:00 AM 5.96 42.728 0.494 7.83 9.23 11.19
1/18/2021 5:00:00 AM 5.96 42.728 0.494 7.82 9.13 11.18
1/18/2021 5:15:00 AM 5.95 42.71 0.493 7.82 9.41 11.21
1/18/2021 5:30:00 AM 5.93 42.674 0.493 7.82 9.68 11.22
1/18/2021 5:45:00 AM 5.91 42.638 0.493 7.83 9.12 11.21
1/18/2021 6:00:00 AM 5.89 42.602 0.492 7.83 10.85 11.22
1/18/2021 6:15:00 AM 5.87 42.566 0.492 7.83 9.93 11.21
1/18/2021 6:30:00 AM 5.86 42.548 0.492 7.82 12.28 11.24
1/18/2021 6:45:00 AM 5.85 42.53 0.492 7.82 9.79 11.24
1/18/2021 7:00:00 AM 5.84 42.512 0.491 7.83 8.77 11.25
1/18/2021 7:15:00 AM 5.83 42.494 0.492 7.83 9.02 11.26
1/18/2021 7:30:00 AM 5.82 42.476 0.492 7.82 10.5 11.25
1/18/2021 7:45:00 AM 5.81 42.458 0.492 7.82 9.18 11.25
1/18/2021 8:00:00 AM 5.8 42.44 0.492 7.82 10.27 11.3
1/18/2021 8:15:00 AM 5.8 42.44 0.492 7.82 8.75 11.32
1/18/2021 8:30:00 AM 5.79 42.422 0.492 7.83 9.19 11.37
1/18/2021 8:45:00 AM 5.77 42.386 0.492 7.83 8.71 11.44
1/18/2021 9:00:00 AM 5.78 42.404 0.491 7.83 8.81 11.59
1/18/2021 9:15:00 AM 5.78 42.404 0.491 7.85 9.49 11.71
1/18/2021 9:30:00 AM 5.75 42.35 0.491 7.85 8.66 11.8
1/18/2021 9:45:00 AM 5.77 42.386 0.491 7.87 12.52 12
1/18/2021 10:00:00 AM 5.78 42.404 0.491 7.88 8.99 12.2
1/18/2021 10:15:00 AM 5.8 42.44 0.491 7.9 8.41 12.46
1/18/2021 10:30:00 AM 5.83 42.494 0.49 7.91 9.81 12.66
1/18/2021 10:45:00 AM 5.91 42.638 0.49 7.93 10.41 12.97
1/18/2021 11:00:00 AM 5.92 42.656 0.489 7.95 9.71 13.11
1/18/2021 11:15:00 AM 5.94 42.692 0.489 7.97 9.84 13.24
1/18/2021 11:30:00 AM 6.01 42.818 0.488 7.98 10.84 13.47
1/18/2021 11:45:00 AM 6.03 42.854 0.488 8 8.75 13.58
1/18/2021 12:00:00 PM 6.05 42.89 0.488 8.01 7.63 13.71
1/18/2021 12:15:00 PM 6.15 43.07 0.487 8.03 8.16 13.92
1/18/2021 12:30:00 PM 6.26 43.268 0.487 8.05 8.47 14.1
1/18/2021 12:45:00 PM 6.27 43.286 0.486 8.06 9.92 14.15
1/18/2021 1:00:00 PM 6.33 43.394 0.486 8.08 8.03 14.25
1/18/2021 1:15:00 PM 6.45 43.61 0.485 8.1 8.49 14.4
1/18/2021 1:30:00 PM 6.56 43.808 0.485 8.11 8.14 14.53
1/18/2021 1:45:00 PM 6.68 44.024 0.485 8.13 7.76 14.63
1/18/2021 2:00:00 PM 6.81 44.258 0.484 8.14 7.38 14.71
1/18/2021 2:15:00 PM 6.87 44.366 0.484 8.16 9.04 14.79
1/18/2021 2:30:00 PM 6.88 44.384 0.483 8.17 7.79 14.8
1/18/2021 2:45:00 PM 6.88 44.384 0.483 8.18 7.43 14.77
1/18/2021 3:00:00 PM 6.88 44.384 0.483 8.15 7.39 14.79
1/18/2021 3:15:00 PM 6.88 44.384 0.482 8.2 8.17 14.79
1/18/2021 3:30:00 PM 6.85 44.33 0.482 8.2 7.59 14.6
1/18/2021 3:45:00 PM 6.82 44.276 0.482 8.2 8.07 14.43
1/18/2021 4:00:00 PM 6.77 44.186 0.483 8.2 11.21 14.18
1/18/2021 4:15:00 PM 6.71 44.078 0.483 8.19 9.16 13.92
1/18/2021 4:30:00 PM 6.67 44.006 0.483 8.17 8.79 13.68
1/18/2021 4:45:00 PM 6.63 43.934 0.483 8.16 9.35 13.48
1/18/2021 5:00:00 PM 6.6 43.88 0.483 8.15 9.24 13.32
1/18/2021 5:15:00 PM 6.57 43.826 0.483 8.14 8.59 13.17
1/18/2021 5:30:00 PM 6.55 43.79 0.483 8.14 10.61 13.02
1/18/2021 5:45:00 PM 6.53 43.754 0.483 8.12 9.44 12.85
1/18/2021 6:00:00 PM 6.5 43.7 0.483 8.11 11.9 12.69
1/18/2021 6:15:00 PM 6.47 43.646 0.484 8.1 10.81 12.55
1/18/2021 6:30:00 PM 6.44 43.592 0.484 8.09 20.48 12.43
1/18/2021 6:45:00 PM 6.42 43.556 0.487 8.07 10.13 12.35
1/18/2021 7:00:00 PM 6.4 43.52 0.49 8.06 9.45 12.27
1/18/2021 7:15:00 PM 6.39 43.502 0.492 8.05 11.58 12.18
1/18/2021 7:30:00 PM 6.37 43.466 0.491 8.05 8.79 12.13
1/18/2021 7:45:00 PM 6.35 43.43 0.49 8.04 10.02 12.06
1/18/2021 8:00:00 PM 6.33 43.394 0.488 8.02 9.42 11.98
1/18/2021 8:15:00 PM 6.31 43.358 0.486 8.01 9.42 11.9
1/18/2021 8:30:00 PM 6.3 43.34 0.486 8 13.71 11.82
1/18/2021 8:45:00 PM 6.27 43.286 0.485 7.99 9.78 11.75
1/18/2021 9:00:00 PM 6.26 43.268 0.485 7.97 9.09 11.68
1/18/2021 9:15:00 PM 6.25 43.25 0.486 7.97 11.01 11.63
1/18/2021 9:30:00 PM 6.23 43.214 0.486 7.95 9.24 11.55
1/18/2021 9:45:00 PM 6.22 43.196 0.486 7.94 8.92 11.51
1/18/2021 10:00:00 PM 6.21 43.178 0.487 7.93 16.41 11.48
1/18/2021 10:15:00 PM 6.19 43.142 0.487 7.93 9.19 11.45
1/18/2021 10:30:00 PM 6.17 43.106 0.487 7.91 10.76 11.4
1/18/2021 10:45:00 PM 6.15 43.07 0.487 7.91 9.63 11.37
1/18/2021 11:00:00 PM 6.13 43.034 0.487 7.9 8.94 11.33
1/18/2021 11:15:00 PM 6.1 42.98 0.487 7.89 8.74 11.33
1/18/2021 11:30:00 PM 6.09 42.962 0.487 7.88 9.12 11.31
1/18/2021 11:45:00 PM 6.06 42.908 0.488 7.88 9.25 11.3
1/19/2021 12:00:00 AM 6.03 42.854 0.488 7.87 9.71 11.3
1/19/2021 12:15:00 AM 6 42.8 0.488 7.87 8.84 11.29
1/19/2021 12:30:00 AM 5.96 42.728 0.489 7.87 9.11 11.29
1/19/2021 12:45:00 AM 5.92 42.656 0.489 7.86 10.72 11.28
1/19/2021 1:00:00 AM 5.86 42.548 0.489 7.86 10.6 11.29
1/19/2021 1:15:00 AM 5.81 42.458 0.49 7.85 9.51 11.27
1/19/2021 1:30:00 AM 5.77 42.386 0.49 7.85 9.38 11.3
1/19/2021 1:45:00 AM 5.74 42.332 0.491 7.85 11.14 11.3
1/19/2021 2:00:00 AM 5.72 42.296 0.492 7.85 10.18 11.31
1/19/2021 2:15:00 AM 5.7 42.26 0.492 7.84 10.36 11.31
1/19/2021 2:30:00 AM 5.68 42.224 0.493 7.84 9.83 11.3
1/19/2021 2:45:00 AM 5.67 42.206 0.493 7.85 8.54 11.32
1/19/2021 3:00:00 AM 5.65 42.17 0.493 7.84 9.84 11.32
1/19/2021 3:15:00 AM 5.63 42.134 0.493 7.84 8.6 11.32
1/19/2021 3:30:00 AM 5.63 42.134 0.493 7.84 9.08 11.33
1/19/2021 3:45:00 AM 5.62 42.116 0.493 7.83 9.23 11.34
1/19/2021 4:00:00 AM 5.59 42.062 0.493 7.83 9.06 11.35
1/19/2021 4:15:00 AM 5.57 42.026 0.493 7.83 9.05 11.34
1/19/2021 4:30:00 AM 5.54 41.972 0.493 7.83 10.3 11.36
1/19/2021 4:45:00 AM 5.52 41.936 0.493 7.83 8.57 11.37
1/19/2021 5:00:00 AM 5.5 41.9 0.493 7.83 9.32 11.39
1/19/2021 5:15:00 AM 5.48 41.864 0.493 7.83 9.49 11.4
1/19/2021 5:30:00 AM 5.46 41.828 0.494 7.83 8.43 11.4
1/19/2021 5:45:00 AM 5.44 41.792 0.494 7.83 9.28 11.42
1/19/2021 6:00:00 AM 5.42 41.756 0.494 7.82 12.99 11.41
1/19/2021 6:15:00 AM 5.39 41.702 0.494 7.83 9.3 11.44
1/19/2021 6:30:00 AM 5.35 41.63 0.494 7.82 8.92 11.45
1/19/2021 6:45:00 AM 5.32 41.576 0.494 7.83 9.03 11.47
1/19/2021 7:00:00 AM 5.3 41.54 0.494 7.83 8.93 11.48
1/19/2021 7:15:00 AM 5.26 41.468 0.494 7.82 9.23 11.51
1/19/2021 7:30:00 AM 5.24 41.432 0.494 7.83 10.62 11.51
1/19/2021 7:45:00 AM 5.21 41.378 0.495 7.83 10.94 11.51
1/19/2021 8:00:00 AM 5.19 41.342 0.495 7.82 9.91 11.56
1/19/2021 8:15:00 AM 5.18 41.324 0.495 7.83 10.05 11.6
1/19/2021 8:30:00 AM 5.16 41.288 0.495 7.83 8.53 11.68
1/19/2021 8:45:00 AM 5.15 41.27 0.495 7.84 9.28 11.8
1/19/2021 9:00:00 AM 5.14 41.252 0.494 7.84 9 11.91
1/19/2021 9:15:00 AM 5.14 41.252 0.494 7.85 9.69 12.05
1/19/2021 9:30:00 AM 5.15 41.27 0.494 7.86 9.9 12.21
1/19/2021 9:45:00 AM 5.18 41.324 0.494 7.87 9.37 12.43
1/19/2021 10:00:00 AM 5.21 41.378 0.494 7.89 9.51 12.68
1/19/2021 10:15:00 AM 5.26 41.468 0.493 7.91 8.97 12.92
1/19/2021 10:30:00 AM 5.27 41.486 0.493 7.92 9.25 13.05
1/19/2021 10:45:00 AM 5.27 41.486 0.493 7.93 8.98 13.1
1/19/2021 11:00:00 AM 5.26 41.468 0.493 7.94 8.51 13.26
1/19/2021 11:15:00 AM 5.3 41.54 0.492 7.96 7.77 13.47
1/19/2021 11:30:00 AM 5.35 41.63 0.492 7.97 7.73 13.67
1/19/2021 11:45:00 AM 5.43 41.774 0.491 7.99 9.34 13.89
1/19/2021 12:00:00 PM 5.52 41.936 0.491 8.01 7.89 14.1
1/19/2021 12:15:00 PM 5.56 42.008 0.491 8.03 7.58 14.21
1/19/2021 12:30:00 PM 5.61 42.098 0.49 8.04 7.53 14.32
1/19/2021 12:45:00 PM 5.67 42.206 0.49 8.06 7.99 14.39
1/19/2021 1:00:00 PM 5.68 42.224 0.489 8.07 8.01 14.37
1/19/2021 1:15:00 PM 5.71 42.278 0.489 8.07 7.94 14.43
1/19/2021 1:30:00 PM 5.8 42.44 0.489 8.09 8.77 14.5
1/19/2021 1:45:00 PM 5.9 42.62 0.489 8.11 8.06 14.65
1/19/2021 2:00:00 PM 5.95 42.71 0.489 8.12 7.5 14.65
1/19/2021 2:15:00 PM 6.06 42.908 0.488 8.13 7.54 14.8
1/19/2021 2:30:00 PM 6.12 43.016 0.488 8.15 8.2 14.85
1/19/2021 2:45:00 PM 6.16 43.088 0.487 8.16 7.97 14.88
1/19/2021 3:00:00 PM 6.19 43.142 0.487 8.17 7.52 14.86
1/19/2021 3:15:00 PM 6.21 43.178 0.487 8.18 7.17 14.87
1/19/2021 3:30:00 PM 6.2 43.16 0.487 8.19 7.71 14.82
1/19/2021 3:45:00 PM 6.19 43.142 0.487 8.2 8.06 14.77
1/19/2021 4:00:00 PM 6.18 43.124 0.487 8.2 7.98 14.68
1/19/2021 4:15:00 PM 6.17 43.106 0.487 8.2 9.16 14.56
1/19/2021 4:30:00 PM 6.17 43.106 0.488 8.2 8.91 14.41
1/19/2021 4:45:00 PM 6.15 43.07 0.489 8.2 8.07 14.23
1/19/2021 5:00:00 PM 6.13 43.034 0.49 8.19 8.87 14.02
1/19/2021 5:15:00 PM 6.1 42.98 0.49 8.18 9.09 13.8
1/19/2021 5:30:00 PM 6.06 42.908 0.491 8.17 9.12 13.58
1/19/2021 5:45:00 PM 6.03 42.854 0.491 8.16 10.03 13.37
1/19/2021 6:00:00 PM 6.01 42.818 0.49 8.15 10.41 13.19
1/19/2021 6:15:00 PM 5.99 42.782 0.49 8.14 9.47 13.03
1/19/2021 6:30:00 PM 5.98 42.764 0.489 8.13 9.23 12.89
1/19/2021 6:45:00 PM 5.97 42.746 0.489 8.12 10.89 12.78
1/19/2021 7:00:00 PM 5.97 42.746 0.488 8.11 10.33 12.65
1/19/2021 7:15:00 PM 5.97 42.746 0.488 8.1 9.01 12.55
1/19/2021 7:30:00 PM 5.96 42.728 0.488 8.09 8.21 12.42
1/19/2021 7:45:00 PM 5.95 42.71 0.488 8.08 9.13 12.33
1/19/2021 8:00:00 PM 5.95 42.71 0.488 8.07 8.93 12.23
1/19/2021 8:15:00 PM 5.94 42.692 0.488 8.06 9.29 12.14
1/19/2021 8:30:00 PM 5.93 42.674 0.488 8.04 9.29 12.06
1/19/2021 8:45:00 PM 5.92 42.656 0.488 8.03 10.05 12
1/19/2021 9:00:00 PM 5.91 42.638 0.489 8.02 9.4 11.92
1/19/2021 9:15:00 PM 5.91 42.638 0.489 8.01 9.52 11.85
1/19/2021 9:30:00 PM 5.91 42.638 0.489 8 10.75 11.76
1/19/2021 9:45:00 PM 5.92 42.656 0.489 7.99 9.08 11.71
1/19/2021 10:00:00 PM 5.92 42.656 0.489 7.98 9.03 11.66
1/19/2021 10:15:00 PM 5.93 42.674 0.489 7.97 9.12 11.59
1/19/2021 10:30:00 PM 5.93 42.674 0.49 7.95 9.08 11.55
1/19/2021 10:45:00 PM 5.95 42.71 0.49 7.94 10.64 11.48
1/19/2021 11:00:00 PM 5.95 42.71 0.49 7.94 8.06 11.45
1/19/2021 11:15:00 PM 5.95 42.71 0.49 7.93 8.15 11.41
1/19/2021 11:30:00 PM 5.94 42.692 0.491 7.92 9 11.39
1/19/2021 11:45:00 PM 5.93 42.674 0.491 7.92 8.88 11.36
1/20/2021 12:00:00 AM 5.92 42.656 0.491 7.92 9.3 11.34
1/20/2021 12:15:00 AM 5.92 42.656 0.492 7.9 8.38 11.32
1/20/2021 12:30:00 AM 5.91 42.638 0.492 7.9 8.59 11.3
1/20/2021 12:45:00 AM 5.9 42.62 0.492 7.89 8.6 11.29
1/20/2021 1:00:00 AM 5.89 42.602 0.492 7.89 8.8 11.3
1/20/2021 1:15:00 AM 5.87 42.566 0.493 7.89 9.08 11.29
1/20/2021 1:30:00 AM 5.85 42.53 0.493 7.88 9.33 11.26
1/20/2021 1:45:00 AM 5.84 42.512 0.493 7.88 11.15 11.27
1/20/2021 2:00:00 AM 5.83 42.494 0.494 7.87 10.27 11.26
1/20/2021 2:15:00 AM 5.82 42.476 0.494 7.87 8.96 11.25
1/20/2021 2:30:00 AM 5.81 42.458 0.494 7.86 8.7 11.24
1/20/2021 2:45:00 AM 5.79 42.422 0.495 7.86 10.28 11.27
1/20/2021 3:00:00 AM 5.78 42.404 0.495 7.85 8.89 11.26
1/20/2021 3:15:00 AM 5.76 42.368 0.495 7.85 10.65 11.25
1/20/2021 3:30:00 AM 5.73 42.314 0.496 7.85 12.14 11.27
1/20/2021 3:45:00 AM 5.7 42.26 0.496 7.85 10.98 11.27
1/20/2021 4:00:00 AM 5.66 42.188 0.496 7.84 9.37 11.29
1/20/2021 4:15:00 AM 5.62 42.116 0.496 7.84 9.45 11.29
1/20/2021 4:30:00 AM 5.59 42.062 0.496 7.84 9 11.3
1/20/2021 4:45:00 AM 5.57 42.026 0.497 7.84 10.74 11.31
1/20/2021 5:00:00 AM 5.53 41.954 0.497 7.84 10.26 11.33
1/20/2021 5:15:00 AM 5.51 41.918 0.497 7.84 10.16 11.32
1/20/2021 5:30:00 AM 5.48 41.864 0.497 7.84 9.38 11.35
1/20/2021 5:45:00 AM 5.43 41.774 0.497 7.84 8.82 11.35
1/20/2021 6:00:00 AM 5.38 41.684 0.497 7.83 10.17 11.36
1/20/2021 6:15:00 AM 5.34 41.612 0.497 7.83 8.77 11.37
1/20/2021 6:30:00 AM 5.3 41.54 0.497 7.83 9.32 11.39
1/20/2021 6:45:00 AM 5.2 41.36 0.497 7.84 10.17 11.42
1/20/2021 7:00:00 AM 5.15 41.27 0.497 7.84 9.01 11.43
1/20/2021 7:15:00 AM 5.1 41.18 0.497 7.84 9.15 11.44
1/20/2021 7:30:00 AM 5.04 41.072 0.497 7.84 13.08 11.47
1/20/2021 7:45:00 AM 4.98 40.964 0.497 7.84 11.27 11.53
1/20/2021 8:00:00 AM 4.95 40.91 0.497 7.84 9.48 11.59
1/20/2021 8:15:00 AM 4.91 40.838 0.497 7.84 9.52 11.68
1/20/2021 8:30:00 AM 4.9 40.82 0.497 7.85 9.37 11.84
1/20/2021 8:45:00 AM 4.87 40.766 0.497 7.86 9.59 12.03
1/20/2021 9:00:00 AM 4.89 40.802 0.496 7.88 8.96 12.31
1/20/2021 9:15:00 AM 4.86 40.748 0.496 7.89 9.7 12.45
1/20/2021 9:30:00 AM 4.87 40.766 0.496 7.9 10.06 12.74
1/20/2021 9:45:00 AM 4.91 40.838 0.495 7.92 9.72 13.02
1/20/2021 10:00:00 AM 4.98 40.964 0.495 7.94 8.42 13.32
1/20/2021 10:15:00 AM 5 41 0.494 7.96 9.64 13.47
1/20/2021 10:30:00 AM 5.04 41.072 0.494 7.97 9.35 13.69
1/20/2021 10:45:00 AM 5.09 41.162 0.493 8 8.34 13.87
1/20/2021 11:00:00 AM 5.09 41.162 0.493 8.01 8.92 14.02
1/20/2021 11:15:00 AM 5.18 41.324 0.492 8.03 8.19 14.22
1/20/2021 11:30:00 AM 5.27 41.486 0.492 8.05 8.27 14.4
1/20/2021 11:45:00 AM 5.31 41.558 0.491 8.06 8.32 14.5
1/20/2021 12:00:00 PM 5.35 41.63 0.491 8.08 7.88 14.57
1/20/2021 12:15:00 PM 5.39 41.702 0.491 8.09 7.56 14.66
1/20/2021 12:30:00 PM 5.37 41.666 0.491 8.1 8.11 14.66
1/20/2021 12:45:00 PM 5.37 41.666 0.492 8.11 8 14.73
1/20/2021 1:00:00 PM 5.39 41.702 0.491 8.12 8 14.81
1/20/2021 1:15:00 PM 5.41 41.738 0.491 8.13 7.82 14.85
1/20/2021 1:30:00 PM 5.38 41.684 0.49 8.14 8.35 14.88
1/20/2021 1:45:00 PM 5.43 41.774 0.489 8.15 8.4 14.98
1/20/2021 2:00:00 PM 5.45 41.81 0.488 8.17 8.04 15.09
1/20/2021 2:15:00 PM 5.41 41.738 0.488 8.18 7.9 15.06
1/20/2021 2:30:00 PM 5.49 41.882 0.487 8.19 9.98 15.17
1/20/2021 2:45:00 PM 5.52 41.936 0.486 8.2 8.88 15.25
1/20/2021 3:00:00 PM 5.57 42.026 0.486 8.22 9.16 15.27
1/20/2021 3:15:00 PM 5.57 42.026 0.485 8.23 12.9 15.23
1/20/2021 3:30:00 PM 5.58 42.044 0.485 8.24 10.2 15.18
1/20/2021 3:45:00 PM 5.55 41.99 0.484 8.24 8.39 15.17
1/20/2021 4:00:00 PM 5.53 41.954 0.484 8.25 7.76 15.12
1/20/2021 4:15:00 PM 5.5 41.9 0.485 8.25 8.69 15.04
1/20/2021 4:30:00 PM 5.47 41.846 0.485 8.25 8.72 14.9
1/20/2021 4:45:00 PM 5.45 41.81 0.485 8.24 9.11 14.72
1/20/2021 5:00:00 PM 5.42 41.756 0.485 8.24 9.01 14.53
1/20/2021 5:15:00 PM 5.4 41.72 0.485 8.23 9.43 14.29
1/20/2021 5:30:00 PM 5.37 41.666 0.486 8.22 8.09 14
1/20/2021 5:45:00 PM 5.34 41.612 0.486 8.21 8.61 13.8
1/20/2021 6:00:00 PM 5.31 41.558 0.486 8.19 10.04 13.59
1/20/2021 6:15:00 PM 5.26 41.468 0.486 8.18 9.77 13.39
1/20/2021 6:30:00 PM 5.22 41.396 0.486 8.17 11.71 13.25
1/20/2021 6:45:00 PM 5.18 41.324 0.487 8.15 8.95 13.13
1/20/2021 7:00:00 PM 5.14 41.252 0.487 8.14 9.32 13.01
1/20/2021 7:15:00 PM 5.11 41.198 0.487 8.13 9.96 12.9
1/20/2021 7:30:00 PM 5.09 41.162 0.487 8.11 9.22 12.81
1/20/2021 7:45:00 PM 5.06 41.108 0.487 8.1 9.27 12.72
1/20/2021 8:00:00 PM 5.03 41.054 0.488 8.09 9.27 12.64
1/20/2021 8:15:00 PM 5 41 0.488 8.08 10.33 12.58
1/20/2021 8:30:00 PM 4.96 40.928 0.488 8.07 8.73 12.5
1/20/2021 8:45:00 PM 4.93 40.874 0.488 8.06 9.87 12.43
1/20/2021 9:00:00 PM 4.89 40.802 0.488 8.04 8.84 12.37
1/20/2021 9:15:00 PM 4.85 40.73 0.488 8.04 24.89 12.31
1/20/2021 9:30:00 PM 4.8 40.64 0.489 8.03 8.29 12.25
1/20/2021 9:45:00 PM 4.76 40.568 0.489 8.01 8.51 12.18
1/20/2021 10:00:00 PM 4.71 40.478 0.489 8.01 9.03 12.14
1/20/2021 10:15:00 PM 4.66 40.388 0.49 7.99 9.03 12.07
1/20/2021 10:30:00 PM 4.61 40.298 0.491 7.98 9.06 12.05
1/20/2021 10:45:00 PM 4.57 40.226 0.492 7.98 8.6 12.01
1/20/2021 11:00:00 PM 4.54 40.172 0.493 7.97 9 11.97
1/20/2021 11:15:00 PM 4.49 40.082 0.494 7.96 8.91 11.94
1/20/2021 11:30:00 PM 4.45 40.01 0.494 7.95 9.53 11.93
1/20/2021 11:45:00 PM 4.4 39.92 0.494 7.94 9.95 11.89
1/21/2021 12:00:00 AM 4.35 39.83 0.494 7.93 12.88 11.89
1/21/2021 12:15:00 AM 4.3 39.74 0.494 7.93 11.13 11.9
1/21/2021 12:30:00 AM 4.24 39.632 0.494 7.92 9.59 11.88
1/21/2021 12:45:00 AM 4.19 39.542 0.494 7.92 9.44 11.86
1/21/2021 1:00:00 AM 4.13 39.434 0.494 7.92 9.76 11.87
1/21/2021 1:15:00 AM 4.09 39.362 0.494 7.91 9.49 11.86
1/21/2021 1:30:00 AM 4.04 39.272 0.494 7.9 9.32 11.88
1/21/2021 1:45:00 AM 3.99 39.182 0.495 7.9 9.52 11.88
1/21/2021 2:00:00 AM 3.93 39.074 0.495 7.89 11.36 11.9
1/21/2021 2:15:00 AM 3.88 38.984 0.496 7.89 10.16 11.9
1/21/2021 2:30:00 AM 3.82 38.876 0.496 7.88 9.64 11.91
1/21/2021 2:45:00 AM 3.77 38.786 0.497 7.88 10.58 11.92
1/21/2021 3:00:00 AM 3.72 38.696 0.498 7.88 11.13 11.94
1/21/2021 3:15:00 AM 3.66 38.588 0.498 7.88 10.12 11.95
1/21/2021 3:30:00 AM 3.61 38.498 0.499 7.88 13.12 11.97
1/21/2021 3:45:00 AM 3.55 38.39 0.5 7.88 8.74 11.99
1/21/2021 4:00:00 AM 3.51 38.318 0.5 7.87 9.67 12.01
1/21/2021 4:15:00 AM 3.45 38.21 0.501 7.88 9.52 12.02
1/21/2021 4:30:00 AM 3.43 38.174 0.501 7.87 9.32 12.05
1/21/2021 4:45:00 AM 3.4 38.12 0.501 7.87 9.89 12.05
1/21/2021 5:00:00 AM 3.39 38.102 0.501 7.87 10.91 12.06
1/21/2021 5:15:00 AM 3.38 38.084 0.501 7.86 10.07 12.07
1/21/2021 5:30:00 AM 3.37 38.066 0.501 7.86 12.58 12.09
1/21/2021 5:45:00 AM 3.35 38.03 0.501 7.86 11.66 12.1
1/21/2021 6:00:00 AM 3.34 38.012 0.501 7.86 12.66 12.1
1/21/2021 6:15:00 AM 3.31 37.958 0.502 7.86 11.18 12.12
1/21/2021 6:30:00 AM 3.28 37.904 0.502 7.85 10.18 12.12
1/21/2021 6:45:00 AM 3.26 37.868 0.502 7.86 10.59 12.14
1/21/2021 7:00:00 AM 3.24 37.832 0.502 7.85 9.88 12.14
1/21/2021 7:15:00 AM 3.21 37.778 0.503 7.86 9.22 12.17
1/21/2021 7:30:00 AM 3.18 37.724 0.503 7.86 13.75 12.19
1/21/2021 7:45:00 AM 3.15 37.67 0.504 7.86 10.84 12.22
1/21/2021 8:00:00 AM 3.12 37.616 0.504 7.86 9.29 12.29
1/21/2021 8:15:00 AM 3.09 37.562 0.505 7.87 10.47 12.39
1/21/2021 8:30:00 AM 3.08 37.544 0.506 7.87 10.22 12.52
1/21/2021 8:45:00 AM 3.08 37.544 0.506 7.88 9.83 12.69
1/21/2021 9:00:00 AM 3.1 37.58 0.507 7.89 9.91 12.89
1/21/2021 9:15:00 AM 3.13 37.634 0.507 7.9 11.48 13.12
1/21/2021 9:30:00 AM 3.17 37.706 0.507 7.91 9.6 13.28
1/21/2021 9:45:00 AM 3.24 37.832 0.507 7.93 9.11 13.47
1/21/2021 10:00:00 AM 3.3 37.94 0.506 7.93 9.13 13.58
1/21/2021 10:15:00 AM 3.36 38.048 0.506 7.94 11.28 13.72
1/21/2021 10:30:00 AM 3.43 38.174 0.506 7.95 9.2 13.84
1/21/2021 10:45:00 AM 3.5 38.3 0.505 7.96 9.11 13.99
1/21/2021 11:00:00 AM 3.58 38.444 0.505 7.98 11.23 14.17
1/21/2021 11:15:00 AM 3.74 38.732 0.504 7.99 9.37 14.37
1/21/2021 11:30:00 AM 3.87 38.966 0.503 8 9.19 14.55
1/21/2021 11:45:00 AM 4 39.2 0.502 8.02 9.33 14.66
1/21/2021 12:00:00 PM 4.17 39.506 0.501 8.03 9.05 14.78
1/21/2021 12:15:00 PM 4.35 39.83 0.5 8.04 8.54 14.89
1/21/2021 12:30:00 PM 4.51 40.118 0.5 8.05 8.79 14.97
1/21/2021 12:45:00 PM 4.65 40.37 0.499 8.06 8.24 15.06
1/21/2021 1:00:00 PM 4.83 40.694 0.498 8.08 40 15.18
1/21/2021 1:15:00 PM 4.95 40.91 0.497 8.09 12.59 15.18
1/21/2021 1:30:00 PM 5.1 41.18 0.499 8.07 5.76 15.28
1/21/2021 1:45:00 PM 5.22 41.396 0.499 8.1 5.06 15.33
1/21/2021 2:00:00 PM 5.34 41.612 0.498 8.12 5.5 15.35
1/21/2021 2:15:00 PM 5.44 41.792 0.497 8.13 5.75 15.34
1/21/2021 2:30:00 PM 5.53 41.954 0.497 8.15 5.13 15.32
1/21/2021 2:45:00 PM 5.62 42.116 0.496 8.16 5.55 15.32
1/21/2021 3:00:00 PM 5.67 42.206 0.496 8.17 4.92 15.29
1/21/2021 3:15:00 PM 5.71 42.278 0.495 8.18 5.02 15.24
1/21/2021 3:30:00 PM 5.74 42.332 0.495 8.19 9.4 15.16
1/21/2021 3:45:00 PM 5.74 42.332 0.495 8.2 5.94 15.08
1/21/2021 4:00:00 PM 5.73 42.314 0.493 8.2 6.84 14.97
1/21/2021 4:15:00 PM 5.73 42.314 0.493 8.2 5.25 14.8
1/21/2021 4:30:00 PM 5.73 42.314 0.493 8.2 5.25 14.68
1/21/2021 4:45:00 PM 5.73 42.314 0.493 8.2 5.27 14.48
1/21/2021 5:00:00 PM 5.74 42.332 0.493 8.19 6.35 14.27
1/21/2021 5:15:00 PM 5.74 42.332 0.493 8.18 11.62 14.07
1/21/2021 5:30:00 PM 5.75 42.35 0.493 8.17 5.79 13.82
1/21/2021 5:45:00 PM 5.75 42.35 0.493 8.16 6.9 13.61
1/21/2021 6:00:00 PM 5.75 42.35 0.493 8.15 7.17 13.41
1/21/2021 6:15:00 PM 5.76 42.368 0.493 8.14 6.06 13.23
1/21/2021 6:30:00 PM 5.76 42.368 0.492 8.13 6.75 13.06
1/21/2021 6:45:00 PM 5.77 42.386 0.492 8.12 5.53 12.91
1/21/2021 7:00:00 PM 5.77 42.386 0.492 8.1 7.44 12.76
1/21/2021 7:15:00 PM 5.78 42.404 0.492 8.09 5.41 12.6
1/21/2021 7:30:00 PM 5.8 42.44 0.492 8.08 7.22 12.46
1/21/2021 7:45:00 PM 5.82 42.476 0.492 8.06 4.9 12.34
1/21/2021 8:00:00 PM 5.84 42.512 0.492 8.05 6.16 12.21
1/21/2021 8:15:00 PM 5.85 42.53 0.492 8.04 5.56 12.1
1/21/2021 8:30:00 PM 5.84 42.512 0.492 8.03 5.78 12.01
1/21/2021 8:45:00 PM 5.83 42.494 0.492 8.01 6.57 11.92
1/21/2021 9:00:00 PM 5.82 42.476 0.492 8 7.86 11.84
1/21/2021 9:15:00 PM 5.8 42.44 0.491 7.99 14.99 11.74
1/21/2021 9:30:00 PM 5.79 42.422 0.491 7.98 5.52 11.67
1/21/2021 9:45:00 PM 5.76 42.368 0.491 7.97 5.78 11.61
1/21/2021 10:00:00 PM 5.75 42.35 0.491 7.96 5.43 11.54
1/21/2021 10:15:00 PM 5.74 42.332 0.49 7.95 5.69 11.49
1/21/2021 10:30:00 PM 5.73 42.314 0.49 7.94 6.68 11.43
1/21/2021 10:45:00 PM 5.71 42.278 0.491 7.94 5.89 11.38
1/21/2021 11:00:00 PM 5.69 42.242 0.49 7.92 5.39 11.34
1/21/2021 11:15:00 PM 5.67 42.206 0.491 7.91 7.68 11.3
1/21/2021 11:30:00 PM 5.65 42.17 0.49 7.91 6.28 11.27
1/21/2021 11:45:00 PM 5.64 42.152 0.491 7.9 6.2 11.25
1/22/2021 12:00:00 AM 5.62 42.116 0.491 7.9 29.2 11.22
1/22/2021 12:15:00 AM 5.61 42.098 0.491 7.89 7.96 11.22
1/22/2021 12:30:00 AM 5.59 42.062 0.491 7.89 5.85 11.21
1/22/2021 12:45:00 AM 5.58 42.044 0.491 7.88 6.03 11.18
1/22/2021 1:00:00 AM 5.57 42.026 0.492 7.88 6.7 11.17
1/22/2021 1:15:00 AM 5.54 41.972 0.492 7.87 5.73 11.18
1/22/2021 1:30:00 AM 5.52 41.936 0.493 7.87 11.27 11.16
1/22/2021 1:45:00 AM 5.49 41.882 0.493 7.86 6.45 11.17
1/22/2021 2:00:00 AM 5.45 41.81 0.493 7.86 5.7 11.16
1/22/2021 2:15:00 AM 5.4 41.72 0.493 7.86 5.89 11.17
1/22/2021 2:30:00 AM 5.35 41.63 0.494 7.87 5.98 11.18
1/22/2021 2:45:00 AM 5.31 41.558 0.494 7.87 9.95 11.19
1/22/2021 3:00:00 AM 5.27 41.486 0.495 7.86 6.86 11.18
1/22/2021 3:15:00 AM 5.24 41.432 0.495 7.86 5.96 11.21
1/22/2021 3:30:00 AM 5.2 41.36 0.495 7.86 7.59 11.23
1/22/2021 3:45:00 AM 5.16 41.288 0.495 7.86 6.98 11.25
1/22/2021 4:00:00 AM 5.12 41.216 0.496 7.86 9.54 11.26
1/22/2021 4:15:00 AM 5.06 41.108 0.496 7.86 6.81 11.27
1/22/2021 4:30:00 AM 4.99 40.982 0.497 7.85 7.79 11.3
1/22/2021 4:45:00 AM 4.93 40.874 0.497 7.85 14.82 11.32
1/22/2021 5:00:00 AM 4.87 40.766 0.497 7.85 6.98 11.34
1/22/2021 5:15:00 AM 4.81 40.658 0.498 7.86 7.01 11.37
1/22/2021 5:30:00 AM 4.76 40.568 0.498 7.85 6.69 11.37
1/22/2021 5:45:00 AM 4.7 40.46 0.499 7.85 6.12 11.39
1/22/2021 6:00:00 AM 4.66 40.388 0.499 7.85 6.59 11.42
1/22/2021 6:15:00 AM 4.62 40.316 0.5 7.85 6.49 11.42
1/22/2021 6:30:00 AM 4.57 40.226 0.501 7.85 6.68 11.46
1/22/2021 6:45:00 AM 4.51 40.118 0.502 7.85 6.09 11.47
1/22/2021 7:00:00 AM 4.46 40.028 0.503 7.84 7.22 11.51
1/22/2021 7:15:00 AM 4.42 39.956 0.504 7.85 5.94 11.53
1/22/2021 7:30:00 AM 4.38 39.884 0.504 7.84 6.61 11.57
1/22/2021 7:45:00 AM 4.34 39.812 0.503 7.85 7.52 11.6
1/22/2021 8:00:00 AM 4.32 39.776 0.503 7.85 6.07 11.67
1/22/2021 8:15:00 AM 4.32 39.776 0.503 7.86 6.45 11.8
1/22/2021 8:30:00 AM 4.33 39.794 0.502 7.87 7.41 11.96
1/22/2021 8:45:00 AM 4.35 39.83 0.502 7.88 5.98 12.17
1/22/2021 9:00:00 AM 4.38 39.884 0.501 7.9 5.43 12.41
1/22/2021 9:15:00 AM 4.4 39.92 0.501 7.91 5.39 12.63
1/22/2021 9:30:00 AM 4.41 39.938 0.501 7.92 6.08 12.7
1/22/2021 9:45:00 AM 4.41 39.938 0.501 7.93 5.63 12.74
1/22/2021 10:00:00 AM 4.43 39.974 0.5 7.94 5.64 12.87
1/22/2021 10:15:00 AM 4.44 39.992 0.5 7.95 5.47 13.01
1/22/2021 10:30:00 AM 4.46 40.028 0.5 7.96 4.53 13.07
1/22/2021 10:45:00 AM 4.48 40.064 0.5 7.97 5.69 13.26
1/22/2021 11:00:00 AM 4.51 40.118 0.5 7.99 4.91 13.46
1/22/2021 11:15:00 AM 4.56 40.208 0.499 7.98 4.97 13.73
1/22/2021 11:30:00 AM 4.59 40.262 0.499 8.01 5.21 13.91
1/22/2021 11:45:00 AM 4.6 40.28 0.498 8.03 6.09 14.1
1/22/2021 12:00:00 PM 4.67 40.406 0.498 8.05 5.63 14.31
1/22/2021 12:15:00 PM 4.78 40.604 0.497 8.06 4.9 14.5
1/22/2021 12:30:00 PM 4.87 40.766 0.497 8.08 4.76 14.67
1/22/2021 12:45:00 PM 4.88 40.784 0.496 8.09 4.63 14.66
1/22/2021 1:00:00 PM 4.92 40.856 0.496 8.1 5.37 14.71
1/22/2021 1:15:00 PM 4.95 40.91 0.495 8.12 4.89 14.74
1/22/2021 1:30:00 PM 4.97 40.946 0.495 8.13 7.77 14.8
1/22/2021 1:45:00 PM 4.98 40.964 0.495 8.14 5.44 14.88
1/22/2021 2:00:00 PM 4.99 40.982 0.494 8.15 5.07 14.86
1/22/2021 2:15:00 PM 5.01 41.018 0.494 8.16 4.59 14.83
1/22/2021 2:30:00 PM 5.02 41.036 0.494 8.16 4.88 14.79
1/22/2021 2:45:00 PM 5.04 41.072 0.494 8.16 4.48 14.75
1/22/2021 3:00:00 PM 5.06 41.108 0.494 8.17 4.9 14.75
1/22/2021 3:15:00 PM 5.07 41.126 0.493 8.17 4.63 14.66
1/22/2021 3:30:00 PM 5.07 41.126 0.493 8.17 4.6 14.53
1/22/2021 3:45:00 PM 5.09 41.162 0.492 8.18 4.77 14.6
1/22/2021 4:00:00 PM 5.11 41.198 0.492 8.19 5.01 14.62
1/22/2021 4:15:00 PM 5.12 41.216 0.492 8.19 7.27 14.6
1/22/2021 4:30:00 PM 5.12 41.216 0.492 8.19 4.32 14.46
1/22/2021 4:45:00 PM 5.1 41.18 0.493 8.19 3.98 14.26
1/22/2021 5:00:00 PM 5.09 41.162 0.493 8.18 5.45 14.04
1/22/2021 5:15:00 PM 5.09 41.162 0.492 8.16 5.43 13.82
1/22/2021 5:30:00 PM 5.1 41.18 0.493 8.15 6.99 13.61
1/22/2021 5:45:00 PM 5.12 41.216 0.492 8.14 5.44 13.43
1/22/2021 6:00:00 PM 5.12 41.216 0.493 8.13 5.43 13.28
1/22/2021 6:15:00 PM 5.14 41.252 0.493 8.12 5.44 13.15
1/22/2021 6:30:00 PM 5.14 41.252 0.493 8.11 5.29 13.04
1/22/2021 6:45:00 PM 5.13 41.234 0.493 8.1 4.96 12.94
1/22/2021 7:00:00 PM 5.13 41.234 0.493 8.09 4.76 12.8
1/22/2021 7:15:00 PM 5.1 41.18 0.493 8.08 4.6 12.69
1/22/2021 7:30:00 PM 5.09 41.162 0.494 8.06 5.06 12.57
1/22/2021 7:45:00 PM 5.08 41.144 0.494 8.05 5.16 12.46
1/22/2021 8:00:00 PM 5.06 41.108 0.494 8.04 5.36 12.39
1/22/2021 8:15:00 PM 5.04 41.072 0.494 8.03 7.25 12.3
1/22/2021 8:30:00 PM 5.03 41.054 0.494 8.02 5.71 12.24
1/22/2021 8:45:00 PM 5.02 41.036 0.494 8.02 6.68 12.18
1/22/2021 9:00:00 PM 5 41 0.494 8 8.33 12.13
1/22/2021 9:15:00 PM 4.98 40.964 0.494 8 5.51 12.09
1/22/2021 9:30:00 PM 4.97 40.946 0.494 7.99 4.57 12.03
1/22/2021 9:45:00 PM 4.95 40.91 0.495 7.98 4.9 11.98
1/22/2021 10:00:00 PM 4.92 40.856 0.495 7.97 5.75 11.93
1/22/2021 10:15:00 PM 4.88 40.784 0.495 7.96 5.77 11.88
1/22/2021 10:30:00 PM 4.85 40.73 0.495 7.94 5.56 11.84
1/22/2021 10:45:00 PM 4.8 40.64 0.495 7.94 11.15 11.81
1/22/2021 11:00:00 PM 4.77 40.586 0.496 7.93 5.42 11.78
1/22/2021 11:15:00 PM 4.73 40.514 0.496 7.92 4.72 11.74
1/22/2021 11:30:00 PM 4.68 40.424 0.496 7.91 5.86 11.74
1/22/2021 11:45:00 PM 4.66 40.388 0.496 7.91 7.01 11.71
1/23/2021 12:00:00 AM 4.64 40.352 0.496 7.9 5.99 11.7
1/23/2021 12:15:00 AM 4.62 40.316 0.497 7.9 5.94 11.69
1/23/2021 12:30:00 AM 4.61 40.298 0.497 7.89 5.64 11.69
1/23/2021 12:45:00 AM 4.59 40.262 0.497 7.89 5.68 11.69
1/23/2021 1:00:00 AM 4.57 40.226 0.497 7.88 5.63 11.68
1/23/2021 1:15:00 AM 4.54 40.172 0.497 7.88 6.77 11.67
1/23/2021 1:30:00 AM 4.5 40.1 0.497 7.87 6.71 11.68
1/23/2021 1:45:00 AM 4.46 40.028 0.498 7.87 6.53 11.69
1/23/2021 2:00:00 AM 4.4 39.92 0.498 7.87 5.41 11.7
1/23/2021 2:15:00 AM 4.33 39.794 0.498 7.87 6.38 11.71
1/23/2021 2:30:00 AM 4.29 39.722 0.499 7.86 8.27 11.74
1/23/2021 2:45:00 AM 4.24 39.632 0.5 7.86 7.34 11.75
1/23/2021 3:00:00 AM 4.21 39.578 0.5 7.86 14.99 11.75
1/23/2021 3:15:00 AM 4.19 39.542 0.501 7.85 5.56 11.77
1/23/2021 3:30:00 AM 4.14 39.452 0.501 7.85 5.74 11.79
1/23/2021 3:45:00 AM 4.1 39.38 0.501 7.85 5.47 11.8
1/23/2021 4:00:00 AM 4.07 39.326 0.501 7.85 9.88 11.81
1/23/2021 4:15:00 AM 4.02 39.236 0.501 7.85 5.95 11.82
1/23/2021 4:30:00 AM 3.99 39.182 0.501 7.85 5.54 11.84
1/23/2021 4:45:00 AM 3.93 39.074 0.501 7.85 5.56 11.86
1/23/2021 5:00:00 AM 3.85 38.93 0.502 7.85 6.01 11.88
1/23/2021 5:15:00 AM 3.78 38.804 0.501 7.84 6.21 11.91
1/23/2021 5:30:00 AM 3.71 38.678 0.502 7.85 5.88 11.93
1/23/2021 5:45:00 AM 3.65 38.57 0.502 7.85 6.7 11.96
1/23/2021 6:00:00 AM 3.6 38.48 0.502 7.85 5.45 11.97
1/23/2021 6:15:00 AM 3.55 38.39 0.502 7.85 6.03 12
1/23/2021 6:30:00 AM 3.5 38.3 0.502 7.85 5.81 12.03
1/23/2021 6:45:00 AM 3.45 38.21 0.503 7.85 5.39 12.04
1/23/2021 7:00:00 AM 3.42 38.156 0.503 7.85 5.49 12.06
1/23/2021 7:15:00 AM 3.37 38.066 0.503 7.85 5.99 12.09
1/23/2021 7:30:00 AM 3.31 37.958 0.503 7.85 10.39 12.13
1/23/2021 7:45:00 AM 3.26 37.868 0.503 7.85 8.59 12.19
1/23/2021 8:00:00 AM 3.2 37.76 0.504 7.85 6.49 12.24
1/23/2021 8:15:00 AM 3.15 37.67 0.504 7.86 6.19 12.38
1/23/2021 8:30:00 AM 3.11 37.598 0.504 7.87 6.48 12.55
1/23/2021 8:45:00 AM 3.08 37.544 0.504 7.89 8.47 12.78
1/23/2021 9:00:00 AM 3.06 37.508 0.503 7.9 5.66 13.04
1/23/2021 9:15:00 AM 3.05 37.49 0.503 7.92 9.61 13.31
1/23/2021 9:30:00 AM 3.09 37.562 0.502 7.94 6.95 13.6
1/23/2021 9:45:00 AM 3.11 37.598 0.502 7.96 6.16 13.85
1/23/2021 10:00:00 AM 3.11 37.598 0.502 7.98 6.33 14.04
1/23/2021 10:15:00 AM 3.12 37.616 0.502 7.99 6.57 14.25
1/23/2021 10:30:00 AM 3.12 37.616 0.502 8.01 6.25 14.39
1/23/2021 10:45:00 AM 3.13 37.634 0.502 8.03 5.92 14.6
1/23/2021 11:00:00 AM 3.12 37.616 0.501 8.04 9.19 14.73
1/23/2021 11:15:00 AM 3.1 37.58 0.502 8.05 7.57 14.84
1/23/2021 11:30:00 AM 3.08 37.544 0.502 8.07 6.02 14.96
1/23/2021 11:45:00 AM 3.09 37.562 0.502 8.08 5.68 15.14
1/23/2021 12:00:00 PM 3.12 37.616 0.502 8.1 5.47 15.31
1/23/2021 12:15:00 PM 3.14 37.652 0.502 8.12 5.71 15.45
1/23/2021 12:30:00 PM 3.15 37.67 0.503 8.13 5.57 15.54
1/23/2021 12:45:00 PM 3.16 37.688 0.503 8.14 6.68 15.64
1/23/2021 1:00:00 PM 3.19 37.742 0.503 8.16 5.85 15.75
1/23/2021 1:15:00 PM 3.19 37.742 0.504 8.17 4.69 15.84
1/23/2021 1:30:00 PM 3.2 37.76 0.504 8.17 4.63 15.91
1/23/2021 1:45:00 PM 3.21 37.778 0.504 8.18 4.83 15.98
1/23/2021 2:00:00 PM 3.22 37.796 0.504 8.19 4.94 16.02
1/23/2021 2:15:00 PM 3.23 37.814 0.505 8.21 5.35 16.07
1/23/2021 2:30:00 PM 3.23 37.814 0.505 8.21 5.69 16.08
1/23/2021 2:45:00 PM 3.22 37.796 0.505 8.23 4.69 16.09
1/23/2021 3:00:00 PM 3.23 37.814 0.506 8.24 4.15 16.12
1/23/2021 3:15:00 PM 3.24 37.832 0.506 8.24 4.7 16.13
1/23/2021 3:30:00 PM 3.26 37.868 0.506 8.25 4.5 16.08
1/23/2021 3:45:00 PM 3.26 37.868 0.507 8.26 4.82 15.99
1/23/2021 4:00:00 PM 3.27 37.886 0.506 8.26 4.85 15.92
1/23/2021 4:15:00 PM 3.27 37.886 0.506 8.26 4.77 15.79
1/23/2021 4:30:00 PM 3.29 37.922 0.506 8.25 4.87 15.62
1/23/2021 4:45:00 PM 3.29 37.922 0.505 8.24 5.18 15.47
1/23/2021 5:00:00 PM 3.28 37.904 0.504 8.23 4.32 15.26
1/23/2021 5:15:00 PM 3.26 37.868 0.503 8.22 4.35 15.06
1/23/2021 5:30:00 PM 3.24 37.832 0.501 8.21 5.02 14.87
1/23/2021 5:45:00 PM 3.22 37.796 0.499 8.19 4 14.66
1/23/2021 6:00:00 PM 3.2 37.76 0.497 8.18 4.47 14.5
1/23/2021 6:15:00 PM 3.18 37.724 0.496 8.17 4.82 14.34
1/23/2021 6:30:00 PM 3.17 37.706 0.493 8.16 4.24 14.22
1/23/2021 6:45:00 PM 3.14 37.652 0.492 8.15 4.21 14.12
1/23/2021 7:00:00 PM 3.13 37.634 0.492 8.13 5.21 14.02
1/23/2021 7:15:00 PM 3.11 37.598 0.492 8.12 5.24 13.91
1/23/2021 7:30:00 PM 3.1 37.58 0.492 8.11 10.35 13.81
1/23/2021 7:45:00 PM 3.09 37.562 0.493 8.1 5.22 13.7
1/23/2021 8:00:00 PM 3.08 37.544 0.494 8.09 11.57 13.6
1/23/2021 8:15:00 PM 3.06 37.508 0.495 8.08 5.06 13.52
1/23/2021 8:30:00 PM 3.05 37.49 0.496 8.07 5.98 13.46
1/23/2021 8:45:00 PM 3.05 37.49 0.497 8.06 5.37 13.36
1/23/2021 9:00:00 PM 3.03 37.454 0.498 8.05 4.91 13.31
1/23/2021 9:15:00 PM 3.02 37.436 0.499 8.05 4.68 13.25
1/23/2021 9:30:00 PM 3 37.4 0.5 8.04 5.05 13.18
1/23/2021 9:45:00 PM 3 37.4 0.501 8.03 5.74 13.11
1/23/2021 10:00:00 PM 3 37.4 0.501 8.02 5.88 13.06
1/23/2021 10:15:00 PM 2.99 37.382 0.501 8.01 6.37 12.99
1/23/2021 10:30:00 PM 2.98 37.364 0.501 8 4.99 12.95
1/23/2021 10:45:00 PM 2.98 37.364 0.501 7.99 4.25 12.88
1/23/2021 11:00:00 PM 2.97 37.346 0.501 7.98 6.05 12.84
1/23/2021 11:15:00 PM 2.97 37.346 0.501 7.97 4.65 12.79
1/23/2021 11:30:00 PM 2.96 37.328 0.501 7.96 4.57 12.75
1/23/2021 11:45:00 PM 2.94 37.292 0.501 7.96 4.75 12.73
1/24/2021 12:00:00 AM 2.92 37.256 0.501 7.95 4.39 12.7
1/24/2021 12:15:00 AM 2.91 37.238 0.501 7.94 4.66 12.67
1/24/2021 12:30:00 AM 2.9 37.22 0.501 7.93 4.2 12.66
1/24/2021 12:45:00 AM 2.88 37.184 0.5 7.93 5.3 12.65
1/24/2021 1:00:00 AM 2.86 37.148 0.5 7.92 4.61 12.63
1/24/2021 1:15:00 AM 2.83 37.094 0.5 7.92 4.85 12.62
1/24/2021 1:30:00 AM 2.82 37.076 0.5 7.91 4.97 12.62
1/24/2021 1:45:00 AM 2.8 37.04 0.5 7.92 5.12 12.6
1/24/2021 2:00:00 AM 2.79 37.022 0.5 7.9 6.3 12.58
1/24/2021 2:15:00 AM 2.77 36.986 0.5 7.9 6.42 12.58
1/24/2021 2:30:00 AM 2.76 36.968 0.501 7.9 5.87 12.57
1/24/2021 2:45:00 AM 2.75 36.95 0.501 7.89 5.49 12.56
1/24/2021 3:00:00 AM 2.73 36.914 0.502 7.89 6.82 12.56
1/24/2021 3:15:00 AM 2.73 36.914 0.502 7.88 5.62 12.57
1/24/2021 3:30:00 AM 2.72 36.896 0.502 7.89 5.42 12.57
1/24/2021 3:45:00 AM 2.68 36.824 0.503 7.88 16.73 12.58
1/24/2021 4:00:00 AM 2.68 36.824 0.504 7.88 5.1 12.56
1/24/2021 4:15:00 AM 2.65 36.77 0.504 7.88 5.43 12.55
1/24/2021 4:30:00 AM 2.63 36.734 0.505 7.88 5.97 12.56
1/24/2021 4:45:00 AM 2.61 36.698 0.506 7.88 5.33 12.57
1/24/2021 5:00:00 AM 2.59 36.662 0.506 7.88 4.75 12.58
1/24/2021 5:15:00 AM 2.55 36.59 0.506 7.88 5.14 12.58
1/24/2021 5:30:00 AM 2.53 36.554 0.507 7.87 5.38 12.6
1/24/2021 5:45:00 AM 2.49 36.482 0.508 7.87 5.56 12.61
1/24/2021 6:00:00 AM 2.47 36.446 0.508 7.87 5.08 12.61
1/24/2021 6:15:00 AM 2.44 36.392 0.509 7.87 5.01 12.62
1/24/2021 6:30:00 AM 2.41 36.338 0.509 7.88 6.37 12.64
1/24/2021 6:45:00 AM 2.38 36.284 0.51 7.87 5.53 12.66
1/24/2021 7:00:00 AM 2.35 36.23 0.51 7.87 11.36 12.66
1/24/2021 7:15:00 AM 2.32 36.176 0.51 7.88 4.95 12.68
1/24/2021 7:30:00 AM 2.3 36.14 0.511 7.88 5.73 12.7
1/24/2021 7:45:00 AM 2.28 36.104 0.511 7.87 5.02 12.73
1/24/2021 8:00:00 AM 2.27 36.086 0.511 7.87 7.58 12.83
1/24/2021 8:15:00 AM 2.26 36.068 0.511 7.9 5.85 12.96
1/24/2021 8:30:00 AM 2.27 36.086 0.511 7.91 6.43 13.09
1/24/2021 8:45:00 AM 2.28 36.104 0.511 7.92 5.95 13.27
1/24/2021 9:00:00 AM 2.3 36.14 0.511 7.93 4.92 13.48
1/24/2021 9:15:00 AM 2.33 36.194 0.511 7.95 6.31 13.74
1/24/2021 9:30:00 AM 2.37 36.266 0.51 7.97 5.36 13.95
1/24/2021 9:45:00 AM 2.42 36.356 0.51 7.99 6.08 14.2
1/24/2021 10:00:00 AM 2.51 36.518 0.51 7.98 5.96 14.45
1/24/2021 10:15:00 AM 2.62 36.716 0.509 8.01 4.62 14.71
1/24/2021 10:30:00 AM 2.74 36.932 0.509 8.02 4.88 14.95
1/24/2021 10:45:00 AM 2.84 37.112 0.508 8.04 4.92 15.15
1/24/2021 11:00:00 AM 2.99 37.382 0.507 8.07 4.74 15.35
1/24/2021 11:15:00 AM 3.13 37.634 0.507 8.08 4.06 15.51
1/24/2021 11:30:00 AM 3.27 37.886 0.507 8.11 5.08 15.65
1/24/2021 11:45:00 AM 3.38 38.084 0.506 8.13 4.45 15.77
1/24/2021 12:00:00 PM 3.55 38.39 0.506 8.14 4.14 15.91
1/24/2021 12:15:00 PM 3.73 38.714 0.505 8.16 4.36 16.02
1/24/2021 12:30:00 PM 3.83 38.894 0.505 8.15 5.04 16.08
1/24/2021 12:45:00 PM 3.86 38.948 0.505 8.16 6.02 16.04
1/24/2021 1:00:00 PM 3.9 39.02 0.505 8.17 6.11 16.09
1/24/2021 1:15:00 PM 3.95 39.11 0.504 8.18 5.27 16.1
1/24/2021 1:30:00 PM 4.09 39.362 0.503 8.2 6.52 16.18
1/24/2021 1:45:00 PM 4.16 39.488 0.504 8.21 5.78 16.2
1/24/2021 2:00:00 PM 4.23 39.614 0.504 8.22 4.61 16.24
1/24/2021 2:15:00 PM 4.33 39.794 0.503 8.23 5.05 16.31
1/24/2021 2:30:00 PM 4.39 39.902 0.503 8.25 5.29 16.3
1/24/2021 2:45:00 PM 4.44 39.992 0.503 8.26 6.85 16.3
1/24/2021 3:00:00 PM 4.45 40.01 0.503 8.26 4.41 16.25
1/24/2021 3:15:00 PM 4.47 40.046 0.502 8.28 5.16 16.2
1/24/2021 3:30:00 PM 4.49 40.082 0.502 8.29 5.57 16.18
1/24/2021 3:45:00 PM 4.52 40.136 0.5 8.29 4.27 16.16
1/24/2021 4:00:00 PM 4.55 40.19 0.5 8.3 5.9 16.11
1/24/2021 4:15:00 PM 4.58 40.244 0.5 8.31 4.42 16
1/24/2021 4:30:00 PM 4.61 40.298 0.499 8.31 5.03 15.88
1/24/2021 4:45:00 PM 4.64 40.352 0.498 8.31 5.12 15.72
1/24/2021 5:00:00 PM 4.65 40.37 0.497 8.3 4.51 15.45
1/24/2021 5:15:00 PM 4.67 40.406 0.495 8.28 4.83 15.15
1/24/2021 5:30:00 PM 4.68 40.424 0.495 8.27 4.85 14.85
1/24/2021 5:45:00 PM 4.69 40.442 0.494 8.25 5 14.6
1/24/2021 6:00:00 PM 4.7 40.46 0.494 8.24 6.35 14.33
1/24/2021 6:15:00 PM 4.72 40.496 0.493 8.22 4.87 14.14
1/24/2021 6:30:00 PM 4.73 40.514 0.493 8.21 4.51 13.94
1/24/2021 6:45:00 PM 4.75 40.55 0.492 8.19 6.01 13.76
1/24/2021 7:00:00 PM 4.77 40.586 0.493 8.18 5.47 13.63
1/24/2021 7:15:00 PM 4.79 40.622 0.496 8.17 5.17 13.48
1/24/2021 7:30:00 PM 4.81 40.658 0.5 8.16 4.93 13.33
1/24/2021 7:45:00 PM 4.83 40.694 0.502 8.15 5.04 13.18
1/24/2021 8:00:00 PM 4.85 40.73 0.503 8.13 5.61 13.04
1/24/2021 8:15:00 PM 4.87 40.766 0.502 8.12 5.89 12.93
1/24/2021 8:30:00 PM 4.89 40.802 0.501 8.1 5.39 12.81
1/24/2021 8:45:00 PM 4.9 40.82 0.5 8.09 4.92 12.7
1/24/2021 9:00:00 PM 4.91 40.838 0.499 8.08 5.17 12.61
1/24/2021 9:15:00 PM 4.91 40.838 0.498 8.07 4.76 12.52
1/24/2021 9:30:00 PM 4.93 40.874 0.498 8.06 4.61 12.43
1/24/2021 9:45:00 PM 4.93 40.874 0.497 8.05 5.23 12.36
1/24/2021 10:00:00 PM 4.93 40.874 0.497 8.03 5.24 12.28
1/24/2021 10:15:00 PM 4.93 40.874 0.496 8.02 4.47 12.2
1/24/2021 10:30:00 PM 4.93 40.874 0.495 8.01 4.64 12.11
1/24/2021 10:45:00 PM 4.92 40.856 0.495 8 4.96 12.05
1/24/2021 11:00:00 PM 4.91 40.838 0.495 7.99 6.02 11.99
1/24/2021 11:15:00 PM 4.91 40.838 0.495 7.97 5.24 11.93
1/24/2021 11:30:00 PM 4.9 40.82 0.495 7.96 6 11.88
1/24/2021 11:45:00 PM 4.9 40.82 0.495 7.96 6.68 11.83
1/25/2021 12:00:00 AM 4.88 40.784 0.495 7.95 4.9 11.78
1/25/2021 12:15:00 AM 4.87 40.766 0.495 7.93 5.7 11.75
1/25/2021 12:30:00 AM 4.86 40.748 0.495 7.93 5.25 11.72
1/25/2021 12:45:00 AM 4.85 40.73 0.495 7.92 5.21 11.69
1/25/2021 1:00:00 AM 4.85 40.73 0.495 7.91 5.56 11.66
1/25/2021 1:15:00 AM 4.85 40.73 0.496 7.91 5.07 11.64
1/25/2021 1:30:00 AM 4.85 40.73 0.496 7.9 5.18 11.63
1/25/2021 1:45:00 AM 4.84 40.712 0.496 7.89 7.88 11.6
1/25/2021 2:00:00 AM 4.84 40.712 0.496 7.89 6.02 11.58
1/25/2021 2:15:00 AM 4.84 40.712 0.497 7.89 5.56 11.57
1/25/2021 2:30:00 AM 4.83 40.694 0.497 7.88 12.4 11.54
1/25/2021 2:45:00 AM 4.82 40.676 0.497 7.87 5.97 11.55
1/25/2021 3:00:00 AM 4.81 40.658 0.497 7.87 5.68 11.54
1/25/2021 3:15:00 AM 4.79 40.622 0.497 7.86 6 11.53
1/25/2021 3:30:00 AM 4.79 40.622 0.498 7.87 7.38 11.51
1/25/2021 3:45:00 AM 4.78 40.604 0.497 7.86 6.58 11.52
1/25/2021 4:00:00 AM 4.78 40.604 0.498 7.86 6.68 11.51
1/25/2021 4:15:00 AM 4.77 40.586 0.498 7.85 5.92 11.5
1/25/2021 4:30:00 AM 4.77 40.586 0.499 7.85 5.87 11.48
1/25/2021 4:45:00 AM 4.77 40.586 0.499 7.85 6.05 11.51
1/25/2021 5:00:00 AM 4.76 40.568 0.499 7.85 7.41 11.5
1/25/2021 5:15:00 AM 4.75 40.55 0.499 7.85 8.9 11.5
1/25/2021 5:30:00 AM 4.74 40.532 0.5 7.84 6.65 11.51
1/25/2021 5:45:00 AM 4.73 40.514 0.5 7.84 6.22 11.52
1/25/2021 6:00:00 AM 4.72 40.496 0.5 7.84 6.86 11.5
1/25/2021 6:15:00 AM 4.71 40.478 0.501 7.84 6.16 11.51
1/25/2021 6:30:00 AM 4.7 40.46 0.501 7.84 6.37 11.53
1/25/2021 6:45:00 AM 4.68 40.424 0.501 7.84 5.95 11.53
1/25/2021 7:00:00 AM 4.67 40.406 0.501 7.83 5.5 11.54
1/25/2021 7:15:00 AM 4.66 40.388 0.502 7.83 7.01 11.55
1/25/2021 7:30:00 AM 4.65 40.37 0.502 7.83 6.99 11.55
1/25/2021 7:45:00 AM 4.63 40.334 0.502 7.83 8.51 11.59
1/25/2021 8:00:00 AM 4.63 40.334 0.502 7.83 5.64 11.62
1/25/2021 8:15:00 AM 4.62 40.316 0.503 7.83 6.65 11.68
1/25/2021 8:30:00 AM 4.61 40.298 0.503 7.84 5.96 11.81
1/25/2021 8:45:00 AM 4.61 40.298 0.503 7.85 7.35 11.98
1/25/2021 9:00:00 AM 4.62 40.316 0.503 7.87 5.54 12.23
1/25/2021 9:15:00 AM 4.64 40.352 0.502 7.89 5.4 12.51
1/25/2021 9:30:00 AM 4.66 40.388 0.502 7.9 5.47 12.72
1/25/2021 9:45:00 AM 4.69 40.442 0.502 7.92 6.2 13
1/25/2021 10:00:00 AM 4.71 40.478 0.501 7.95 6.77 13.24
1/25/2021 10:15:00 AM 4.76 40.568 0.501 7.97 5.38 13.5
1/25/2021 10:30:00 AM 4.82 40.676 0.501 7.99 4.85 13.78
1/25/2021 10:45:00 AM 4.88 40.784 0.5 8.02 4.93 14.08
1/25/2021 11:00:00 AM 4.95 40.91 0.5 8.05 4.49 14.34
1/25/2021 11:15:00 AM 5.01 41.018 0.499 8.07 4.6 14.55
1/25/2021 11:30:00 AM 5.06 41.108 0.498 8.09 4.66 14.74
1/25/2021 11:45:00 AM 5.12 41.216 0.498 8.11 4.66 14.92
1/25/2021 12:00:00 PM 5.18 41.324 0.497 8.12 4.75 15.06
1/25/2021 12:15:00 PM 5.22 41.396 0.497 8.14 4.09 15.16
1/25/2021 12:30:00 PM 5.27 41.486 0.496 8.16 4.49 15.28
1/25/2021 12:45:00 PM 5.34 41.612 0.496 8.17 4.64 15.43
1/25/2021 1:00:00 PM 5.4 41.72 0.495 8.19 4.61 15.55
1/25/2021 1:15:00 PM 5.45 41.81 0.494 8.21 4.8 15.65
1/25/2021 1:30:00 PM 5.5 41.9 0.493 8.22 3.93 15.77
1/25/2021 1:45:00 PM 5.54 41.972 0.493 8.23 4.98 15.79
1/25/2021 2:00:00 PM 5.57 42.026 0.492 8.24 4.76 15.81
1/25/2021 2:15:00 PM 5.6 42.08 0.492 8.26 4.54 15.86
1/25/2021 2:30:00 PM 5.62 42.116 0.491 8.26 5.77 15.8
1/25/2021 2:45:00 PM 5.63 42.134 0.491 8.27 5.41 15.76
1/25/2021 3:00:00 PM 5.65 42.17 0.492 8.28 4.8 15.75
1/25/2021 3:15:00 PM 5.67 42.206 0.491 8.28 4.8 15.74
1/25/2021 3:30:00 PM 5.67 42.206 0.491 8.29 5.83 15.63
1/25/2021 3:45:00 PM 5.67 42.206 0.491 8.29 4.35 15.52
1/25/2021 4:00:00 PM 5.66 42.188 0.491 8.29 11.48 15.37
1/25/2021 4:15:00 PM 5.65 42.17 0.491 8.29 4.41 15.14
1/25/2021 4:30:00 PM 5.64 42.152 0.491 8.28 4.45 14.91
1/25/2021 4:45:00 PM 5.64 42.152 0.491 8.27 4.46 14.68
1/25/2021 5:00:00 PM 5.64 42.152 0.492 8.25 4.69 14.46
1/25/2021 5:15:00 PM 5.63 42.134 0.492 8.24 4.48 14.21
1/25/2021 5:30:00 PM 5.62 42.116 0.492 8.22 4.59 14.01
1/25/2021 5:45:00 PM 5.61 42.098 0.493 8.21 4.37 13.79
1/25/2021 6:00:00 PM 5.61 42.098 0.493 8.2 4.01 13.59
1/25/2021 6:15:00 PM 5.6 42.08 0.493 8.18 4.81 13.43
1/25/2021 6:30:00 PM 5.6 42.08 0.493 8.17 5.07 13.27
1/25/2021 6:45:00 PM 5.59 42.062 0.494 8.16 4.45 13.09
1/25/2021 7:00:00 PM 5.58 42.044 0.494 8.15 31.04 12.95
1/25/2021 7:15:00 PM 5.57 42.026 0.494 8.13 5.25 12.8
1/25/2021 7:30:00 PM 5.57 42.026 0.494 8.12 4.93 12.69
1/25/2021 7:45:00 PM 5.57 42.026 0.494 8.11 7.72 12.57
1/25/2021 8:00:00 PM 5.57 42.026 0.494 8.09 6.2 12.46
1/25/2021 8:15:00 PM 5.57 42.026 0.494 8.08 5.64 12.36
1/25/2021 8:30:00 PM 5.57 42.026 0.495 8.06 5.47 12.27
1/25/2021 8:45:00 PM 5.56 42.008 0.494 8.05 4.82 12.17
1/25/2021 9:00:00 PM 5.55 41.99 0.494 8.04 5.32 12.09
1/25/2021 9:15:00 PM 5.52 41.936 0.494 8.03 5.04 12.02
1/25/2021 9:30:00 PM 5.48 41.864 0.494 8.01 5.48 11.94
1/25/2021 9:45:00 PM 5.45 41.81 0.495 8 4.75 11.87
1/25/2021 10:00:00 PM 5.42 41.756 0.495 7.99 5.34 11.81
1/25/2021 10:15:00 PM 5.41 41.738 0.495 7.98 5.23 11.75
1/25/2021 10:30:00 PM 5.39 41.702 0.495 7.97 4.54 11.69
1/25/2021 10:45:00 PM 5.37 41.666 0.495 7.96 4.71 11.65
1/25/2021 11:00:00 PM 5.35 41.63 0.495 7.95 5.29 11.59
1/25/2021 11:15:00 PM 5.32 41.576 0.496 7.93 4.99 11.56
1/25/2021 11:30:00 PM 5.29 41.522 0.496 7.93 5.3 11.51
1/25/2021 11:45:00 PM 5.27 41.486 0.496 7.92 4.72 11.49
1/26/2021 12:00:00 AM 5.24 41.432 0.496 7.92 5.07 11.46
1/26/2021 12:15:00 AM 5.2 41.36 0.496 7.91 4.89 11.44
1/26/2021 12:30:00 AM 5.17 41.306 0.496 7.9 4.86 11.44
1/26/2021 12:45:00 AM 5.13 41.234 0.496 7.9 4.63 11.41
1/26/2021 1:00:00 AM 5.11 41.198 0.496 7.89 4.7 11.4
1/26/2021 1:15:00 AM 5.08 41.144 0.496 7.89 4.78 11.4
1/26/2021 1:30:00 AM 5.05 41.09 0.496 7.88 5.74 11.39
1/26/2021 1:45:00 AM 5.02 41.036 0.497 7.88 5.8 11.38
1/26/2021 2:00:00 AM 4.99 40.982 0.497 7.88 5.26 11.38
1/26/2021 2:15:00 AM 4.97 40.946 0.497 7.86 4.66 11.37
1/26/2021 2:30:00 AM 4.95 40.91 0.497 7.87 6.02 11.36
1/26/2021 2:45:00 AM 4.94 40.892 0.498 7.86 5.42 11.36
1/26/2021 3:00:00 AM 4.93 40.874 0.498 7.86 5.09 11.35
1/26/2021 3:15:00 AM 4.92 40.856 0.498 7.85 4.85 11.35
1/26/2021 3:30:00 AM 4.91 40.838 0.499 7.85 4.81 11.35
1/26/2021 3:45:00 AM 4.9 40.82 0.499 7.85 5.13 11.37
1/26/2021 4:00:00 AM 4.87 40.766 0.499 7.85 4.76 11.36
1/26/2021 4:15:00 AM 4.85 40.73 0.5 7.84 16.16 11.35
1/26/2021 4:30:00 AM 4.84 40.712 0.501 7.84 5.51 11.36
1/26/2021 4:45:00 AM 4.83 40.694 0.501 7.84 5.81 11.36
1/26/2021 5:00:00 AM 4.82 40.676 0.502 7.83 7.26 11.36
1/26/2021 5:15:00 AM 4.8 40.64 0.502 7.83 6.05 11.37
1/26/2021 5:30:00 AM 4.8 40.64 0.503 7.83 5.64 11.37
1/26/2021 5:45:00 AM 4.78 40.604 0.503 7.83 5.74 11.36
1/26/2021 6:00:00 AM 4.76 40.568 0.504 7.83 5.16 11.37
1/26/2021 6:15:00 AM 4.73 40.514 0.504 7.83 5.84 11.39
1/26/2021 6:30:00 AM 4.72 40.496 0.505 7.83 5.69 11.39
1/26/2021 6:45:00 AM 4.7 40.46 0.507 7.83 5.81 11.41
1/26/2021 7:00:00 AM 4.69 40.442 0.509 7.82 5.35 11.41
1/26/2021 7:15:00 AM 4.62 40.316 0.51 7.82 5.86 11.45
1/26/2021 7:30:00 AM 4.62 40.316 0.511 7.82 5.18 11.46
1/26/2021 7:45:00 AM 4.6 40.28 0.511 7.82 5.97 11.47
1/26/2021 8:00:00 AM 4.58 40.244 0.512 7.82 6.95 11.49
1/26/2021 8:15:00 AM 4.57 40.226 0.512 7.83 7.43 11.54
1/26/2021 8:30:00 AM 4.57 40.226 0.511 7.83 5.9 11.61
1/26/2021 8:45:00 AM 4.57 40.226 0.509 7.84 6.85 11.78
1/26/2021 9:00:00 AM 4.58 40.244 0.508 7.86 6.04 11.95
1/26/2021 9:15:00 AM 4.57 40.226 0.506 7.86 5.63 12.08
1/26/2021 9:30:00 AM 4.57 40.226 0.505 7.88 7.52 12.24
1/26/2021 9:45:00 AM 4.57 40.226 0.503 7.88 6.88 12.31
1/26/2021 10:00:00 AM 4.55 40.19 0.502 7.89 8.65 12.42
1/26/2021 10:15:00 AM 4.56 40.208 0.502 7.9 5.64 12.52
1/26/2021 10:30:00 AM 4.55 40.19 0.501 7.91 5.59 12.59
1/26/2021 10:45:00 AM 4.56 40.208 0.501 7.92 6.06 12.71
1/26/2021 11:00:00 AM 4.58 40.244 0.501 7.93 4.94 12.79
1/26/2021 11:15:00 AM 4.6 40.28 0.501 7.93 5.12 12.88
1/26/2021 11:30:00 AM 4.61 40.298 0.5 7.95 4.31 12.99
1/26/2021 11:45:00 AM 4.63 40.334 0.5 7.96 5.41 13.12
1/26/2021 12:00:00 PM 4.64 40.352 0.5 7.97 4.72 13.16
1/26/2021 12:15:00 PM 4.65 40.37 0.5 7.97 4.95 13.26
1/26/2021 12:30:00 PM 4.66 40.388 0.5 7.99 5.06 13.35
1/26/2021 12:45:00 PM 4.67 40.406 0.5 8 4.41 13.43
1/26/2021 1:00:00 PM 4.69 40.442 0.501 8.01 4.76 13.56
1/26/2021 1:15:00 PM 4.7 40.46 0.504 8.01 4.4 13.59
1/26/2021 1:30:00 PM 4.72 40.496 0.509 8.02 4.83 13.63
1/26/2021 1:45:00 PM 4.73 40.514 0.512 8.03 5.61 13.74
1/26/2021 2:00:00 PM 4.75 40.55 0.515 8.04 5.58 13.74
1/26/2021 2:15:00 PM 4.76 40.568 0.517 8.03 6.76 13.75
1/26/2021 2:30:00 PM 4.78 40.604 0.515 8.04 5.83 13.76
1/26/2021 2:45:00 PM 4.8 40.64 0.513 8.05 5.51 13.79
1/26/2021 3:00:00 PM 4.81 40.658 0.51 8.06 4.73 13.8
1/26/2021 3:15:00 PM 4.82 40.676 0.507 8.06 6.61 13.77
1/26/2021 3:30:00 PM 4.84 40.712 0.505 8.06 4.49 13.73
1/26/2021 3:45:00 PM 4.85 40.73 0.504 8.07 4.34 13.68
1/26/2021 4:00:00 PM 4.86 40.748 0.503 8.06 4.4 13.61
1/26/2021 4:15:00 PM 4.88 40.784 0.502 8.07 5.93 13.57
1/26/2021 4:30:00 PM 4.89 40.802 0.502 8.06 4.38 13.47
1/26/2021 4:45:00 PM 4.9 40.82 0.502 8.05 4.95 13.37
1/26/2021 5:00:00 PM 4.9 40.82 0.502 8.05 4.3 13.26
1/26/2021 5:15:00 PM 4.91 40.838 0.502 8.04 4.09 13.15
1/26/2021 5:30:00 PM 4.92 40.856 0.502 8.03 4.91 13.02
1/26/2021 5:45:00 PM 4.92 40.856 0.502 8.02 4.43 12.89
1/26/2021 6:00:00 PM 4.93 40.874 0.502 8.01 5.44 12.79
1/26/2021 6:15:00 PM 4.94 40.892 0.503 8 4.76 12.69
1/26/2021 6:30:00 PM 4.95 40.91 0.503 8 5.35 12.59
1/26/2021 6:45:00 PM 4.96 40.928 0.504 7.98 5.64 12.52
1/26/2021 7:00:00 PM 4.97 40.946 0.506 7.97 6.68 12.43
1/26/2021 7:15:00 PM 4.97 40.946 0.507 7.96 7.01 12.33
1/26/2021 7:30:00 PM 4.99 40.982 0.509 7.95 8.79 12.26
1/26/2021 7:45:00 PM 5 41 0.51 7.94 7.65 12.18
1/26/2021 8:00:00 PM 5.01 41.018 0.511 7.93 16.33 12.09
1/26/2021 8:15:00 PM 5.03 41.054 0.511 7.92 9.85 12.02
1/26/2021 8:30:00 PM 5.05 41.09 0.511 7.92 7.34 11.96
1/26/2021 8:45:00 PM 5.06 41.108 0.51 7.91 7.4 11.92
1/26/2021 9:00:00 PM 5.07 41.126 0.509 7.91 7.2 11.86
1/26/2021 9:15:00 PM 5.08 41.144 0.508 7.91 7.03 11.82
1/26/2021 9:30:00 PM 5.1 41.18 0.507 7.89 6.72 11.77
1/26/2021 9:45:00 PM 5.1 41.18 0.506 7.89 5.61 11.75
1/26/2021 10:00:00 PM 5.09 41.162 0.505 7.89 5.4 11.7
1/26/2021 10:15:00 PM 5.08 41.144 0.505 7.89 5.75 11.67
1/26/2021 10:30:00 PM 5.06 41.108 0.504 7.88 6.29 11.65
1/26/2021 10:45:00 PM 5.05 41.09 0.503 7.88 5.3 11.61
1/26/2021 11:00:00 PM 5.04 41.072 0.503 7.88 5.97 11.58
1/26/2021 11:15:00 PM 5.04 41.072 0.502 7.87 5.93 11.54
1/26/2021 11:30:00 PM 5.04 41.072 0.502 7.87 5.22 11.52
1/26/2021 11:45:00 PM 5.04 41.072 0.502 7.87 5.86 11.52
1/27/2021 12:00:00 AM 5.04 41.072 0.502 7.86 7.98 11.49
1/27/2021 12:15:00 AM 5.02 41.036 0.502 7.86 5.74 11.48
1/27/2021 12:30:00 AM 5.01 41.018 0.501 7.86 6.07 11.48
1/27/2021 12:45:00 AM 4.98 40.964 0.501 7.86 6.38 11.46
1/27/2021 1:00:00 AM 4.96 40.928 0.501 7.86 6 11.46
1/27/2021 1:15:00 AM 4.95 40.91 0.5 7.85 7.73 11.45
1/27/2021 1:30:00 AM 4.93 40.874 0.5 7.85 5.91 11.45
1/27/2021 1:45:00 AM 4.93 40.874 0.501 7.85 5.67 11.46
1/27/2021 2:00:00 AM 4.93 40.874 0.501 7.84 5.43 11.44
1/27/2021 2:15:00 AM 4.93 40.874 0.501 7.85 6.28 11.45
1/27/2021 2:30:00 AM 4.94 40.892 0.501 7.85 4.73 11.47
1/27/2021 2:45:00 AM 4.94 40.892 0.502 7.85 6.11 11.45
1/27/2021 3:00:00 AM 4.94 40.892 0.502 7.84 4.92 11.43
1/27/2021 3:15:00 AM 4.94 40.892 0.502 7.84 5.58 11.44
1/27/2021 3:30:00 AM 4.92 40.856 0.502 7.84 5.12 11.45
1/27/2021 3:45:00 AM 4.93 40.874 0.502 7.84 5.25 11.44
1/27/2021 4:00:00 AM 4.92 40.856 0.502 7.84 6 11.44
1/27/2021 4:15:00 AM 4.92 40.856 0.503 7.84 5.19 11.45
1/27/2021 4:30:00 AM 4.91 40.838 0.502 7.84 5.02 11.45
1/27/2021 4:45:00 AM 4.91 40.838 0.502 7.84 4.77 11.47
1/27/2021 5:00:00 AM 4.9 40.82 0.501 7.84 5.81 11.46
1/27/2021 5:15:00 AM 4.9 40.82 0.501 7.84 7.12 11.46
1/27/2021 5:30:00 AM 4.91 40.838 0.502 7.84 12.12 11.48
1/27/2021 5:45:00 AM 4.91 40.838 0.501 7.84 5.7 11.48
1/27/2021 6:00:00 AM 4.9 40.82 0.502 7.84 7.59 11.49
1/27/2021 6:15:00 AM 4.88 40.784 0.501 7.84 8.17 11.49
1/27/2021 6:30:00 AM 4.87 40.766 0.501 7.83 6.34 11.48
1/27/2021 6:45:00 AM 4.86 40.748 0.502 7.84 5.55 11.52
1/27/2021 7:00:00 AM 4.84 40.712 0.502 7.84 12.01 11.51
1/27/2021 7:15:00 AM 4.83 40.694 0.502 7.84 6.35 11.52
1/27/2021 7:30:00 AM 4.82 40.676 0.502 7.84 6.67 11.53
1/27/2021 7:45:00 AM 4.79 40.622 0.503 7.83 5.38 11.55
1/27/2021 8:00:00 AM 4.78 40.604 0.502 7.84 5.38 11.58
1/27/2021 8:15:00 AM 4.76 40.568 0.503 7.84 6.63 11.64
1/27/2021 8:30:00 AM 4.74 40.532 0.503 7.85 5.37 11.76
1/27/2021 8:45:00 AM 4.74 40.532 0.503 7.86 5.12 11.89
1/27/2021 9:00:00 AM 4.74 40.532 0.503 7.87 5.6 12.1
1/27/2021 9:15:00 AM 4.74 40.532 0.503 7.89 4.85 12.35
1/27/2021 9:30:00 AM 4.76 40.568 0.502 7.91 5.55 12.64
1/27/2021 9:45:00 AM 4.8 40.64 0.502 7.93 5.2 12.95
1/27/2021 10:00:00 AM 4.84 40.712 0.501 7.96 5.79 13.29
1/27/2021 10:15:00 AM 4.89 40.802 0.501 7.99 6.06 13.55
1/27/2021 10:30:00 AM 4.94 40.892 0.5 8.01 5.26 13.82
1/27/2021 10:45:00 AM 4.97 40.946 0.499 8.04 6.19 14.06
1/27/2021 11:00:00 AM 5.01 41.018 0.499 8.06 4.68 14.24
1/27/2021 11:15:00 AM 5.05 41.09 0.498 8.08 5.01 14.4
1/27/2021 11:30:00 AM 5.08 41.144 0.498 8.1 5.5 14.5
1/27/2021 11:45:00 AM 5.11 41.198 0.497 8.11 4.38 14.66
1/27/2021 12:00:00 PM 5.13 41.234 0.496 8.12 4.64 14.79
1/27/2021 12:15:00 PM 5.16 41.288 0.496 8.14 8.32 14.93
1/27/2021 12:30:00 PM 5.19 41.342 0.495 8.15 5.13 15.03
1/27/2021 12:45:00 PM 5.22 41.396 0.494 8.17 4.99 15.19
1/27/2021 1:00:00 PM 5.27 41.486 0.493 8.2 5.24 15.39
1/27/2021 1:15:00 PM 5.33 41.594 0.493 8.22 5.15 15.58
1/27/2021 1:30:00 PM 5.39 41.702 0.492 8.24 4.95 15.73
1/27/2021 1:45:00 PM 5.49 41.882 0.489 8.26 5.91 15.92
1/27/2021 2:00:00 PM 5.52 41.936 0.49 8.27 4.56 15.94
1/27/2021 2:15:00 PM 5.56 42.008 0.491 8.27 3.97 15.92
1/27/2021 2:30:00 PM 5.56 42.008 0.49 8.28 4.18 15.87
1/27/2021 2:45:00 PM 5.55 41.99 0.489 8.29 3.96 15.85
1/27/2021 3:00:00 PM 5.54 41.972 0.489 8.3 4.29 15.85
1/27/2021 3:15:00 PM 5.55 41.99 0.489 8.31 4.51 15.92
1/27/2021 3:30:00 PM 5.55 41.99 0.489 8.32 5.26 15.92
1/27/2021 3:45:00 PM 5.56 42.008 0.488 8.33 3.91 15.87
1/27/2021 4:00:00 PM 5.57 42.026 0.486 8.33 4.11 15.8
1/27/2021 4:15:00 PM 5.56 42.008 0.486 8.33 4.23 15.66
1/27/2021 4:30:00 PM 5.54 41.972 0.486 8.33 4.85 15.43
1/27/2021 4:45:00 PM 5.51 41.918 0.487 8.32 4.62 15.2
1/27/2021 5:00:00 PM 5.48 41.864 0.486 8.31 4.98 14.88
1/27/2021 5:15:00 PM 5.45 41.81 0.487 8.29 4.09 14.62
1/27/2021 5:30:00 PM 5.42 41.756 0.488 8.28 4.84 14.38
1/27/2021 5:45:00 PM 5.4 41.72 0.488 8.26 4.26 14.17
1/27/2021 6:00:00 PM 5.38 41.684 0.488 8.25 4.31 13.94
1/27/2021 6:15:00 PM 5.36 41.648 0.488 8.24 4.4 13.77
1/27/2021 6:30:00 PM 5.34 41.612 0.488 8.22 4.5 13.6
1/27/2021 6:45:00 PM 5.32 41.576 0.488 8.21 4.47 13.46
1/27/2021 7:00:00 PM 5.31 41.558 0.489 8.2 6.78 13.3
1/27/2021 7:15:00 PM 5.3 41.54 0.488 8.18 4.34 13.17
1/27/2021 7:30:00 PM 5.28 41.504 0.489 8.17 4.46 13.03
1/27/2021 7:45:00 PM 5.29 41.522 0.489 8.15 5.49 12.9
1/27/2021 8:00:00 PM 5.28 41.504 0.489 8.14 5.17 12.78
1/27/2021 8:15:00 PM 5.28 41.504 0.49 8.13 6.02 12.68
1/27/2021 8:30:00 PM 5.27 41.486 0.49 8.11 6.76 12.58
1/27/2021 8:45:00 PM 5.25 41.45 0.49 8.1 6.33 12.49
1/27/2021 9:00:00 PM 5.23 41.414 0.49 8.09 5.33 12.42
1/27/2021 9:15:00 PM 5.22 41.396 0.49 8.07 5.77 12.33
1/27/2021 9:30:00 PM 5.21 41.378 0.49 8.06 4.88 12.26
1/27/2021 9:45:00 PM 5.19 41.342 0.491 8.04 5.19 12.19
1/27/2021 10:00:00 PM 5.16 41.288 0.491 8.03 5.74 12.11
1/27/2021 10:15:00 PM 5.12 41.216 0.491 8.01 5.08 12.05
1/27/2021 10:30:00 PM 5.06 41.108 0.491 8 4.96 11.99
1/27/2021 10:45:00 PM 5.02 41.036 0.491 7.99 4.82 11.94
1/27/2021 11:00:00 PM 4.96 40.928 0.491 7.98 5.58 11.89
1/27/2021 11:15:00 PM 4.9 40.82 0.492 7.97 5.4 11.85
1/27/2021 11:30:00 PM 4.85 40.73 0.492 7.96 4.11 11.8
1/27/2021 11:45:00 PM 4.8 40.64 0.492 7.95 5.51 11.78
1/28/2021 12:00:00 AM 4.74 40.532 0.492 7.94 5.73 11.75
1/28/2021 12:15:00 AM 4.68 40.424 0.492 7.94 7.89 11.72
1/28/2021 12:30:00 AM 4.63 40.334 0.493 7.92 4.83 11.72
1/28/2021 12:45:00 AM 4.58 40.244 0.493 7.92 4.29 11.72
1/28/2021 1:00:00 AM 4.52 40.136 0.493 7.91 4.69 11.7
1/28/2021 1:15:00 AM 4.47 40.046 0.493 7.91 4.36 11.69
1/28/2021 1:30:00 AM 4.41 39.938 0.494 7.9 4.43 11.69
1/28/2021 1:45:00 AM 4.37 39.866 0.494 7.9 4.21 11.7
1/28/2021 2:00:00 AM 4.34 39.812 0.494 7.89 5 11.71
1/28/2021 2:15:00 AM 4.3 39.74 0.495 7.89 4.33 11.71
1/28/2021 2:30:00 AM 4.27 39.686 0.494 7.89 5.26 11.72
1/28/2021 2:45:00 AM 4.23 39.614 0.495 7.88 4.34 11.7
1/28/2021 3:00:00 AM 4.19 39.542 0.495 7.88 4.84 11.72
1/28/2021 3:15:00 AM 4.15 39.47 0.495 7.88 5.31 11.74
1/28/2021 3:30:00 AM 4.11 39.398 0.496 7.87 4.83 11.74
1/28/2021 3:45:00 AM 4.05 39.29 0.497 7.87 4.83 11.76
1/28/2021 4:00:00 AM 4.02 39.236 0.497 7.87 4.33 11.76
1/28/2021 4:15:00 AM 3.97 39.146 0.497 7.86 4.27 11.77
1/28/2021 4:30:00 AM 3.91 39.038 0.498 7.86 5.15 11.77
1/28/2021 4:45:00 AM 3.87 38.966 0.499 7.86 6.49 11.79
1/28/2021 5:00:00 AM 3.83 38.894 0.5 7.85 4.76 11.82
1/28/2021 5:15:00 AM 3.78 38.804 0.501 7.85 4.82 11.84
1/28/2021 5:30:00 AM 3.76 38.768 0.501 7.85 6.17 11.86
1/28/2021 5:45:00 AM 3.72 38.696 0.503 7.86 5.32 11.86
1/28/2021 6:00:00 AM 3.66 38.588 0.503 7.85 5.2 11.9
1/28/2021 6:15:00 AM 3.6 38.48 0.504 7.86 4.86 11.92
1/28/2021 6:30:00 AM 3.55 38.39 0.505 7.85 4.32 11.94
1/28/2021 6:45:00 AM 3.48 38.264 0.505 7.85 5.05 11.96
1/28/2021 7:00:00 AM 3.39 38.102 0.505 7.86 4.63 12
1/28/2021 7:15:00 AM 3.33 37.994 0.505 7.86 5.58 12.02
1/28/2021 7:30:00 AM 3.26 37.868 0.505 7.85 5.27 12.06
1/28/2021 7:45:00 AM 3.2 37.76 0.506 7.85 5.18 12.11
1/28/2021 8:00:00 AM 3.14 37.652 0.506 7.85 5.23 12.22
1/28/2021 8:15:00 AM 3.1 37.58 0.505 7.87 4.52 12.35
1/28/2021 8:30:00 AM 3.06 37.508 0.506 7.88 4.1 12.55
1/28/2021 8:45:00 AM 3.04 37.472 0.505 7.9 5.46 12.82
1/28/2021 9:00:00 AM 3.04 37.472 0.505 7.93 5 13.15
1/28/2021 9:15:00 AM 3.04 37.472 0.504 7.95 5.1 13.46
1/28/2021 9:30:00 AM 3.01 37.418 0.504 7.97 6.68 13.66
1/28/2021 9:45:00 AM 2.98 37.364 0.504 7.99 6.92 13.88
1/28/2021 10:00:00 AM 2.99 37.382 0.504 8 7.32 14.13
1/28/2021 10:15:00 AM 3.06 37.508 0.504 7.98 8.16 14.38
1/28/2021 10:30:00 AM 3.14 37.652 0.504 8.02 7.18 14.64
1/28/2021 10:45:00 AM 3.23 37.814 0.504 8.04 5.31 14.88
1/28/2021 11:00:00 AM 3.34 38.012 0.504 8.06 6.37 15.07
1/28/2021 11:15:00 AM 3.46 38.228 0.504 8.08 5.68 15.31
1/28/2021 11:30:00 AM 3.58 38.444 0.504 8.1 5.53 15.5
1/28/2021 11:45:00 AM 3.68 38.624 0.504 8.11 4.52 15.63
1/28/2021 12:00:00 PM 3.71 38.678 0.503 8.13 5.61 15.73
1/28/2021 12:15:00 PM 3.84 38.912 0.503 8.15 4.46 15.87
1/28/2021 12:30:00 PM 3.93 39.074 0.503 8.16 4.64 15.96
1/28/2021 12:45:00 PM 4.02 39.236 0.503 8.18 4.76 16.06
1/28/2021 1:00:00 PM 4.14 39.452 0.503 8.19 4.75 16.15
1/28/2021 1:15:00 PM 4.27 39.686 0.502 8.21 4.47 16.22
1/28/2021 1:30:00 PM 4.35 39.83 0.502 8.22 4.94 16.28
1/28/2021 1:45:00 PM 4.38 39.884 0.501 8.23 4.68 16.27
1/28/2021 2:00:00 PM 4.39 39.902 0.502 8.23 4.23 16.3
1/28/2021 2:15:00 PM 4.32 39.776 0.501 8.24 6.12 16.23
1/28/2021 2:30:00 PM 4.34 39.812 0.501 8.25 5.02 16.25
1/28/2021 2:45:00 PM 4.26 39.668 0.5 8.26 5.09 16.23
1/28/2021 3:00:00 PM 4.22 39.596 0.5 8.26 4.74 16.19
1/28/2021 3:15:00 PM 4.17 39.506 0.5 8.27 4.71 16.23
1/28/2021 3:30:00 PM 4.12 39.416 0.5 8.28 4.29 16.23
1/28/2021 3:45:00 PM 4.05 39.29 0.5 8.29 8.24 16.22
1/28/2021 4:00:00 PM 3.97 39.146 0.501 8.3 4.83 16.16
1/28/2021 4:15:00 PM 3.9 39.02 0.501 8.3 4.42 16.09
1/28/2021 4:30:00 PM 3.82 38.876 0.501 8.3 4.22 16
1/28/2021 4:45:00 PM 3.75 38.75 0.501 8.3 4.29 15.89
1/28/2021 5:00:00 PM 3.66 38.588 0.501 8.29 4.36 15.7
1/28/2021 5:15:00 PM 3.56 38.408 0.501 8.3 4.62 15.5
1/28/2021 5:30:00 PM 3.47 38.246 0.5 8.29 3.88 15.26
1/28/2021 5:45:00 PM 3.4 38.12 0.499 8.27 6.32 15.05
1/28/2021 6:00:00 PM 3.33 37.994 0.499 8.26 4.47 14.86
1/28/2021 6:15:00 PM 3.29 37.922 0.498 8.25 4.5 14.69
1/28/2021 6:30:00 PM 3.24 37.832 0.497 8.24 3.84 14.52
1/28/2021 6:45:00 PM 3.19 37.742 0.497 8.23 4.18 14.37
1/28/2021 7:00:00 PM 3.14 37.652 0.496 8.22 3.9 14.23
1/28/2021 7:15:00 PM 3.07 37.526 0.496 8.21 4.23 14.11
1/28/2021 7:30:00 PM 3.01 37.418 0.496 8.19 6.81 14
1/28/2021 7:45:00 PM 2.93 37.274 0.496 8.18 4.35 13.89
1/28/2021 8:00:00 PM 2.89 37.202 0.495 8.17 4.65 13.76
1/28/2021 8:15:00 PM 2.86 37.148 0.495 8.16 4.51 13.67
1/28/2021 8:30:00 PM 2.84 37.112 0.495 8.14 4.02 13.56
1/28/2021 8:45:00 PM 2.84 37.112 0.496 8.13 4.17 13.49
1/28/2021 9:00:00 PM 2.83 37.094 0.496 8.12 4.76 13.4
1/28/2021 9:15:00 PM 2.82 37.076 0.497 8.11 5.05 13.33
1/28/2021 9:30:00 PM 2.82 37.076 0.498 8.1 4.49 13.27
1/28/2021 9:45:00 PM 2.78 37.004 0.498 8.09 4.6 13.21
1/28/2021 10:00:00 PM 2.7 36.86 0.499 8.08 5.57 13.16
1/28/2021 10:15:00 PM 2.66 36.788 0.5 8.07 4.77 13.1
1/28/2021 10:30:00 PM 2.58 36.644 0.499 8.06 4.12 13.07
1/28/2021 10:45:00 PM 2.5 36.5 0.5 8.06 3.45 13.02
1/28/2021 11:00:00 PM 2.44 36.392 0.5 8.04 3.74 12.98
1/28/2021 11:15:00 PM 2.39 36.302 0.5 8.04 4.27 12.94
1/28/2021 11:30:00 PM 2.34 36.212 0.5 8.03 4.03 12.92
1/28/2021 11:45:00 PM 2.31 36.158 0.5 8.02 4.17 12.87
1/29/2021 12:00:00 AM 2.26 36.068 0.5 8.01 3.67 12.85
1/29/2021 12:15:00 AM 2.2 35.96 0.501 8.01 4.3 12.85
1/29/2021 12:30:00 AM 2.14 35.852 0.501 7.99 4.19 12.82
1/29/2021 12:45:00 AM 2.09 35.762 0.5 7.99 3.79 12.82
1/29/2021 1:00:00 AM 2.02 35.636 0.501 7.98 4.02 12.82
1/29/2021 1:15:00 AM 1.97 35.546 0.501 7.98 4.26 12.82
1/29/2021 1:30:00 AM 1.93 35.474 0.501 7.97 4 12.82
1/29/2021 1:45:00 AM 1.86 35.348 0.502 7.97 4.24 12.83
1/29/2021 2:00:00 AM 1.8 35.24 0.502 7.96 3.64 12.85
1/29/2021 2:15:00 AM 1.76 35.168 0.502 7.96 4.94 12.85
1/29/2021 2:30:00 AM 1.7 35.06 0.502 7.96 5 12.88
1/29/2021 2:45:00 AM 1.64 34.952 0.503 7.95 4.2 12.89
1/29/2021 3:00:00 AM 1.6 34.88 0.504 7.95 4.39 12.9
1/29/2021 3:15:00 AM 1.55 34.79 0.504 7.95 4.24 12.91
1/29/2021 3:30:00 AM 1.51 34.718 0.505 7.94 4.24 12.92
1/29/2021 3:45:00 AM 1.48 34.664 0.506 7.94 5.02 12.93
1/29/2021 4:00:00 AM 1.45 34.61 0.507 7.94 4.69 12.93
1/29/2021 4:15:00 AM 1.41 34.538 0.508 7.93 4.84 12.95
1/29/2021 4:30:00 AM 1.38 34.484 0.509 7.94 4.91 12.95
1/29/2021 4:45:00 AM 1.33 34.394 0.51 7.93 4.98 12.98
1/29/2021 5:00:00 AM 1.3 34.34 0.511 7.93 4.72 13
1/29/2021 5:15:00 AM 1.26 34.268 0.512 7.92 4.69 13
1/29/2021 5:30:00 AM 1.24 34.232 0.514 7.9 4.43 13.03
1/29/2021 5:45:00 AM 1.19 34.142 0.515 7.9 5.32 13.05
1/29/2021 6:00:00 AM 1.17 34.106 0.516 7.9 5.44 13.06
1/29/2021 6:15:00 AM 1.15 34.07 0.517 7.9 5.24 13.07
1/29/2021 6:30:00 AM 1.12 34.016 0.518 7.9 7.11 13.08
1/29/2021 6:45:00 AM 1.09 33.962 0.52 7.9 4.49 13.1
1/29/2021 7:00:00 AM 1.04 33.872 0.521 7.9 5.53 13.11
1/29/2021 7:15:00 AM 0.97 33.746 0.522 7.92 5.33 13.15
1/29/2021 7:30:00 AM 0.92 33.656 0.523 7.93 5.82 13.19
1/29/2021 7:45:00 AM 0.88 33.584 0.524 7.93 6.07 13.27
1/29/2021 8:00:00 AM 0.88 33.584 0.524 7.94 5.26 13.39
1/29/2021 8:15:00 AM 0.87 33.566 0.525 7.94 4.66 13.52
1/29/2021 8:30:00 AM 0.86 33.548 0.525 7.95 5.02 13.7
1/29/2021 8:45:00 AM 0.91 33.638 0.525 7.96 5.05 13.95
1/29/2021 9:00:00 AM 0.95 33.71 0.525 7.98 5 14.18
1/29/2021 9:15:00 AM 0.98 33.764 0.524 7.99 5.09 14.41
1/29/2021 9:30:00 AM 1.02 33.836 0.523 8.02 5.95 14.62
1/29/2021 9:45:00 AM 1.1 33.98 0.522 8.04 5.67 14.85
1/29/2021 10:00:00 AM 1.17 34.106 0.522 8.06 5.61 15.05
1/29/2021 10:15:00 AM 1.22 34.196 0.521 8.07 5.96 15.24
1/29/2021 10:30:00 AM 1.33 34.394 0.519 8.08 6.46 15.42
1/29/2021 10:45:00 AM 1.45 34.61 0.518 8.1 6.32 15.63
1/29/2021 11:00:00 AM 1.57 34.826 0.517 8.12 6.97 15.84
1/29/2021 11:15:00 AM 1.69 35.042 0.516 8.13 5.8 15.99
1/29/2021 11:30:00 AM 1.78 35.204 0.514 8.15 6.56 16.13
1/29/2021 11:45:00 AM 1.86 35.348 0.513 8.16 5 16.23
1/29/2021 12:00:00 PM 1.93 35.474 0.512 8.18 5.1 16.36
1/29/2021 12:15:00 PM 1.99 35.582 0.511 8.19 5.22 16.47
1/29/2021 12:30:00 PM 2.04 35.672 0.51 8.2 4.78 16.54
1/29/2021 12:45:00 PM 2.17 35.906 0.509 8.22 4.8 16.63
1/29/2021 1:00:00 PM 2.22 35.996 0.509 8.22 4.45 16.68
1/29/2021 1:15:00 PM 2.29 36.122 0.509 8.23 4.71 16.7
1/29/2021 1:30:00 PM 2.32 36.176 0.509 8.24 4.4 16.75
1/29/2021 1:45:00 PM 2.33 36.194 0.508 8.24 4.27 16.7
1/29/2021 2:00:00 PM 2.34 36.212 0.508 8.25 3.73 16.69
1/29/2021 2:15:00 PM 2.36 36.248 0.508 8.26 4.35 16.72
1/29/2021 2:30:00 PM 2.38 36.284 0.507 8.26 4.37 16.72
1/29/2021 2:45:00 PM 2.39 36.302 0.508 8.26 4.33 16.69
1/29/2021 3:00:00 PM 2.44 36.392 0.507 8.28 4.95 16.76
1/29/2021 3:15:00 PM 2.47 36.446 0.506 8.29 4.25 16.82
1/29/2021 3:30:00 PM 2.52 36.536 0.505 8.3 4.32 16.79
1/29/2021 3:45:00 PM 2.55 36.59 0.505 8.31 12.4 16.79
1/29/2021 4:00:00 PM 2.59 36.662 0.505 8.32 4.6 16.75
1/29/2021 4:15:00 PM 2.6 36.68 0.505 8.32 4.25 16.66
1/29/2021 4:30:00 PM 2.63 36.734 0.504 8.31 4.32 16.57
1/29/2021 4:45:00 PM 2.64 36.752 0.503 8.31 5.49 16.42
1/29/2021 5:00:00 PM 2.64 36.752 0.503 8.3 4.4 16.21
1/29/2021 5:15:00 PM 2.65 36.77 0.503 8.29 4.54 15.96
1/29/2021 5:30:00 PM 2.65 36.77 0.502 8.28 9.76 15.73
1/29/2021 5:45:00 PM 2.64 36.752 0.502 8.27 4.3 15.5
1/29/2021 6:00:00 PM 2.63 36.734 0.501 8.24 4.65 15.24
1/29/2021 6:15:00 PM 2.64 36.752 0.501 8.22 4.45 15.04
1/29/2021 6:30:00 PM 2.64 36.752 0.501 8.24 4.22 14.87
1/29/2021 6:45:00 PM 2.64 36.752 0.5 8.21 4.19 14.72
1/29/2021 7:00:00 PM 2.64 36.752 0.499 8.19 4.59 14.57
1/29/2021 7:15:00 PM 2.65 36.77 0.5 8.18 4.36 14.44
1/29/2021 7:30:00 PM 2.64 36.752 0.502 8.17 4.97 14.31
1/29/2021 7:45:00 PM 2.64 36.752 0.506 8.16 4.45 14.18
1/29/2021 8:00:00 PM 2.64 36.752 0.509 8.14 4.43 14.04
1/29/2021 8:15:00 PM 2.63 36.734 0.51 8.13 4.36 13.92
1/29/2021 8:30:00 PM 2.63 36.734 0.509 8.12 4.42 13.81
1/29/2021 8:45:00 PM 2.62 36.716 0.507 8.11 4.35 13.71
1/29/2021 9:00:00 PM 2.63 36.734 0.505 8.09 4.53 13.61
1/29/2021 9:15:00 PM 2.63 36.734 0.503 8.08 4.07 13.54
1/29/2021 9:30:00 PM 2.63 36.734 0.502 8.07 4.54 13.45
1/29/2021 9:45:00 PM 2.63 36.734 0.502 8.06 4.72 13.38
1/29/2021 10:00:00 PM 2.63 36.734 0.502 8.06 4.46 13.32
1/29/2021 10:15:00 PM 2.64 36.752 0.502 8.04 4.32 13.27
1/29/2021 10:30:00 PM 2.62 36.716 0.502 8.04 3.97 13.2
1/29/2021 10:45:00 PM 2.61 36.698 0.502 8.02 3.91 13.13
1/29/2021 11:00:00 PM 2.59 36.662 0.502 8.01 4.63 13.07
1/29/2021 11:15:00 PM 2.58 36.644 0.502 8.01 4.13 13
1/29/2021 11:30:00 PM 2.56 36.608 0.502 8 3.91 12.94
1/29/2021 11:45:00 PM 2.56 36.608 0.503 7.99 4.86 12.9
1/30/2021 12:00:00 AM 2.54 36.572 0.503 7.98 4.46 12.85
1/30/2021 12:15:00 AM 2.53 36.554 0.503 7.97 4.1 12.81
1/30/2021 12:30:00 AM 2.51 36.518 0.503 7.96 5 12.77
1/30/2021 12:45:00 AM 2.49 36.482 0.502 7.96 4.48 12.74
1/30/2021 1:00:00 AM 2.48 36.464 0.503 7.95 4.16 12.71
1/30/2021 1:15:00 AM 2.46 36.428 0.503 7.94 4.32 12.69
1/30/2021 1:30:00 AM 2.42 36.356 0.502 7.94 4.52 12.68
1/30/2021 1:45:00 AM 2.38 36.284 0.503 7.94 4.3 12.68
1/30/2021 2:00:00 AM 2.36 36.248 0.503 7.93 4.34 12.67
1/30/2021 2:15:00 AM 2.32 36.176 0.503 7.92 4.28 12.66
1/30/2021 2:30:00 AM 2.28 36.104 0.503 7.92 4.24 12.66
1/30/2021 2:45:00 AM 2.24 36.032 0.503 7.92 4.66 12.66
1/30/2021 3:00:00 AM 2.19 35.942 0.504 7.92 4.15 12.67
1/30/2021 3:15:00 AM 2.14 35.852 0.504 7.91 4.21 12.66
1/30/2021 3:30:00 AM 2.1 35.78 0.504 7.91 4.23 12.68
1/30/2021 3:45:00 AM 2.06 35.708 0.505 7.91 4.65 12.67
1/30/2021 4:00:00 AM 2.03 35.654 0.505 7.9 4.25 12.66
1/30/2021 4:15:00 AM 2.01 35.618 0.506 7.9 4.07 12.68
1/30/2021 4:30:00 AM 1.98 35.564 0.506 7.9 4.5 12.68
1/30/2021 4:45:00 AM 1.96 35.528 0.507 7.89 4.94 12.68
1/30/2021 5:00:00 AM 1.93 35.474 0.508 7.89 5.34 12.69
1/30/2021 5:15:00 AM 1.92 35.456 0.509 7.89 4.83 12.7
1/30/2021 5:30:00 AM 1.91 35.438 0.51 7.89 4.32 12.67
1/30/2021 5:45:00 AM 1.89 35.402 0.511 7.89 4.29 12.68
1/30/2021 6:00:00 AM 1.9 35.42 0.512 7.89 4.7 12.69
1/30/2021 6:15:00 AM 1.88 35.384 0.513 7.89 4.39 12.7
1/30/2021 6:30:00 AM 1.86 35.348 0.513 7.88 4.45 12.72
1/30/2021 6:45:00 AM 1.84 35.312 0.514 7.88 4.7 12.72
1/30/2021 7:00:00 AM 1.8 35.24 0.514 7.88 4.62 12.73
1/30/2021 7:15:00 AM 1.77 35.186 0.515 7.88 3.88 12.74
1/30/2021 7:30:00 AM 1.73 35.114 0.515 7.88 5.02 12.8
1/30/2021 7:45:00 AM 1.7 35.06 0.516 7.88 4.79 12.86
1/30/2021 8:00:00 AM 1.67 35.006 0.516 7.89 8.06 12.95
1/30/2021 8:15:00 AM 1.66 34.988 0.516 7.9 5.03 13.09
1/30/2021 8:30:00 AM 1.64 34.952 0.516 7.91 4.78 13.23
1/30/2021 8:45:00 AM 1.66 34.988 0.515 7.92 4.1 13.46
1/30/2021 9:00:00 AM 1.68 35.024 0.515 7.93 4.97 13.68
1/30/2021 9:15:00 AM 1.69 35.042 0.514 7.94 4.52 13.9
1/30/2021 9:30:00 AM 1.73 35.114 0.514 7.96 4.72 14.1
1/30/2021 9:45:00 AM 1.8 35.24 0.513 7.97 4 14.35
1/30/2021 10:00:00 AM 1.88 35.384 0.512 8 4.5 14.58
1/30/2021 10:15:00 AM 1.97 35.546 0.512 8.01 4.52 14.8
1/30/2021 10:30:00 AM 2.09 35.762 0.511 8.04 4.14 15.03
1/30/2021 10:45:00 AM 2.22 35.996 0.51 8.05 4.13 15.24
1/30/2021 11:00:00 AM 2.36 36.248 0.51 8.05 4.12 15.41
1/30/2021 11:15:00 AM 2.51 36.518 0.509 8.07 5.04 15.6
1/30/2021 11:30:00 AM 2.65 36.77 0.509 8.08 5.85 15.76
1/30/2021 11:45:00 AM 2.81 37.058 0.509 8.1 5.48 15.9
1/30/2021 12:00:00 PM 2.96 37.328 0.508 8.12 5.67 16.05
1/30/2021 12:15:00 PM 3.13 37.634 0.508 8.13 5.88 16.15
1/30/2021 12:30:00 PM 3.29 37.922 0.507 8.16 5.46 16.26
1/30/2021 12:45:00 PM 3.47 38.246 0.507 8.17 5.26 16.36
1/30/2021 1:00:00 PM 3.61 38.498 0.506 8.19 5.91 16.44
1/30/2021 1:15:00 PM 3.76 38.768 0.506 8.2 5.08 16.51
1/30/2021 1:30:00 PM 3.93 39.074 0.506 8.21 4.81 16.54
1/30/2021 1:45:00 PM 4.06 39.308 0.505 8.22 5.55 16.59
1/30/2021 2:00:00 PM 4.19 39.542 0.505 8.23 5.24 16.59
1/30/2021 2:15:00 PM 4.28 39.704 0.505 8.23 5.19 16.58
1/30/2021 2:30:00 PM 4.36 39.848 0.504 8.24 5.55 16.57
1/30/2021 2:45:00 PM 4.41 39.938 0.504 8.25 4.84 16.53
1/30/2021 3:00:00 PM 4.43 39.974 0.504 8.26 5.37 16.5
1/30/2021 3:15:00 PM 4.46 40.028 0.504 8.27 5 16.46
1/30/2021 3:30:00 PM 4.45 40.01 0.504 8.28 5.22 16.43
1/30/2021 3:45:00 PM 4.45 40.01 0.504 8.29 6.92 16.36
1/30/2021 4:00:00 PM 4.43 39.974 0.505 8.26 4.65 16.3
1/30/2021 4:15:00 PM 4.41 39.938 0.505 8.27 4.88 16.17
1/30/2021 4:30:00 PM 4.38 39.884 0.504 8.3 4.38 16.08
1/30/2021 4:45:00 PM 4.36 39.848 0.505 8.3 4.6 15.94
1/30/2021 5:00:00 PM 4.35 39.83 0.504 8.3 4.53 15.73
1/30/2021 5:15:00 PM 4.33 39.794 0.504 8.29 4.52 15.52
1/30/2021 5:30:00 PM 4.3 39.74 0.504 8.28 5.62 15.25
1/30/2021 5:45:00 PM 4.27 39.686 0.504 8.27 4.81 15.01
1/30/2021 6:00:00 PM 4.24 39.632 0.503 8.26 5.28 14.78
1/30/2021 6:15:00 PM 4.21 39.578 0.503 8.25 4.39 14.58
1/30/2021 6:30:00 PM 4.17 39.506 0.503 8.24 5.33 14.37
1/30/2021 6:45:00 PM 4.14 39.452 0.502 8.23 4.69 14.19
1/30/2021 7:00:00 PM 4.11 39.398 0.501 8.21 5.76 14.03
1/30/2021 7:15:00 PM 4.1 39.38 0.5 8.19 5.11 13.9
1/30/2021 7:30:00 PM 4.07 39.326 0.5 8.19 4.96 13.74
1/30/2021 7:45:00 PM 4.04 39.272 0.5 8.16 4.86 13.6
1/30/2021 8:00:00 PM 4.03 39.254 0.5 8.16 6.72 13.48
1/30/2021 8:15:00 PM 4 39.2 0.499 8.15 7.63 13.34
1/30/2021 8:30:00 PM 3.97 39.146 0.499 8.14 5.49 13.21
1/30/2021 8:45:00 PM 3.95 39.11 0.499 8.12 5.23 13.11
1/30/2021 9:00:00 PM 3.93 39.074 0.499 8.11 5.17 12.98
1/30/2021 9:15:00 PM 3.92 39.056 0.498 8.09 4.87 12.89
1/30/2021 9:30:00 PM 3.91 39.038 0.499 8.07 4.09 12.82
1/30/2021 9:45:00 PM 3.91 39.038 0.499 8.06 3.89 12.72
1/30/2021 10:00:00 PM 3.91 39.038 0.498 8.05 4.64 12.64
1/30/2021 10:15:00 PM 3.91 39.038 0.498 8.04 8.99 12.56
1/30/2021 10:30:00 PM 3.91 39.038 0.499 8.03 4.33 12.51
1/30/2021 10:45:00 PM 3.92 39.056 0.498 8.02 5.38 12.42
1/30/2021 11:00:00 PM 3.92 39.056 0.498 8.01 4.8 12.35
1/30/2021 11:15:00 PM 3.92 39.056 0.498 8 4.34 12.3
1/30/2021 11:30:00 PM 3.92 39.056 0.498 7.99 4.13 12.24
1/30/2021 11:45:00 PM 3.92 39.056 0.498 7.98 4.42 12.19
1/31/2021 12:00:00 AM 3.91 39.038 0.498 7.97 4.1 12.12
1/31/2021 12:15:00 AM 3.9 39.02 0.497 7.96 4.5 12.09
1/31/2021 12:30:00 AM 3.89 39.002 0.497 7.95 4.43 12.05
1/31/2021 12:45:00 AM 3.88 38.984 0.497 7.95 4.36 12.03
1/31/2021 1:00:00 AM 3.86 38.948 0.497 7.95 4.1 11.98
1/31/2021 1:15:00 AM 3.85 38.93 0.497 7.94 4.22 11.97
1/31/2021 1:30:00 AM 3.84 38.912 0.497 7.93 5.06 11.96
1/31/2021 1:45:00 AM 3.83 38.894 0.496 7.92 5.68 11.93
1/31/2021 2:00:00 AM 3.81 38.858 0.496 7.91 5.12 11.91
1/31/2021 2:15:00 AM 3.79 38.822 0.497 7.91 5.14 11.92
1/31/2021 2:30:00 AM 3.76 38.768 0.497 7.9 4.95 11.9
1/31/2021 2:45:00 AM 3.73 38.714 0.496 7.91 4.76 11.9
1/31/2021 3:00:00 AM 3.7 38.66 0.497 7.91 4.41 11.92
1/31/2021 3:15:00 AM 3.67 38.606 0.497 7.9 4.88 11.91
1/31/2021 3:30:00 AM 3.65 38.57 0.498 7.9 5 11.91
1/31/2021 3:45:00 AM 3.63 38.534 0.498 7.9 5.72 11.92
1/31/2021 4:00:00 AM 3.61 38.498 0.499 7.89 5.24 11.91
1/31/2021 4:15:00 AM 3.59 38.462 0.499 7.89 5.3 11.91
1/31/2021 4:30:00 AM 3.57 38.426 0.5 7.89 5.22 11.91
1/31/2021 4:45:00 AM 3.55 38.39 0.5 7.88 5.13 11.9
1/31/2021 5:00:00 AM 3.53 38.354 0.501 7.88 5.03 11.89
1/31/2021 5:15:00 AM 3.52 38.336 0.501 7.88 8.47 11.91
1/31/2021 5:30:00 AM 3.5 38.3 0.502 7.87 5.34 11.9
1/31/2021 5:45:00 AM 3.48 38.264 0.503 7.87 4.97 11.9
1/31/2021 6:00:00 AM 3.47 38.246 0.503 7.87 5.3 11.91
1/31/2021 6:15:00 AM 3.46 38.228 0.504 7.87 5.65 11.91
1/31/2021 6:30:00 AM 3.44 38.192 0.504 7.87 5.48 11.91
1/31/2021 6:45:00 AM 3.43 38.174 0.505 7.87 5.56 11.9
1/31/2021 7:00:00 AM 3.43 38.174 0.505 7.87 6.09 11.91
1/31/2021 7:15:00 AM 3.41 38.138 0.506 7.86 5.48 11.91
1/31/2021 7:30:00 AM 3.38 38.084 0.506 7.86 5.51 11.93
1/31/2021 7:45:00 AM 3.37 38.066 0.506 7.86 6.19 11.94
1/31/2021 8:00:00 AM 3.36 38.048 0.507 7.87 12.07 12.03
1/31/2021 8:15:00 AM 3.36 38.048 0.507 7.88 5.8 12.17
1/31/2021 8:30:00 AM 3.35 38.03 0.507 7.88 5.77 12.35
1/31/2021 8:45:00 AM 3.35 38.03 0.507 7.89 6.3 12.49
1/31/2021 9:00:00 AM 3.34 38.012 0.506 7.9 4.82 12.59
1/31/2021 9:15:00 AM 3.34 38.012 0.506 7.91 5.04 12.74
1/31/2021 9:30:00 AM 3.31 37.958 0.506 7.93 5.05 12.95
1/31/2021 9:45:00 AM 3.29 37.922 0.505 7.95 5.25 13.14
1/31/2021 10:00:00 AM 3.32 37.976 0.505 7.98 6.27 13.41
1/31/2021 10:15:00 AM 3.34 38.012 0.504 8.01 5.78 13.72
1/31/2021 10:30:00 AM 3.35 38.03 0.504 8.03 5.69 13.99
1/31/2021 10:45:00 AM 3.37 38.066 0.503 8.05 5.44 14.26
1/31/2021 11:00:00 AM 3.4 38.12 0.502 8.06 4.94 14.41
1/31/2021 11:15:00 AM 3.42 38.156 0.502 8.09 5.77 14.65
1/31/2021 11:30:00 AM 3.44 38.192 0.501 8.11 5.27 14.88
1/31/2021 11:45:00 AM 3.45 38.21 0.5 8.14 4.76 15.03
1/31/2021 12:00:00 PM 3.47 38.246 0.5 8.15 5.82 15.16
1/31/2021 12:15:00 PM 3.46 38.228 0.5 8.17 5.73 15.31
1/31/2021 12:30:00 PM 3.49 38.282 0.499 8.19 6.83 15.5
1/31/2021 12:45:00 PM 3.53 38.354 0.499 8.21 4.81 15.6
1/31/2021 1:00:00 PM 3.58 38.444 0.498 8.22 4.68 15.79
1/31/2021 1:15:00 PM 3.61 38.498 0.498 8.23 6.24 15.87
1/31/2021 1:30:00 PM 3.64 38.552 0.497 8.24 4.11 15.97
1/31/2021 1:45:00 PM 3.66 38.588 0.497 8.25 4.61 16.02
1/31/2021 2:00:00 PM 3.68 38.624 0.497 8.27 5.04 16.09
1/31/2021 2:15:00 PM 3.68 38.624 0.497 8.26 4.97 16.09
1/31/2021 2:30:00 PM 3.66 38.588 0.497 8.27 5.86 16.07
1/31/2021 2:45:00 PM 3.67 38.606 0.497 8.28 7.46 16.09
1/31/2021 3:00:00 PM 3.66 38.588 0.496 8.28 6.9 16.11
1/31/2021 3:15:00 PM 3.65 38.57 0.496 8.28 6.09 16.07
1/31/2021 3:30:00 PM 3.63 38.534 0.496 8.28 7.12 16.03
1/31/2021 3:45:00 PM 3.63 38.534 0.495 8.29 5.38 16.05
1/31/2021 4:00:00 PM 3.63 38.534 0.495 8.29 4.71 16.01
1/31/2021 4:15:00 PM 3.6 38.48 0.495 8.21 4.63 15.87
1/31/2021 4:30:00 PM 3.55 38.39 0.495 8.25 4.88 15.73
1/31/2021 4:45:00 PM 3.51 38.318 0.495 8.27 5.04 15.56
1/31/2021 5:00:00 PM 3.45 38.21 0.494 8.27 6.37 15.33
1/31/2021 5:15:00 PM 3.41 38.138 0.495 8.25 5.02 15.14
1/31/2021 5:30:00 PM 3.35 38.03 0.495 8.25 4.32 14.93
1/31/2021 5:45:00 PM 3.3 37.94 0.496 8.24 4.23 14.71
1/31/2021 6:00:00 PM 3.25 37.85 0.497 8.22 4.17 14.51
1/31/2021 6:15:00 PM 3.16 37.688 0.498 8.21 4.41 14.36
1/31/2021 6:30:00 PM 3.12 37.616 0.499 8.21 4.81 14.21
1/31/2021 6:45:00 PM 3.05 37.49 0.5 8.19 5.03 14.08
1/31/2021 7:00:00 PM 2.99 37.382 0.501 8.18 4.38 13.94
1/31/2021 7:15:00 PM 2.95 37.31 0.501 8.17 4.32 13.84
1/31/2021 7:30:00 PM 2.92 37.256 0.501 8.16 5.51 13.72
1/31/2021 7:45:00 PM 2.89 37.202 0.502 8.15 5.1 13.64
1/31/2021 8:00:00 PM 2.87 37.166 0.503 8.14 5.09 13.5
1/31/2021 8:15:00 PM 2.83 37.094 0.504 8.12 4.48 13.42
1/31/2021 8:30:00 PM 2.82 37.076 0.505 8.11 5.66 13.34
1/31/2021 8:45:00 PM 2.79 37.022 0.506 8.1 4.87 13.26
1/31/2021 9:00:00 PM 2.75 36.95 0.507 8.09 4.47 13.19
1/31/2021 9:15:00 PM 2.72 36.896 0.506 8.08 4.3 13.12
1/31/2021 9:30:00 PM 2.69 36.842 0.506 8.07 4.82 13.04
1/31/2021 9:45:00 PM 2.66 36.788 0.505 8.06 4.44 12.99
1/31/2021 10:00:00 PM 2.64 36.752 0.504 8.05 6.39 12.94
1/31/2021 10:15:00 PM 2.62 36.716 0.503 8.05 4.85 12.9
1/31/2021 10:30:00 PM 2.59 36.662 0.502 8.04 4.7 12.84
1/31/2021 10:45:00 PM 2.57 36.626 0.501 8.03 6.07 12.8
1/31/2021 11:00:00 PM 2.56 36.608 0.501 8.02 4.42 12.75
1/31/2021 11:15:00 PM 2.54 36.572 0.5 8.01 4.57 12.72
1/31/2021 11:30:00 PM 2.52 36.536 0.499 8 4.45 12.67
1/31/2021 11:45:00 PM 2.48 36.464 0.499 7.99 4.6 12.63
2/1/2021 12:00:00 AM 2.46 36.428 0.498 7.98 6.91 12.59
2/1/2021 12:15:00 AM 2.44 36.392 0.498 7.98 4.96 12.57
2/1/2021 12:30:00 AM 2.43 36.374 0.498 7.97 4.01 12.56
2/1/2021 12:45:00 AM 2.41 36.338 0.498 7.96 5.52 12.53
2/1/2021 1:00:00 AM 2.39 36.302 0.498 7.96 4.92 12.51
2/1/2021 1:15:00 AM 2.37 36.266 0.499 7.95 4.62 12.5
2/1/2021 1:30:00 AM 2.36 36.248 0.499 7.94 3.89 12.48
2/1/2021 1:45:00 AM 2.32 36.176 0.498 7.95 4.52 12.48
2/1/2021 2:00:00 AM 2.31 36.158 0.498 7.93 4.03 12.46
2/1/2021 2:15:00 AM 2.29 36.122 0.498 7.94 4.99 12.47
2/1/2021 2:30:00 AM 2.27 36.086 0.498 7.94 4.07 12.46
2/1/2021 2:45:00 AM 2.25 36.05 0.498 7.93 4.36 12.48
2/1/2021 3:00:00 AM 2.23 36.014 0.498 7.92 4.51 12.46
2/1/2021 3:15:00 AM 2.2 35.96 0.498 7.92 4.42 12.48
2/1/2021 3:30:00 AM 2.18 35.924 0.498 7.92 4.88 12.47
2/1/2021 3:45:00 AM 2.16 35.888 0.498 7.91 5.21 12.48
2/1/2021 4:00:00 AM 2.14 35.852 0.498 7.92 8.14 12.47
2/1/2021 4:15:00 AM 2.12 35.816 0.498 7.91 4.73 12.48
2/1/2021 4:30:00 AM 2.1 35.78 0.498 7.91 4.83 12.5
2/1/2021 4:45:00 AM 2.07 35.726 0.499 7.91 5.6 12.48
2/1/2021 5:00:00 AM 2.06 35.708 0.499 7.9 4.51 12.5
2/1/2021 5:15:00 AM 2.03 35.654 0.499 7.9 4.28 12.52
2/1/2021 5:30:00 AM 1.98 35.564 0.5 7.9 4.3 12.51
2/1/2021 5:45:00 AM 1.95 35.51 0.5 7.9 5.01 12.53
2/1/2021 6:00:00 AM 1.93 35.474 0.5 7.9 4.99 12.52
2/1/2021 6:15:00 AM 1.9 35.42 0.5 7.9 7.96 12.52
2/1/2021 6:30:00 AM 1.86 35.348 0.5 7.9 5.02 12.53
2/1/2021 6:45:00 AM 1.83 35.294 0.5 7.9 5.64 12.54
2/1/2021 7:00:00 AM 1.81 35.258 0.5 7.9 5.36 12.55
2/1/2021 7:15:00 AM 1.77 35.186 0.501 7.9 5.74 12.57
2/1/2021 7:30:00 AM 1.75 35.15 0.501 7.89 6.65 12.59
2/1/2021 7:45:00 AM 1.72 35.096 0.502 7.9 6.55 12.65
2/1/2021 8:00:00 AM 1.74 35.132 0.501 7.91 7.45 12.76
2/1/2021 8:15:00 AM 1.75 35.15 0.501 7.91 6.71 12.88
2/1/2021 8:30:00 AM 1.77 35.186 0.501 7.93 6.55 13.02
2/1/2021 8:45:00 AM 1.78 35.204 0.501 7.94 5.9 13.18
2/1/2021 9:00:00 AM 1.82 35.276 0.501 7.95 6.45 13.38
2/1/2021 9:15:00 AM 1.85 35.33 0.501 7.97 6.98 13.59
2/1/2021 9:30:00 AM 1.89 35.402 0.5 7.98 5.46 13.77
2/1/2021 9:45:00 AM 1.93 35.474 0.5 8 5.52 13.95
2/1/2021 10:00:00 AM 1.98 35.564 0.5 8.02 6.7 14.18
2/1/2021 10:15:00 AM 2.04 35.672 0.499 8.05 8.18 14.39
2/1/2021 10:30:00 AM 2.13 35.834 0.499 8.08 5.57 14.62
2/1/2021 10:45:00 AM 2.21 35.978 0.499 8.1 5.37 14.84
2/1/2021 11:00:00 AM 2.29 36.122 0.498 8.11 5.91 15.01
2/1/2021 11:15:00 AM 2.39 36.302 0.497 8.13 5.57 15.22
2/1/2021 11:30:00 AM 2.5 36.5 0.496 8.15 6.59 15.41
2/1/2021 11:45:00 AM 2.58 36.644 0.496 8.18 5.41 15.55
2/1/2021 12:00:00 PM 2.67 36.806 0.496 8.19 4.93 15.69
2/1/2021 12:15:00 PM 2.73 36.914 0.495 8.2 4.61 15.82
2/1/2021 12:30:00 PM 2.8 37.04 0.495 8.21 4.95 15.92
2/1/2021 12:45:00 PM 2.86 37.148 0.494 8.24 4.85 16.03
2/1/2021 1:00:00 PM 2.93 37.274 0.493 8.25 5.79 16.14
2/1/2021 1:15:00 PM 2.99 37.382 0.493 8.26 5.94 16.22
2/1/2021 1:30:00 PM 3.04 37.472 0.492 8.27 5.34 16.24
2/1/2021 1:45:00 PM 3.07 37.526 0.492 8.27 5.48 16.27
2/1/2021 2:00:00 PM 3.11 37.598 0.491 8.29 5.58 16.34
2/1/2021 2:15:00 PM 3.13 37.634 0.491 8.3 5.37 16.4
2/1/2021 2:30:00 PM 3.15 37.67 0.49 8.3 5.79 16.35
2/1/2021 2:45:00 PM 3.16 37.688 0.49 8.3 5.71 16.31
2/1/2021 3:00:00 PM 3.22 37.796 0.489 8.31 4.95 16.34
2/1/2021 3:15:00 PM 3.27 37.886 0.489 8.32 5.26 16.36
2/1/2021 3:30:00 PM 3.34 38.012 0.489 8.34 5.23 16.42
2/1/2021 3:45:00 PM 3.4 38.12 0.488 8.35 4.87 16.45
2/1/2021 4:00:00 PM 3.46 38.228 0.487 8.36 5.49 16.49
2/1/2021 4:15:00 PM 3.51 38.318 0.486 8.37 5.98 16.48
2/1/2021 4:30:00 PM 3.53 38.354 0.485 8.36 4.83 16.42
2/1/2021 4:45:00 PM 3.57 38.426 0.485 8.36 5.45 16.33
2/1/2021 5:00:00 PM 3.59 38.462 0.484 8.36 5.63 16.18
2/1/2021 5:15:00 PM 3.58 38.444 0.484 8.35 4.41 15.95
2/1/2021 5:30:00 PM 3.57 38.426 0.484 8.34 4.48 15.65
2/1/2021 5:45:00 PM 3.59 38.462 0.483 8.32 5.33 15.36
2/1/2021 6:00:00 PM 3.6 38.48 0.483 8.31 4.88 15.11
2/1/2021 6:15:00 PM 3.62 38.516 0.483 8.29 4.94 14.88
2/1/2021 6:30:00 PM 3.63 38.534 0.482 8.28 4.68 14.66
2/1/2021 6:45:00 PM 3.64 38.552 0.482 8.26 5.79 14.48
2/1/2021 7:00:00 PM 3.62 38.516 0.481 8.25 4.83 14.32
2/1/2021 7:15:00 PM 3.59 38.462 0.481 8.23 4.76 14.14
2/1/2021 7:30:00 PM 3.53 38.354 0.48 8.22 4.85 13.99
2/1/2021 7:45:00 PM 3.46 38.228 0.48 8.21 5.3 13.84
2/1/2021 8:00:00 PM 3.36 38.048 0.479 8.2 5.14 13.68
2/1/2021 8:15:00 PM 3.23 37.814 0.479 8.18 5.52 13.53
2/1/2021 8:30:00 PM 3.17 37.706 0.478 8.16 5.44 13.4
2/1/2021 8:45:00 PM 3.1 37.58 0.478 8.15 5.9 13.27
2/1/2021 9:00:00 PM 3.04 37.472 0.478 8.14 5.75 13.17
2/1/2021 9:15:00 PM 3.01 37.418 0.479 8.12 5.65 13.08
2/1/2021 9:30:00 PM 2.98 37.364 0.48 8.1 5.68 13
2/1/2021 9:45:00 PM 2.97 37.346 0.48 8.1 5.8 12.94
2/1/2021 10:00:00 PM 2.98 37.364 0.481 8.09 7.57 12.87
2/1/2021 10:15:00 PM 2.98 37.364 0.482 8.07 5.53 12.79
2/1/2021 10:30:00 PM 2.99 37.382 0.484 8.06 5.51 12.74
2/1/2021 10:45:00 PM 3.03 37.454 0.485 8.05 7.08 12.67
2/1/2021 11:00:00 PM 3.05 37.49 0.487 8.04 5.28 12.6
2/1/2021 11:15:00 PM 3.05 37.49 0.488 8.03 7.37 12.55
2/1/2021 11:30:00 PM 3.05 37.49 0.489 8.02 5 12.49
2/1/2021 11:45:00 PM 3.06 37.508 0.49 8.01 5.14 12.42
2/2/2021 12:00:00 AM 3.08 37.544 0.49 7.99 6.61 12.36
2/2/2021 12:15:00 AM 3.08 37.544 0.49 7.98 5.09 12.31
2/2/2021 12:30:00 AM 3.09 37.562 0.49 7.97 5.21 12.25
2/2/2021 12:45:00 AM 3.1 37.58 0.49 7.96 6.47 12.21
2/2/2021 1:00:00 AM 3.11 37.598 0.49 7.95 7.3 12.17
2/2/2021 1:15:00 AM 3.12 37.616 0.49 7.94 8.34 12.14
2/2/2021 1:30:00 AM 3.13 37.634 0.49 7.94 8.09 12.11
2/2/2021 1:45:00 AM 3.14 37.652 0.49 7.93 8.03 12.07
2/2/2021 2:00:00 AM 3.15 37.67 0.49 7.92 6.72 12.05
2/2/2021 2:15:00 AM 3.15 37.67 0.49 7.91 8.27 12.03
2/2/2021 2:30:00 AM 3.15 37.67 0.49 7.91 6.95 12.02
2/2/2021 2:45:00 AM 3.16 37.688 0.49 7.91 6.22 12
2/2/2021 3:00:00 AM 3.14 37.652 0.49 7.9 6.02 11.99
2/2/2021 3:15:00 AM 3.15 37.67 0.489 7.9 6.86 11.98
2/2/2021 3:30:00 AM 3.16 37.688 0.49 7.9 5.58 11.95
2/2/2021 3:45:00 AM 3.16 37.688 0.49 7.89 6.01 11.94
2/2/2021 4:00:00 AM 3.17 37.706 0.49 7.89 6.22 11.93
2/2/2021 4:15:00 AM 3.18 37.724 0.49 7.89 5.84 11.92
2/2/2021 4:30:00 AM 3.19 37.742 0.49 7.88 6.66 11.9
2/2/2021 4:45:00 AM 3.2 37.76 0.49 7.88 5.8 11.89
2/2/2021 5:00:00 AM 3.2 37.76 0.491 7.88 6.15 11.87
2/2/2021 5:15:00 AM 3.2 37.76 0.491 7.88 6.07 11.87
2/2/2021 5:30:00 AM 3.2 37.76 0.491 7.87 6.29 11.85
2/2/2021 5:45:00 AM 3.2 37.76 0.491 7.87 5.33 11.85
2/2/2021 6:00:00 AM 3.21 37.778 0.491 7.87 5.33 11.84
2/2/2021 6:15:00 AM 3.19 37.742 0.491 7.87 5.52 11.85
2/2/2021 6:30:00 AM 3.17 37.706 0.492 7.87 5.78 11.85
2/2/2021 6:45:00 AM 3.17 37.706 0.492 7.86 5.66 11.85
2/2/2021 7:00:00 AM 3.14 37.652 0.492 7.86 5.8 11.85
2/2/2021 7:15:00 AM 3.13 37.634 0.492 7.86 5.24 11.86
2/2/2021 7:30:00 AM 3.13 37.634 0.493 7.85 7 11.85
2/2/2021 7:45:00 AM 3.15 37.67 0.493 7.86 8.1 11.9
2/2/2021 8:00:00 AM 3.16 37.688 0.493 7.86 6.32 11.95
2/2/2021 8:15:00 AM 3.18 37.724 0.493 7.87 6.41 12.04
2/2/2021 8:30:00 AM 3.19 37.742 0.494 7.88 5.38 12.16
2/2/2021 8:45:00 AM 3.22 37.796 0.494 7.89 5.53 12.31
2/2/2021 9:00:00 AM 3.25 37.85 0.494 7.9 5 12.52
2/2/2021 9:15:00 AM 3.29 37.922 0.494 7.92 5.64 12.73
2/2/2021 9:30:00 AM 3.33 37.994 0.494 7.95 5.76 12.95
2/2/2021 9:45:00 AM 3.35 38.03 0.494 7.96 5.45 13.21
2/2/2021 10:00:00 AM 3.39 38.102 0.494 7.99 4.45 13.47
2/2/2021 10:15:00 AM 3.44 38.192 0.493 8.01 5.65 13.74
2/2/2021 10:30:00 AM 3.47 38.246 0.493 8.03 8.06 13.95
2/2/2021 10:45:00 AM 3.51 38.318 0.492 8.06 7.32 14.18
2/2/2021 11:00:00 AM 3.54 38.372 0.492 8.08 5.47 14.38
2/2/2021 11:15:00 AM 3.59 38.462 0.491 8.11 4.94 14.62
2/2/2021 11:30:00 AM 3.64 38.552 0.491 8.14 4.69 14.83
2/2/2021 11:45:00 AM 3.71 38.678 0.49 8.18 5.49 15.04
2/2/2021 12:00:00 PM 3.75 38.75 0.49 8.19 4.55 15.2
2/2/2021 12:15:00 PM 3.81 38.858 0.489 8.21 4.44 15.37
2/2/2021 12:30:00 PM 3.88 38.984 0.489 8.23 6.6 15.54
2/2/2021 12:45:00 PM 3.95 39.11 0.488 8.26 4.44 15.72
2/2/2021 1:00:00 PM 4.01 39.218 0.487 8.27 4.53 15.79
2/2/2021 1:15:00 PM 4.1 39.38 0.487 8.28 3.94 15.94
2/2/2021 1:30:00 PM 4.18 39.524 0.487 8.3 4.64 16.05
2/2/2021 1:45:00 PM 4.26 39.668 0.486 8.32 5.59 16.13
2/2/2021 2:00:00 PM 4.33 39.794 0.485 8.33 5 16.23
2/2/2021 2:15:00 PM 4.38 39.884 0.485 8.34 4.56 16.29
2/2/2021 2:30:00 PM 4.42 39.956 0.484 8.34 4.61 16.31
2/2/2021 2:45:00 PM 4.45 40.01 0.483 8.35 5.25 16.34
2/2/2021 3:00:00 PM 4.46 40.028 0.484 8.35 5.23 16.34
2/2/2021 3:15:00 PM 4.46 40.028 0.483 8.36 4.89 16.33
2/2/2021 3:30:00 PM 4.43 39.974 0.483 8.36 5.12 16.29
2/2/2021 3:45:00 PM 4.38 39.884 0.483 8.36 6.57 16.19
2/2/2021 4:00:00 PM 4.34 39.812 0.483 8.36 4.55 16.15
2/2/2021 4:15:00 PM 4.33 39.794 0.483 8.38 4.96 16.1
2/2/2021 4:30:00 PM 4.31 39.758 0.484 8.38 5.01 16.06
2/2/2021 4:45:00 PM 4.27 39.686 0.486 8.37 5.57 15.83
2/2/2021 5:00:00 PM 4.23 39.614 0.488 8.36 5.09 15.62
2/2/2021 5:15:00 PM 4.21 39.578 0.49 8.34 5.06 15.37
2/2/2021 5:30:00 PM 4.18 39.524 0.493 8.33 5.01 15.13
2/2/2021 5:45:00 PM 4.13 39.434 0.495 8.31 4.84 14.84
2/2/2021 6:00:00 PM 4.1 39.38 0.497 8.3 5.38 14.55
2/2/2021 6:15:00 PM 4.08 39.344 0.499 8.29 5.33 14.37
2/2/2021 6:30:00 PM 4.04 39.272 0.501 8.28 5.27 14.15
2/2/2021 6:45:00 PM 4.02 39.236 0.502 8.27 5.53 13.97
2/2/2021 7:00:00 PM 3.99 39.182 0.504 8.25 5.42 13.81
2/2/2021 7:15:00 PM 3.96 39.128 0.506 8.24 5.35 13.67
2/2/2021 7:30:00 PM 3.94 39.092 0.507 8.23 5.37 13.54
2/2/2021 7:45:00 PM 3.91 39.038 0.508 8.22 5.39 13.41
2/2/2021 8:00:00 PM 3.91 39.038 0.509 8.2 5.3 13.28
2/2/2021 8:15:00 PM 3.88 38.984 0.509 8.19 6.54 13.14
2/2/2021 8:30:00 PM 3.86 38.948 0.509 8.18 6.2 13.03
2/2/2021 8:45:00 PM 3.84 38.912 0.508 8.16 6.8 12.91
2/2/2021 9:00:00 PM 3.81 38.858 0.508 8.15 5.14 12.8
2/2/2021 9:15:00 PM 3.77 38.786 0.507 8.13 5.68 12.72
2/2/2021 9:30:00 PM 3.74 38.732 0.507 8.12 5.04 12.62
2/2/2021 9:45:00 PM 3.72 38.696 0.507 8.11 5.1 12.56
2/2/2021 10:00:00 PM 3.7 38.66 0.506 8.09 6.42 12.47
2/2/2021 10:15:00 PM 3.67 38.606 0.506 8.08 5.47 12.43
2/2/2021 10:30:00 PM 3.63 38.534 0.505 8.06 5.19 12.37
2/2/2021 10:45:00 PM 3.6 38.48 0.505 8.05 5.57 12.32
2/2/2021 11:00:00 PM 3.57 38.426 0.505 8.04 8.14 12.24
2/2/2021 11:15:00 PM 3.55 38.39 0.505 8.03 7.17 12.2
2/2/2021 11:30:00 PM 3.52 38.336 0.505 8.02 9.19 12.15
2/2/2021 11:45:00 PM 3.49 38.282 0.505 8.01 6.02 12.08
2/3/2021 12:00:00 AM 3.48 38.264 0.506 7.99 5.63 12.05
2/3/2021 12:15:00 AM 3.46 38.228 0.506 7.98 5.29 12.01
2/3/2021 12:30:00 AM 3.44 38.192 0.506 7.97 5.32 11.98
2/3/2021 12:45:00 AM 3.44 38.192 0.507 7.96 4.92 11.93
2/3/2021 1:00:00 AM 3.42 38.156 0.507 7.95 5.47 11.91
2/3/2021 1:15:00 AM 3.4 38.12 0.507 7.95 7.12 11.88
2/3/2021 1:30:00 AM 3.38 38.084 0.507 7.94 6.08 11.87
2/3/2021 1:45:00 AM 3.37 38.066 0.506 7.93 5.62 11.85
2/3/2021 2:00:00 AM 3.35 38.03 0.506 7.92 5.35 11.84
2/3/2021 2:15:00 AM 3.34 38.012 0.506 7.92 5.81 11.82
2/3/2021 2:30:00 AM 3.33 37.994 0.506 7.92 5.63 11.81
2/3/2021 2:45:00 AM 3.32 37.976 0.506 7.91 4.94 11.81
2/3/2021 3:00:00 AM 3.3 37.94 0.506 7.91 9.28 11.79
2/3/2021 3:15:00 AM 3.28 37.904 0.506 7.91 5.87 11.79
2/3/2021 3:30:00 AM 3.26 37.868 0.506 7.91 5.13 11.79
2/3/2021 3:45:00 AM 3.23 37.814 0.506 7.91 4.87 11.79
2/3/2021 4:00:00 AM 3.2 37.76 0.506 7.9 4.97 11.8
2/3/2021 4:15:00 AM 3.16 37.688 0.506 7.89 13.03 11.81
2/3/2021 4:30:00 AM 3.14 37.652 0.506 7.89 5.48 11.81
2/3/2021 4:45:00 AM 3.11 37.598 0.506 7.9 6.62 11.82
2/3/2021 5:00:00 AM 3.08 37.544 0.506 7.89 5.06 11.81
2/3/2021 5:15:00 AM 3.05 37.49 0.506 7.89 5.32 11.84
2/3/2021 5:30:00 AM 3.02 37.436 0.506 7.88 5.67 11.84
2/3/2021 5:45:00 AM 3.01 37.418 0.507 7.89 6.76 11.85
2/3/2021 6:00:00 AM 3 37.4 0.507 7.88 5.57 11.85
2/3/2021 6:15:00 AM 2.99 37.382 0.509 7.88 6.01 11.87
2/3/2021 6:30:00 AM 2.97 37.346 0.511 7.88 6.44 11.87
2/3/2021 6:45:00 AM 2.97 37.346 0.514 7.87 6.27 11.86
2/3/2021 7:00:00 AM 2.97 37.346 0.517 7.87 6.18 11.87
2/3/2021 7:15:00 AM 2.95 37.31 0.521 7.88 5.86 11.87
2/3/2021 7:30:00 AM 2.93 37.274 0.523 7.87 5.55 11.91
2/3/2021 7:45:00 AM 2.91 37.238 0.525 7.87 5.69 11.93
2/3/2021 8:00:00 AM 2.91 37.238 0.526 7.88 6.24 12.02
2/3/2021 8:15:00 AM 2.89 37.202 0.525 7.89 6.01 12.16
2/3/2021 8:30:00 AM 2.88 37.184 0.524 7.9 14.29 12.31
2/3/2021 8:45:00 AM 2.88 37.184 0.523 7.91 7.29 12.48
2/3/2021 9:00:00 AM 2.88 37.184 0.522 7.92 5.33 12.66
2/3/2021 9:15:00 AM 2.89 37.202 0.52 7.94 5.04 12.84
2/3/2021 9:30:00 AM 2.89 37.202 0.518 7.96 4.36 13.05
2/3/2021 9:45:00 AM 2.89 37.202 0.517 7.98 4.6 13.28
2/3/2021 10:00:00 AM 2.92 37.256 0.515 8.01 4.36 13.55
2/3/2021 10:15:00 AM 2.94 37.292 0.514 8.03 4.98 13.8
2/3/2021 10:30:00 AM 2.97 37.346 0.513 8.06 6.15 14.02
2/3/2021 10:45:00 AM 3.02 37.436 0.511 8.08 4.82 14.23
2/3/2021 11:00:00 AM 3.09 37.562 0.51 8.11 5.05 14.5
2/3/2021 11:15:00 AM 3.17 37.706 0.509 8.15 4.61 14.79
2/3/2021 11:30:00 AM 3.23 37.814 0.508 8.16 4.92 15
2/3/2021 11:45:00 AM 3.31 37.958 0.507 8.18 4.76 15.19
2/3/2021 12:00:00 PM 3.36 38.048 0.506 8.19 4.52 15.36
2/3/2021 12:15:00 PM 3.42 38.156 0.505 8.2 4.79 15.5
2/3/2021 12:30:00 PM 3.52 38.336 0.504 8.23 4.28 15.7
2/3/2021 12:45:00 PM 3.59 38.462 0.503 8.25 4.98 15.86
2/3/2021 1:00:00 PM 3.62 38.516 0.503 8.25 4.39 15.92
2/3/2021 1:15:00 PM 3.66 38.588 0.503 8.25 4.36 15.99
2/3/2021 1:30:00 PM 3.74 38.732 0.502 8.26 3.89 16.13
2/3/2021 1:45:00 PM 3.83 38.894 0.501 8.27 5.07 16.24
2/3/2021 2:00:00 PM 3.86 38.948 0.501 8.27 5.86 16.31
2/3/2021 2:15:00 PM 3.94 39.092 0.501 8.28 4.3 16.38
2/4/2021 8:45:00 AM -99999.99 -179968 -99999.99 -99999.99 -99999.99 -99999.99
2/4/2021 11:45:00 AM -99999.99 -179968 -99999.99 -99999.99 -99999.99 -99999.99
2/4/2021 12:00:00 PM -99999.99 -179968 -99999.99 -99999.99 -99999.99 -99999.99
2/4/2021 2:00:00 PM -99999.99 -179968 -99999.99 -99999.99 -99999.99 -99999.99
2/4/2021 3:00:00 PM -99999.99 -179968 -99999.99 -99999.99 -99999.99 -99999.99
2/8/2021 11:15:00 AM -99999.99 -179968 -99999.99 -99999.99 -99999.99 -99999.99
2/8/2021 3:30:00 PM -99999.99 -179968 -99999.99 -99999.99 -99999.99 -99999.99
2/8/2021 3:45:00 PM -99999.99 -179968 -99999.99 -99999.99 -99999.99 -99999.99
2/8/2021 4:00:00 PM -99999.99 -179968 -99999.99 -99999.99 -99999.99 -99999.99
2/8/2021 4:15:00 PM -99999.99 -179968 -99999.99 -99999.99 -99999.99 -99999.99
2/8/2021 4:30:00 PM -99999.99 -179968 -99999.99 -99999.99 -99999.99 -99999.99

These are provisional data and have not been subject to a quality assurance process, but rather are the raw data reported by the instrument.
H: value is above sensor operating range
L: value is below sensor operating range
Offline: station is not reporting data
NC: parameter is not collected at site

Data Availability & Limitations

Uncertainty and potential for error can be associated with environmental monitoring data. Provisional data have not been subject to a quality assurance process, but rather are the raw data reported by the instrument. Data users are cautioned to consider carefully the provisional nature of the information before using it for decisions that concern personal or public safety or the conduct of business that involves substantial monetary or operational consequences.

Approved data are currently available by request by emailing: srbc@srbc.net. Approved data have been subject to a quality assurance process to correct for equipment or fouling drift. Data recorded during equipment malfunctions have been removed.

View Historical Stations that have been discontinued.